Provisional Data: Starrucca Creek near Stevens Point, PA


Please select a monitoring station.
Please select start date.
Please select start date.

Toggle Unit: C/F Toggle Unit: C/F
Sample Time Temperature (C) Temperature (F) Specific Conductivity (mS/cm) pH   Turbidity (NTU+) DO (mg/L)
10/22/2021 12:00:00 AM 12.85 55.13 0.088 7.18 11.84 9.59
10/22/2021 12:15:00 AM 12.82 55.076 0.088 7.17 11.34 9.59
10/22/2021 12:30:00 AM 12.8 55.04 0.088 7.18 11.5 9.61
10/22/2021 12:45:00 AM 12.78 55.004 0.088 7.18 11.52 9.62
10/22/2021 1:00:00 AM 12.76 54.968 0.088 7.19 11.99 9.63
10/22/2021 1:15:00 AM 12.75 54.95 0.088 7.17 11.59 9.61
10/22/2021 1:30:00 AM 12.74 54.932 0.088 7.18 11.47 9.63
10/22/2021 1:45:00 AM 12.72 54.896 0.088 7.18 11.41 9.63
10/22/2021 2:00:00 AM 12.71 54.878 0.088 7.19 11.45 9.64
10/22/2021 2:15:00 AM 12.7 54.86 0.088 7.19 11.8 9.65
10/22/2021 2:30:00 AM 12.7 54.86 0.088 7.19 11.64 9.65
10/22/2021 2:45:00 AM 12.68 54.824 0.088 7.19 11.35 9.66
10/22/2021 3:00:00 AM 12.66 54.788 0.088 7.18 11.59 9.65
10/22/2021 3:15:00 AM 12.64 54.752 0.088 7.18 11.47 9.66
10/22/2021 3:30:00 AM 12.62 54.716 0.088 7.17 12.49 9.65
10/22/2021 3:45:00 AM 12.59 54.662 0.088 7.17 11.26 9.66
10/22/2021 4:00:00 AM 12.57 54.626 0.088 7.18 11.41 9.68
10/22/2021 4:15:00 AM 12.54 54.572 0.088 7.18 11.28 9.69
10/22/2021 4:30:00 AM 12.51 54.518 0.088 7.19 11.36 9.7
10/22/2021 4:45:00 AM 12.49 54.482 0.088 7.19 11.47 9.72
10/22/2021 5:00:00 AM 12.47 54.446 0.088 7.19 11.68 9.72
10/22/2021 5:15:00 AM 12.43 54.374 0.088 7.2 11.56 9.73
10/22/2021 5:30:00 AM 12.38 54.284 0.088 7.19 11.53 9.75
10/22/2021 5:45:00 AM 12.34 54.212 0.088 7.21 11.75 9.78
10/22/2021 6:00:00 AM 12.31 54.158 0.088 7.2 11.44 9.78
10/22/2021 6:15:00 AM 12.29 54.122 0.088 7.22 11.53 9.81
10/22/2021 6:30:00 AM 12.28 54.104 0.088 7.21 11.54 9.8
10/22/2021 6:45:00 AM 12.26 54.068 0.088 7.21 11.41 9.8
10/22/2021 7:00:00 AM 12.24 54.032 0.088 7.22 11.62 9.83
10/22/2021 7:15:00 AM 12.22 53.996 0.088 7.21 11.57 9.82
10/22/2021 7:30:00 AM 12.21 53.978 0.088 7.23 11.33 9.85
10/22/2021 7:45:00 AM 12.19 53.942 0.088 7.23 11.42 9.89
10/22/2021 8:00:00 AM 12.19 53.942 0.088 7.24 11.57 9.93
10/22/2021 8:15:00 AM 12.19 53.942 0.088 7.25 11.26 9.99
10/22/2021 8:30:00 AM 12.2 53.96 0.088 7.26 11.87 10.08
10/22/2021 8:45:00 AM 12.2 53.96 0.088 7.26 11.58 10.09
10/22/2021 9:00:00 AM 12.2 53.96 0.088 7.27 11.28 10.11
10/22/2021 9:15:00 AM 12.21 53.978 0.088 7.27 11.37 10.15
10/22/2021 9:30:00 AM 12.21 53.978 0.088 7.29 11.26 10.19
10/22/2021 9:45:00 AM 12.21 53.978 0.088 7.32 11.34 10.24
10/22/2021 10:00:00 AM 12.23 54.014 0.087 7.35 11.35 10.39
10/22/2021 10:15:00 AM 12.25 54.05 0.087 7.37 11.96 10.54
10/22/2021 10:30:00 AM 12.29 54.122 0.087 7.45 11.3 10.78
10/22/2021 10:45:00 AM 12.33 54.194 0.087 7.52 11.35 10.98
10/22/2021 11:00:00 AM 12.38 54.284 0.086 7.57 11.36 11.09
10/22/2021 11:15:00 AM 12.41 54.338 0.086 7.64 11.2 11.13
10/22/2021 11:30:00 AM 12.46 54.428 0.086 7.73 11.31 11.25
10/22/2021 11:45:00 AM 12.49 54.482 0.086 7.77 11.32 11.24
10/22/2021 12:00:00 PM 12.52 54.536 0.086 7.83 11.21 11.27
10/22/2021 12:15:00 PM 12.58 54.644 0.085 7.95 11.27 11.34
10/22/2021 12:30:00 PM 12.64 54.752 0.085 7.92 11.18 11.36
10/22/2021 12:45:00 PM 12.7 54.86 0.085 8 11.13 11.33
10/22/2021 1:00:00 PM 12.71 54.878 0.085 7.97 11.45 11.15
10/22/2021 1:15:00 PM 12.72 54.896 0.085 8.01 11.37 11.15
10/22/2021 1:30:00 PM 12.74 54.932 0.084 7.93 11.42 11.17
10/22/2021 1:45:00 PM 12.75 54.95 0.084 8.04 11.07 11.14
10/22/2021 2:00:00 PM 12.78 55.004 0.084 8.09 11.07 11.18
10/22/2021 2:15:00 PM 12.8 55.04 0.084 8.2 11.13 11.2
10/22/2021 2:30:00 PM 12.79 55.022 0.084 8.09 11.33 11.13
10/22/2021 2:45:00 PM 12.83 55.094 0.084 8.23 11.16 11.26
10/22/2021 3:00:00 PM 12.84 55.112 0.084 8.25 11.2 11.23
10/22/2021 3:15:00 PM 12.83 55.094 0.084 8.22 11.06 11.12
10/22/2021 3:30:00 PM 12.83 55.094 0.084 8.19 11.19 11.14
10/22/2021 3:45:00 PM 12.81 55.058 0.085 8.21 10.98 11.07
10/22/2021 4:00:00 PM 12.8 55.04 0.084 8.11 11.09 11.07
10/22/2021 4:15:00 PM 12.81 55.058 0.084 8.15 11.13 11.08
10/22/2021 4:30:00 PM 12.82 55.076 0.085 8.19 11.16 11.05
10/22/2021 4:45:00 PM 12.81 55.058 0.085 7.99 11.07 10.94
10/22/2021 5:00:00 PM 12.79 55.022 0.085 7.9 11.2 10.84
10/22/2021 5:15:00 PM 12.75 54.95 0.085 7.79 11.25 10.7
10/22/2021 5:30:00 PM 12.72 54.896 0.085 7.63 11.28 10.51
10/22/2021 5:45:00 PM 12.68 54.824 0.086 7.6 11.16 10.39
10/22/2021 6:00:00 PM 12.63 54.734 0.086 7.52 11.19 10.29
10/22/2021 6:15:00 PM 12.58 54.644 0.086 7.45 11.2 10.16
10/22/2021 6:30:00 PM 12.54 54.572 0.086 7.38 11.26 10.05
10/22/2021 6:45:00 PM 12.5 54.5 0.087 7.36 11.5 9.98
10/22/2021 7:00:00 PM 12.44 54.392 0.087 7.35 11.24 9.95
10/22/2021 7:15:00 PM 12.39 54.302 0.087 7.32 11.35 9.91
10/22/2021 7:30:00 PM 12.34 54.212 0.088 7.3 11.42 9.89
10/22/2021 7:45:00 PM 12.29 54.122 0.088 7.29 11.31 9.88
10/22/2021 8:00:00 PM 12.22 53.996 0.088 7.29 11.53 9.88
10/22/2021 8:15:00 PM 12.14 53.852 0.088 7.28 11.62 9.9
10/22/2021 8:30:00 PM 12.07 53.726 0.088 7.25 11.46 9.89
10/22/2021 8:45:00 PM 12.01 53.618 0.088 7.25 11.46 9.91
10/22/2021 9:00:00 PM 11.94 53.492 0.088 7.25 11.5 9.92
10/22/2021 9:15:00 PM 11.86 53.348 0.088 7.23 11.46 9.93
10/22/2021 9:30:00 PM 11.79 53.222 0.088 7.23 11.33 9.95
10/22/2021 9:45:00 PM 11.7 53.06 0.088 7.24 11.3 10
10/22/2021 10:00:00 PM 11.63 52.934 0.089 7.23 11.44 10
10/22/2021 10:15:00 PM 11.56 52.808 0.089 7.22 11.44 10.02
10/22/2021 10:30:00 PM 11.51 52.718 0.089 7.23 11.38 10.04
10/22/2021 10:45:00 PM 11.44 52.592 0.089 7.22 11.4 10.06
10/22/2021 11:00:00 PM 11.36 52.448 0.089 7.22 11.55 10.09
10/22/2021 11:15:00 PM 11.28 52.304 0.089 7.23 11.44 10.11
10/22/2021 11:30:00 PM 11.2 52.16 0.089 7.22 11.56 10.13
10/22/2021 11:45:00 PM 11.12 52.016 0.089 7.22 11.4 10.15
10/23/2021 12:00:00 AM 11.05 51.89 0.089 7.22 11.4 10.17
10/23/2021 12:15:00 AM 10.97 51.746 0.089 7.23 11.42 10.2
10/23/2021 12:30:00 AM 10.88 51.584 0.089 7.24 11.37 10.23
10/23/2021 12:45:00 AM 10.8 51.44 0.089 7.23 11.35 10.24
10/23/2021 1:00:00 AM 10.73 51.314 0.089 7.22 11.36 10.25
10/23/2021 1:15:00 AM 10.65 51.17 0.089 7.24 11.45 10.29
10/23/2021 1:30:00 AM 10.6 51.08 0.089 7.22 11.4 10.29
10/23/2021 1:45:00 AM 10.54 50.972 0.089 7.23 13.34 10.31
10/23/2021 2:00:00 AM 10.49 50.882 0.089 7.22 11.57 10.31
10/23/2021 2:15:00 AM 10.43 50.774 0.089 7.21 11.47 10.32
10/23/2021 2:30:00 AM 10.37 50.666 0.089 7.21 12 10.34
10/23/2021 2:45:00 AM 10.32 50.576 0.089 7.22 10.96 10.36
10/23/2021 3:00:00 AM 10.28 50.504 0.089 7.21 10.96 10.36
10/23/2021 3:15:00 AM 10.23 50.414 0.089 7.21 11.14 10.38
10/23/2021 3:30:00 AM 10.19 50.342 0.089 7.22 11.38 10.4
10/23/2021 3:45:00 AM 10.15 50.27 0.089 7.22 11.99 10.41
10/23/2021 4:00:00 AM 10.1 50.18 0.089 7.2 12.22 10.4
10/23/2021 4:15:00 AM 10.05 50.09 0.089 7.21 11.73 10.44
10/23/2021 4:30:00 AM 9.99 49.982 0.089 7.22 13.13 10.47
10/23/2021 4:45:00 AM 9.95 49.91 0.089 7.22 12.65 10.47
10/23/2021 5:00:00 AM 9.91 49.838 0.089 7.21 11.8 10.47
10/23/2021 5:15:00 AM 9.87 49.766 0.089 7.2 7.91 10.45
10/23/2021 5:30:00 AM 9.83 49.694 0.089 7.22 3.52 10.51
10/23/2021 5:45:00 AM 9.8 49.64 0.089 7.21 3.48 10.51
10/23/2021 6:00:00 AM 9.76 49.568 0.089 7.21 3.53 10.53
10/23/2021 6:15:00 AM 9.73 49.514 0.089 7.21 3.41 10.54
10/23/2021 6:30:00 AM 9.7 49.46 0.089 7.21 3.36 10.55
10/23/2021 6:45:00 AM 9.66 49.388 0.089 7.23 3.38 10.57
10/23/2021 7:00:00 AM 9.64 49.352 0.089 7.21 3.4 10.57
10/23/2021 7:15:00 AM 9.61 49.298 0.089 7.23 3.45 10.59
10/23/2021 7:30:00 AM 9.59 49.262 0.089 7.22 3.36 10.59
10/23/2021 7:45:00 AM 9.57 49.226 0.089 7.23 3.55 10.62
10/23/2021 8:00:00 AM 9.55 49.19 0.089 7.24 3.26 10.71
10/23/2021 8:15:00 AM 9.55 49.19 0.088 7.26 3.31 10.82
10/23/2021 8:30:00 AM 9.54 49.172 0.088 7.27 3.37 10.9
10/23/2021 8:45:00 AM 9.54 49.172 0.088 7.3 3.14 11.02
10/23/2021 9:00:00 AM 9.54 49.172 0.088 7.35 3.16 11.17
10/23/2021 9:15:00 AM 9.56 49.208 0.088 7.41 3.4 11.4
10/23/2021 9:30:00 AM 9.59 49.262 0.087 7.47 3.58 11.59
10/23/2021 9:45:00 AM 9.63 49.334 0.087 7.56 3.29 11.74
10/23/2021 10:00:00 AM 9.67 49.406 0.087 7.56 3.49 11.82
10/23/2021 10:15:00 AM 9.72 49.496 0.087 7.63 3.15 11.95
10/23/2021 10:30:00 AM 9.78 49.604 0.086 7.7 3.17 12.05
10/23/2021 10:45:00 AM 9.86 49.748 0.086 7.77 3.22 12.11
10/23/2021 11:00:00 AM 9.95 49.91 0.086 7.83 3.14 12.12
10/23/2021 11:15:00 AM 10.06 50.108 0.086 8 3.43 12.18
10/23/2021 11:30:00 AM 10.16 50.288 0.085 8.02 3.22 12.17
10/23/2021 11:45:00 AM 10.26 50.468 0.085 8.19 3.24 12.2
10/23/2021 12:00:00 PM 10.38 50.684 0.085 8.2 3.13 12.17
10/23/2021 12:15:00 PM 10.49 50.882 0.085 8.39 3.21 12.18
10/23/2021 12:30:00 PM 10.57 51.026 0.085 8.4 3.09 12.13
10/23/2021 12:45:00 PM 10.61 51.098 0.084 8.43 3.26 12.07
10/23/2021 1:00:00 PM 10.64 51.152 0.084 8.46 3.17 12.02
10/23/2021 1:15:00 PM 10.7 51.26 0.084 8.52 3.23 12.01
10/23/2021 1:30:00 PM 10.78 51.404 0.084 8.6 3.05 12.02
10/23/2021 1:45:00 PM 10.86 51.548 0.084 8.63 3.19 12
10/23/2021 2:00:00 PM 10.9 51.62 0.084 8.66 3.28 11.93
10/23/2021 2:15:00 PM 10.9 51.62 0.084 8.65 3.06 11.84
10/23/2021 2:30:00 PM 10.89 51.602 0.084 8.62 3.05 11.75
10/23/2021 2:45:00 PM 10.87 51.566 0.084 8.63 3.15 11.76
10/23/2021 3:00:00 PM 10.85 51.53 0.084 8.55 3.09 11.63
10/23/2021 3:15:00 PM 10.85 51.53 0.084 8.44 3.1 11.5
10/23/2021 3:30:00 PM 10.86 51.548 0.084 8.38 3.05 11.46
10/23/2021 3:45:00 PM 10.86 51.548 0.084 8.31 3.29 11.39
10/23/2021 4:00:00 PM 10.85 51.53 0.084 8.2 3.13 11.3
10/23/2021 4:15:00 PM 10.84 51.512 0.084 8.1 3.13 11.24
10/23/2021 4:30:00 PM 10.84 51.512 0.085 7.97 3.12 11.16
10/23/2021 4:45:00 PM 10.84 51.512 0.085 7.91 3.45 11.13
10/23/2021 5:00:00 PM 10.83 51.494 0.085 7.83 3.16 11.07
10/23/2021 5:15:00 PM 10.83 51.494 0.086 7.72 3.12 10.94
10/23/2021 5:30:00 PM 10.82 51.476 0.086 7.62 3.21 10.81
10/23/2021 5:45:00 PM 10.81 51.458 0.086 7.56 3.2 10.7
10/23/2021 6:00:00 PM 10.79 51.422 0.087 7.5 3.21 10.6
10/23/2021 6:15:00 PM 10.76 51.368 0.087 7.45 3.35 10.52
10/23/2021 6:30:00 PM 10.73 51.314 0.088 7.43 3.31 10.46
10/23/2021 6:45:00 PM 10.71 51.278 0.088 7.4 3.12 10.41
10/23/2021 7:00:00 PM 10.69 51.242 0.088 7.36 3.28 10.36
10/23/2021 7:15:00 PM 10.64 51.152 0.088 7.35 3.37 10.34
10/23/2021 7:30:00 PM 10.58 51.044 0.088 7.34 3.31 10.35
10/23/2021 7:45:00 PM 10.52 50.936 0.089 7.32 3.18 10.34
10/23/2021 8:00:00 PM 10.46 50.828 0.089 7.31 3.27 10.35
10/23/2021 8:15:00 PM 10.4 50.72 0.089 7.3 3.26 10.35
10/23/2021 8:30:00 PM 10.35 50.63 0.089 7.3 3.35 10.37
10/23/2021 8:45:00 PM 10.3 50.54 0.089 7.29 3.35 10.39
10/23/2021 9:00:00 PM 10.25 50.45 0.089 7.29 3.19 10.4
10/23/2021 9:15:00 PM 10.2 50.36 0.089 7.29 3.35 10.42
10/23/2021 9:30:00 PM 10.16 50.288 0.089 7.29 3.27 10.45
10/23/2021 9:45:00 PM 10.12 50.216 0.089 7.28 3.23 10.45
10/23/2021 10:00:00 PM 10.08 50.144 0.089 7.27 3.1 10.44
10/23/2021 10:15:00 PM 10.04 50.072 0.089 7.27 3.39 10.47
10/23/2021 10:30:00 PM 10 50 0.089 7.27 3.34 10.49
10/23/2021 10:45:00 PM 9.97 49.946 0.089 7.26 3.42 10.49
10/23/2021 11:00:00 PM 9.94 49.892 0.089 7.27 3.21 10.51
10/23/2021 11:15:00 PM 9.92 49.856 0.089 7.27 3.34 10.5
10/23/2021 11:30:00 PM 9.9 49.82 0.089 7.27 3.21 10.52
10/23/2021 11:45:00 PM 9.88 49.784 0.089 7.27 3.37 10.52
10/24/2021 12:00:00 AM 9.87 49.766 0.089 7.27 3.29 10.53
10/24/2021 12:15:00 AM 9.85 49.73 0.089 7.27 3.25 10.53
10/24/2021 12:30:00 AM 9.84 49.712 0.089 7.27 3.22 10.54
10/24/2021 12:45:00 AM 9.82 49.676 0.089 7.27 3.26 10.55
10/24/2021 1:00:00 AM 9.8 49.64 0.089 7.27 3.21 10.55
10/24/2021 1:15:00 AM 9.78 49.604 0.089 7.27 3.16 10.58
10/24/2021 1:30:00 AM 9.76 49.568 0.089 7.27 3.16 10.58
10/24/2021 1:45:00 AM 9.74 49.532 0.089 7.26 3.27 10.57
10/24/2021 2:00:00 AM 9.71 49.478 0.089 7.27 3.25 10.6
10/24/2021 2:15:00 AM 9.7 49.46 0.089 7.26 3.24 10.59
10/24/2021 2:30:00 AM 9.67 49.406 0.089 7.28 3.13 10.63
10/24/2021 2:45:00 AM 9.66 49.388 0.089 7.27 3.09 10.61
10/24/2021 3:00:00 AM 9.63 49.334 0.089 7.27 3.18 10.62
10/24/2021 3:15:00 AM 9.6 49.28 0.089 7.28 3.19 10.64
10/24/2021 3:30:00 AM 9.56 49.208 0.089 7.27 3.37 10.64
10/24/2021 3:45:00 AM 9.51 49.118 0.089 7.27 3.26 10.65
10/24/2021 4:00:00 AM 9.48 49.064 0.089 7.26 3.18 10.65
10/24/2021 4:15:00 AM 9.45 49.01 0.089 7.26 3.11 10.66
10/24/2021 4:30:00 AM 9.43 48.974 0.089 7.26 3.17 10.67
10/24/2021 4:45:00 AM 9.42 48.956 0.089 7.27 3.2 10.68
10/24/2021 5:00:00 AM 9.4 48.92 0.089 7.26 3.18 10.68
10/24/2021 5:15:00 AM 9.37 48.866 0.089 7.27 3.36 10.7
10/24/2021 5:30:00 AM 9.34 48.812 0.089 7.27 3.09 10.71
10/24/2021 5:45:00 AM 9.32 48.776 0.089 7.27 3.32 10.7
10/24/2021 6:00:00 AM 9.3 48.74 0.089 7.27 3.17 10.73
10/24/2021 6:15:00 AM 9.27 48.686 0.089 7.27 3.15 10.75
10/24/2021 6:30:00 AM 9.25 48.65 0.089 7.26 3.32 10.74
10/24/2021 6:45:00 AM 9.22 48.596 0.089 7.26 3.21 10.73
10/24/2021 7:00:00 AM 9.2 48.56 0.089 7.26 3.04 10.75
10/24/2021 7:15:00 AM 9.18 48.524 0.089 7.26 3.25 10.76
10/24/2021 7:30:00 AM 9.16 48.488 0.089 7.26 3.39 10.78
10/24/2021 7:45:00 AM 9.14 48.452 0.089 7.27 3.12 10.8
10/24/2021 8:00:00 AM 9.13 48.434 0.089 7.27 3.12 10.88
10/24/2021 8:15:00 AM 9.12 48.416 0.089 7.3 3.07 11.02
10/24/2021 8:30:00 AM 9.12 48.416 0.089 7.33 3.13 11.16
10/24/2021 8:45:00 AM 9.12 48.416 0.088 7.38 3.09 11.35
10/24/2021 9:00:00 AM 9.13 48.434 0.088 7.42 6.5 11.52
10/24/2021 9:15:00 AM 9.17 48.506 0.088 7.5 3.46 11.76
10/24/2021 9:30:00 AM 9.21 48.578 0.087 7.57 3.34 11.92
10/24/2021 9:45:00 AM 9.27 48.686 0.087 7.67 3.04 12.08
10/24/2021 10:00:00 AM 9.33 48.794 0.087 7.69 3.33 12.12
10/24/2021 10:15:00 AM 9.38 48.884 0.086 7.71 3.09 12.15
10/24/2021 10:30:00 AM 9.42 48.956 0.086 7.77 3.07 12.21
10/24/2021 10:45:00 AM 9.47 49.046 0.086 7.84 3.11 12.26
10/24/2021 11:00:00 AM 9.54 49.172 0.086 7.94 3.15 12.35
10/24/2021 11:15:00 AM 9.63 49.334 0.086 8.05 3.13 12.36
10/24/2021 11:30:00 AM 9.74 49.532 0.085 8.2 3.15 12.41
10/24/2021 11:45:00 AM 9.87 49.766 0.085 8.31 3.14 12.42
10/24/2021 12:00:00 PM 10 50 0.085 8.39 3.03 12.41
10/24/2021 12:15:00 PM 10.15 50.27 0.085 8.41 3.16 12.37
10/24/2021 12:30:00 PM 10.3 50.54 0.085 8.44 2.99 12.3
10/24/2021 12:45:00 PM 10.39 50.702 0.084 8.55 3.06 12.3
10/24/2021 1:00:00 PM 10.48 50.864 0.084 8.6 3.36 12.28
10/24/2021 1:15:00 PM 10.58 51.044 0.084 8.66 3.09 12.27
10/24/2021 1:30:00 PM 10.66 51.188 0.084 8.68 3.16 12.21
10/24/2021 1:45:00 PM 10.76 51.368 0.084 8.73 3.01 12.1
10/24/2021 2:00:00 PM 10.86 51.548 0.083 8.7 3.14 11.98
10/24/2021 2:15:00 PM 10.9 51.62 0.083 8.65 3.07 11.84
10/24/2021 2:30:00 PM 10.91 51.638 0.084 8.65 3.1 11.75
10/24/2021 2:45:00 PM 10.92 51.656 0.084 8.62 3.02 11.71
10/24/2021 3:00:00 PM 10.93 51.674 0.084 8.54 3.1 11.61
10/24/2021 3:15:00 PM 10.93 51.674 0.084 8.5 3.24 11.53
10/24/2021 3:30:00 PM 10.91 51.638 0.084 8.34 3.13 11.33
10/24/2021 3:45:00 PM 10.91 51.638 0.084 8.23 3.1 11.38
10/24/2021 4:00:00 PM 10.91 51.638 0.084 8.17 3.25 11.38
10/24/2021 4:15:00 PM 10.91 51.638 0.085 8.08 3.11 11.29
10/24/2021 4:30:00 PM 10.91 51.638 0.085 7.91 3.3 11.13
10/24/2021 4:45:00 PM 10.9 51.62 0.086 7.79 2.95 10.99
10/24/2021 5:00:00 PM 10.88 51.584 0.086 7.66 3.05 10.83
10/24/2021 5:15:00 PM 10.88 51.584 0.087 7.59 3.07 10.71
10/24/2021 5:30:00 PM 10.88 51.584 0.087 7.52 3.18 10.61
10/24/2021 5:45:00 PM 10.88 51.584 0.087 7.47 2.96 10.54
10/24/2021 6:00:00 PM 10.88 51.584 0.088 7.43 3.17 10.47
10/24/2021 6:15:00 PM 10.87 51.566 0.088 7.41 3.23 10.43
10/24/2021 6:30:00 PM 10.87 51.566 0.088 7.39 3.1 10.38
10/24/2021 6:45:00 PM 10.86 51.548 0.089 7.36 3.08 10.34
10/24/2021 7:00:00 PM 10.85 51.53 0.089 7.35 3.23 10.31
10/24/2021 7:15:00 PM 10.83 51.494 0.089 7.35 3.2 10.31
10/24/2021 7:30:00 PM 10.82 51.476 0.089 7.33 3.37 10.29
10/24/2021 7:45:00 PM 10.8 51.44 0.089 7.32 3.14 10.29
10/24/2021 8:00:00 PM 10.78 51.404 0.089 7.31 3.26 10.29
10/24/2021 8:15:00 PM 10.75 51.35 0.089 7.3 3.12 10.28
10/24/2021 8:30:00 PM 10.73 51.314 0.089 7.29 3.21 10.29
10/24/2021 8:45:00 PM 10.71 51.278 0.089 7.29 3.28 10.29
10/24/2021 9:00:00 PM 10.68 51.224 0.089 7.29 3.25 10.31
10/24/2021 9:15:00 PM 10.66 51.188 0.089 7.28 3.16 10.3
10/24/2021 9:30:00 PM 10.64 51.152 0.089 7.27 3.21 10.3
10/24/2021 9:45:00 PM 10.62 51.116 0.089 7.28 3.34 10.32
10/24/2021 10:00:00 PM 10.6 51.08 0.089 7.28 3.24 10.33
10/24/2021 10:15:00 PM 10.58 51.044 0.089 7.27 3.26 10.32
10/24/2021 10:30:00 PM 10.56 51.008 0.089 7.27 3.26 10.33
10/24/2021 10:45:00 PM 10.54 50.972 0.089 7.27 3.18 10.33
10/24/2021 11:00:00 PM 10.52 50.936 0.089 7.27 3.25 10.34
10/24/2021 11:15:00 PM 10.5 50.9 0.088 7.27 3.35 10.36
10/24/2021 11:30:00 PM 10.49 50.882 0.088 7.26 3.4 10.35
10/24/2021 11:45:00 PM 10.47 50.846 0.088 7.26 3.39 10.35
10/25/2021 12:00:00 AM 10.45 50.81 0.088 7.25 3.49 10.36
10/25/2021 12:15:00 AM 10.43 50.774 0.088 7.24 3.4 10.36
10/25/2021 12:30:00 AM 10.41 50.738 0.087 7.23 3.63 10.36
10/25/2021 12:45:00 AM 10.4 50.72 0.087 7.22 3.62 10.35
10/25/2021 1:00:00 AM 10.39 50.702 0.087 7.22 3.73 10.35
10/25/2021 1:15:00 AM 10.38 50.684 0.087 7.22 3.49 10.36
10/25/2021 1:30:00 AM 10.36 50.648 0.087 7.25 3.53 10.4
10/25/2021 1:45:00 AM 10.35 50.63 0.087 7.25 3.44 10.39
10/25/2021 2:00:00 AM 10.34 50.612 0.087 7.26 3.39 10.4
10/25/2021 2:15:00 AM 10.34 50.612 0.087 7.24 3.76 10.39
10/25/2021 2:30:00 AM 10.33 50.594 0.087 7.24 3.58 10.41
10/25/2021 2:45:00 AM 10.32 50.576 0.087 7.23 3.52 10.41
10/25/2021 3:00:00 AM 10.32 50.576 0.087 7.23 3.8 10.4
10/25/2021 3:15:00 AM 10.31 50.558 0.087 7.24 3.86 10.43
10/25/2021 3:30:00 AM 10.3 50.54 0.086 7.26 3.78 10.45
10/25/2021 3:45:00 AM 10.3 50.54 0.086 7.26 3.9 10.46
10/25/2021 4:00:00 AM 10.3 50.54 0.086 7.27 3.84 10.48
10/25/2021 4:15:00 AM 10.29 50.522 0.085 7.27 4 10.48
10/25/2021 4:30:00 AM 10.29 50.522 0.085 7.27 4.49 10.48
10/25/2021 4:45:00 AM 10.29 50.522 0.085 7.26 4.52 10.47
10/25/2021 5:00:00 AM 10.28 50.504 0.085 7.29 4.73 10.5
10/25/2021 5:15:00 AM 10.27 50.486 0.085 7.29 5.28 10.51
10/25/2021 5:30:00 AM 10.25 50.45 0.085 7.28 5.17 10.5
10/25/2021 5:45:00 AM 10.25 50.45 0.085 7.28 4.78 10.51
10/25/2021 6:00:00 AM 10.24 50.432 0.085 7.28 4.72 10.52
10/25/2021 6:15:00 AM 10.23 50.414 0.085 7.28 4.85 10.52
10/25/2021 6:30:00 AM 10.2 50.36 0.085 7.29 5.03 10.54
10/25/2021 6:45:00 AM 10.18 50.324 0.085 7.28 4.9 10.54
10/25/2021 7:00:00 AM 10.16 50.288 0.085 7.28 4.86 10.54
10/25/2021 7:15:00 AM 10.14 50.252 0.085 7.28 4.96 10.55
10/25/2021 7:30:00 AM 10.12 50.216 0.085 7.29 5.13 10.58
10/25/2021 7:45:00 AM 10.1 50.18 0.085 7.29 5.5 10.61
10/25/2021 8:00:00 AM 10.09 50.162 0.085 7.31 5.78 10.66
10/25/2021 8:15:00 AM 10.09 50.162 0.085 7.32 5.82 10.73
10/25/2021 8:30:00 AM 10.11 50.198 0.085 7.35 6.04 10.85
10/25/2021 8:45:00 AM 10.14 50.252 0.085 7.38 5.38 10.98
10/25/2021 9:00:00 AM 10.18 50.324 0.084 7.43 5.47 11.09
10/25/2021 9:15:00 AM 10.22 50.396 0.084 7.46 5.35 11.17
10/25/2021 9:30:00 AM 10.3 50.54 0.084 7.52 5.4 11.28
10/25/2021 9:45:00 AM 10.39 50.702 0.084 7.58 5.57 11.39
10/25/2021 10:00:00 AM 10.49 50.882 0.083 7.66 4.75 11.47
10/25/2021 10:15:00 AM 10.61 51.098 0.083 7.72 5.13 11.52
10/25/2021 10:30:00 AM 10.75 51.35 0.083 7.78 4.87 11.58
10/25/2021 10:45:00 AM 10.9 51.62 0.082 7.85 4.64 11.62
10/25/2021 11:00:00 AM 11.05 51.89 0.082 7.92 4.58 11.63
10/25/2021 11:15:00 AM 11.21 52.178 0.082 7.98 4.73 11.64
10/25/2021 11:30:00 AM 11.39 52.502 0.082 8.05 4.4 11.63
10/25/2021 11:45:00 AM 11.59 52.862 0.082 8.1 4.52 11.6
10/25/2021 12:00:00 PM 11.8 53.24 0.081 8.22 4.6 11.59
10/25/2021 12:15:00 PM 12.02 53.636 0.081 8.29 4.29 11.56
10/25/2021 12:30:00 PM 12.19 53.942 0.081 8.32 4.25 11.5
10/25/2021 12:45:00 PM 12.37 54.266 0.081 8.38 4.38 11.47
10/25/2021 1:00:00 PM 12.49 54.482 0.081 8.4 4.32 11.4
10/25/2021 1:15:00 PM 12.63 54.734 0.081 8.42 4.17 11.33
10/25/2021 1:30:00 PM 12.75 54.95 0.081 8.42 4.08 11.29
10/25/2021 1:45:00 PM 12.86 55.148 0.081 8.4 4.48 11.22
10/25/2021 2:00:00 PM 12.95 55.31 0.081 8.38 4.15 11.16
10/25/2021 2:15:00 PM 13.04 55.472 0.081 8.36 3.99 11.1
10/25/2021 2:30:00 PM 13.12 55.616 0.081 8.3 3.91 11
10/25/2021 2:45:00 PM 13.19 55.742 0.081 8.25 3.97 10.93
10/25/2021 3:00:00 PM 13.24 55.832 0.081 8.16 4.01 10.84
10/25/2021 3:15:00 PM 13.28 55.904 0.081 8.09 4 10.77
10/25/2021 3:30:00 PM 13.31 55.958 0.081 8.04 4.08 10.72
10/25/2021 3:45:00 PM 13.33 55.994 0.081 7.96 4.09 10.63
10/25/2021 4:00:00 PM 13.35 56.03 0.081 7.88 4.32 10.55
10/25/2021 4:15:00 PM 13.37 56.066 0.081 7.8 3.93 10.46
10/25/2021 4:30:00 PM 13.38 56.084 0.081 7.73 4.03 10.39
10/25/2021 4:45:00 PM 13.4 56.12 0.081 7.69 4.01 10.34
10/25/2021 5:00:00 PM 13.41 56.138 0.082 7.65 4.33 10.29
10/25/2021 5:15:00 PM 13.41 56.138 0.082 7.57 4.11 10.18
10/25/2021 5:30:00 PM 13.4 56.12 0.082 7.54 4.03 10.1
10/25/2021 5:45:00 PM 13.4 56.12 0.082 7.48 4.01 10.01
10/25/2021 6:00:00 PM 13.38 56.084 0.083 7.44 3.96 9.92
10/25/2021 6:15:00 PM 13.35 56.03 0.083 7.4 4.12 9.85
10/25/2021 6:30:00 PM 13.33 55.994 0.083 7.37 4.08 9.8
10/25/2021 6:45:00 PM 13.32 55.976 0.083 7.35 4.43 9.76
10/25/2021 7:00:00 PM 13.29 55.922 0.083 7.33 4.11 9.74
10/25/2021 7:15:00 PM 13.26 55.868 0.083 7.31 3.98 9.72
10/25/2021 7:30:00 PM 13.24 55.832 0.083 7.3 4.39 9.72
10/25/2021 7:45:00 PM 13.21 55.778 0.083 7.29 4.27 9.71
10/25/2021 8:00:00 PM 13.19 55.742 0.083 7.28 4.24 9.71
10/25/2021 8:15:00 PM 13.16 55.688 0.083 7.26 4.57 9.71
10/25/2021 8:30:00 PM 13.13 55.634 0.083 7.25 4.27 9.72
10/25/2021 8:45:00 PM 13.1 55.58 0.083 7.25 4.21 9.72
10/25/2021 9:00:00 PM 13.07 55.526 0.083 7.25 4.24 9.73
10/25/2021 9:15:00 PM 13.06 55.508 0.083 7.24 4.17 9.74
10/25/2021 9:30:00 PM 13.04 55.472 0.083 7.23 4.29 9.74
10/25/2021 9:45:00 PM 13.02 55.436 0.083 7.23 3.99 9.74
10/25/2021 10:00:00 PM 13.02 55.436 0.083 7.23 4.09 9.74
10/25/2021 10:15:00 PM 13.01 55.418 0.083 7.22 4.28 9.74
10/25/2021 10:30:00 PM 13 55.4 0.083 7.23 3.99 9.75
10/25/2021 10:45:00 PM 12.98 55.364 0.083 7.23 4.23 9.75
10/25/2021 11:00:00 PM 12.97 55.346 0.08 7.24 4.02 9.75
10/25/2021 11:15:00 PM 12.97 55.346 0.083 7.23 4.09 9.75
10/25/2021 11:30:00 PM 12.97 55.346 0.083 7.23 3.95 9.76
10/25/2021 11:45:00 PM 12.97 55.346 0.082 7.24 4.07 9.76
10/26/2021 12:00:00 AM 12.97 55.346 0.082 7.25 4.14 9.76
10/26/2021 12:15:00 AM 12.96 55.328 0.082 7.23 3.95 9.75
10/26/2021 12:30:00 AM 12.96 55.328 0.082 7.23 4.07 9.75
10/26/2021 12:45:00 AM 12.96 55.328 0.082 7.25 4.07 9.75
10/26/2021 1:00:00 AM 12.95 55.31 0.082 7.24 3.92 9.74
10/26/2021 1:15:00 AM 12.93 55.274 0.082 7.24 4.09 9.74
10/26/2021 1:30:00 AM 12.92 55.256 0.082 7.25 4.04 9.75
10/26/2021 1:45:00 AM 12.91 55.238 0.082 7.23 4.05 9.74
10/26/2021 2:00:00 AM 12.9 55.22 0.082 7.24 4.24 9.75
10/26/2021 2:15:00 AM 12.89 55.202 0.082 7.24 4.27 9.75
10/26/2021 2:30:00 AM 12.88 55.184 0.082 7.24 4.12 9.75
10/26/2021 2:45:00 AM 12.87 55.166 0.082 7.23 4.05 9.74
10/26/2021 3:00:00 AM 12.86 55.148 0.082 7.24 4.24 9.75
10/26/2021 3:15:00 AM 12.85 55.13 0.082 7.23 4.15 9.74
10/26/2021 3:30:00 AM 12.84 55.112 0.082 7.23 4.42 9.75
10/26/2021 3:45:00 AM 12.83 55.094 0.082 7.23 4.13 9.75
10/26/2021 4:00:00 AM 12.82 55.076 0.082 7.22 4.1 9.76
10/26/2021 4:15:00 AM 12.82 55.076 0.082 7.24 4.32 9.76
10/26/2021 4:30:00 AM 12.82 55.076 0.082 7.23 4.92 9.77
10/26/2021 4:45:00 AM 12.82 55.076 0.082 7.24 4.57 9.76
10/26/2021 5:00:00 AM 12.81 55.058 0.081 7.25 4.49 9.77
10/26/2021 5:15:00 AM 12.81 55.058 0.081 7.24 5.53 9.77
10/26/2021 5:30:00 AM 12.81 55.058 0.081 7.25 4.85 9.78
10/26/2021 5:45:00 AM 12.81 55.058 0.081 7.25 6.39 9.78
10/26/2021 6:00:00 AM 12.8 55.04 0.081 7.24 5.16 9.79
10/26/2021 6:15:00 AM 12.8 55.04 0.081 7.25 5.19 9.8
10/26/2021 6:30:00 AM 12.79 55.022 0.081 7.25 6.18 9.8
10/26/2021 6:45:00 AM 12.79 55.022 0.081 7.24 5.53 9.8
10/26/2021 7:00:00 AM 12.79 55.022 0.08 7.25 6.16 9.82
10/26/2021 7:15:00 AM 12.78 55.004 0.08 7.26 6.87 9.83
10/26/2021 7:30:00 AM 12.77 54.986 0.08 7.26 7.92 9.84
10/26/2021 7:45:00 AM 12.77 54.986 0.079 7.27 8.92 9.84
10/26/2021 8:00:00 AM 12.76 54.968 0.079 7.27 9.12 9.86
10/26/2021 8:15:00 AM 12.75 54.95 0.079 7.26 10.44 9.87
10/26/2021 8:30:00 AM 12.74 54.932 0.079 7.28 11.32 9.88
10/26/2021 8:45:00 AM 12.74 54.932 0.078 7.26 13.29 9.89
10/26/2021 9:00:00 AM 12.73 54.914 0.078 7.29 17.5 9.91
10/26/2021 9:15:00 AM 12.73 54.914 0.077 7.27 18.91 9.93
10/26/2021 9:30:00 AM 12.72 54.896 0.076 7.28 27.69 9.94
10/26/2021 9:45:00 AM 12.72 54.896 0.075 7.28 30.98 9.95
10/26/2021 10:00:00 AM 12.72 54.896 0.074 7.26 34.67 9.95
10/26/2021 10:15:00 AM 12.72 54.896 0.073 7.23 44.63 9.96
10/26/2021 10:30:00 AM 12.7 54.86 0.072 7.24 42.94 9.96
10/26/2021 10:45:00 AM 12.69 54.842 0.071 7.22 51.42 9.97
10/26/2021 11:00:00 AM 12.67 54.806 0.069 7.23 63.54 9.98
10/26/2021 11:15:00 AM 12.65 54.77 0.067 7.19 75.73 10.01
10/26/2021 11:30:00 AM 12.64 54.752 0.065 7.16 115.43 10.03
10/26/2021 11:45:00 AM 12.63 54.734 0.062 7.11 129.78 10.04
10/26/2021 12:00:00 PM 12.61 54.698 0.06 7.09 194.81 10.06
10/26/2021 12:15:00 PM 12.59 54.662 0.057 6.99 229.7 10.07
10/26/2021 12:30:00 PM 12.55 54.59 0.055 6.97 266.28 10.08
10/26/2021 12:45:00 PM 12.51 54.518 0.052 6.92 286.05 10.1
10/26/2021 1:00:00 PM 12.46 54.428 0.05 6.91 305.92 10.12
10/26/2021 1:15:00 PM 12.41 54.338 0.049 6.89 313.77 10.13
10/26/2021 1:30:00 PM 12.36 54.248 0.047 6.86 322.18 10.14
10/26/2021 1:45:00 PM 12.32 54.176 0.046 6.85 817.69 10.16
10/26/2021 2:00:00 PM 12.28 54.104 0.045 6.83 2026.76 10.19
10/26/2021 2:15:00 PM 12.23 54.014 0.044 6.82 572.98 10.21
10/26/2021 2:30:00 PM 12.19 53.942 0.043 6.8 7067.55 10.23
10/26/2021 2:45:00 PM 12.16 53.888 0.043 6.79 766.6 10.24
10/26/2021 3:00:00 PM 12.13 53.834 0.042 6.77 1388.39 10.25
10/26/2021 3:15:00 PM 12.11 53.798 0.042 6.76 508.03 10.25
10/26/2021 3:30:00 PM 12.1 53.78 0.042 6.75 570.21 10.26
10/26/2021 3:45:00 PM 12.09 53.762 0.042 6.75 342.38 10.26
10/26/2021 4:00:00 PM 12.08 53.744 0.041 6.75 510.79 10.25
10/26/2021 4:15:00 PM 12.08 53.744 0.041 6.73 396.26 10.26
10/26/2021 4:30:00 PM 12.07 53.726 0.042 6.73 302.39 10.27
10/26/2021 4:45:00 PM 12.07 53.726 0.042 6.73 313.44 10.27
10/26/2021 5:00:00 PM 12.07 53.726 0.042 6.73 262.74 10.27
10/26/2021 5:15:00 PM 12.07 53.726 0.042 6.7 251.72 10.28
10/26/2021 5:30:00 PM 12.06 53.708 0.042 6.71 230.77 10.29
10/26/2021 5:45:00 PM 12.06 53.708 0.042 6.69 220.79 10.29
10/26/2021 6:00:00 PM 12.05 53.69 0.043 6.71 231.37 10.29
10/26/2021 6:15:00 PM 12.05 53.69 0.043 6.7 196.77 10.29
10/26/2021 6:30:00 PM 12.04 53.672 0.042 6.65 192.76 10.3
10/26/2021 6:45:00 PM 12.04 53.672 0.042 6.68 193.34 10.3
10/26/2021 7:00:00 PM 12.03 53.654 0.042 6.69 206 10.3
10/26/2021 7:15:00 PM 12.03 53.654 0.042 6.69 202.05 10.31
10/26/2021 7:30:00 PM 12.03 53.654 0.041 6.67 429.15 10.31
10/26/2021 7:45:00 PM 12.02 53.636 0.041 6.62 247.78 10.31
10/26/2021 8:00:00 PM 12.02 53.636 0.041 6.65 241.26 10.31
10/26/2021 8:15:00 PM 12.02 53.636 0.041 6.64 234.88 10.31
10/26/2021 8:30:00 PM 12.02 53.636 0.041 6.64 227.86 10.31
10/26/2021 8:45:00 PM 12.02 53.636 0.041 6.63 216.37 10.32
10/26/2021 9:00:00 PM 12.02 53.636 0.041 6.63 203.91 10.32
10/26/2021 9:15:00 PM 12.01 53.618 0.041 6.65 193.59 10.32
10/26/2021 9:30:00 PM 12.01 53.618 0.041 6.65 184.85 10.33
10/26/2021 9:45:00 PM 12.01 53.618 0.041 6.66 178.43 10.33
10/26/2021 10:00:00 PM 12.01 53.618 0.042 6.65 170.34 10.34
10/26/2021 10:15:00 PM 12.01 53.618 0.042 6.66 158.59 10.34
10/26/2021 10:30:00 PM 12.01 53.618 0.042 6.66 156.3 10.34
10/26/2021 10:45:00 PM 12.01 53.618 0.042 6.66 158.65 10.34
10/26/2021 11:00:00 PM 12 53.6 0.042 6.68 147.02 10.35
10/26/2021 11:15:00 PM 11.99 53.582 0.043 6.66 465.52 10.35
10/26/2021 11:30:00 PM 11.99 53.582 0.043 6.66 143.5 10.35
10/26/2021 11:45:00 PM 11.98 53.564 0.043 6.68 133.59 10.35
10/27/2021 12:00:00 AM 11.97 53.546 0.043 6.67 128.57 10.35
10/27/2021 12:15:00 AM 11.97 53.546 0.043 6.68 120.34 10.35
10/27/2021 12:30:00 AM 11.96 53.528 0.043 6.69 122.67 10.35
10/27/2021 12:45:00 AM 11.95 53.51 0.043 6.69 114.79 10.35
10/27/2021 1:00:00 AM 11.95 53.51 0.043 6.68 111.39 10.36
10/27/2021 1:15:00 AM 11.94 53.492 0.043 6.7 108.16 10.36
10/27/2021 1:30:00 AM 11.94 53.492 0.043 6.7 104.05 10.37
10/27/2021 1:45:00 AM 11.93 53.474 0.043 6.69 104.58 10.37
10/27/2021 2:00:00 AM 11.93 53.474 0.043 6.7 95.6 10.37
10/27/2021 2:15:00 AM 11.92 53.456 0.043 6.7 565.36 10.37
10/27/2021 2:30:00 AM 11.92 53.456 0.044 6.71 96.35 10.37
10/27/2021 2:45:00 AM 11.92 53.456 0.044 6.72 350.48 10.37
10/27/2021 3:00:00 AM 11.92 53.456 0.044 6.73 87.83 10.37
10/27/2021 3:15:00 AM 11.91 53.438 0.044 6.72 84.9 10.37
10/27/2021 3:30:00 AM 11.91 53.438 0.044 6.69 81.63 10.37
10/27/2021 3:45:00 AM 11.91 53.438 0.044 6.72 85.29 10.37
10/27/2021 4:00:00 AM 11.9 53.42 0.044 6.71 85.41 10.37
10/27/2021 4:15:00 AM 11.9 53.42 0.044 6.72 82.09 10.37
10/27/2021 4:30:00 AM 11.89 53.402 0.044 6.72 76.01 10.38
10/27/2021 4:45:00 AM 11.89 53.402 0.045 6.73 72.79 10.38
10/27/2021 5:00:00 AM 11.88 53.384 0.045 6.73 64.39 10.38
10/27/2021 5:15:00 AM 11.87 53.366 0.045 6.74 67.9 10.39
10/27/2021 5:30:00 AM 11.87 53.366 0.045 6.74 66.23 10.39
10/27/2021 5:45:00 AM 11.86 53.348 0.045 6.74 69.55 10.39
10/27/2021 6:00:00 AM 11.86 53.348 0.045 6.75 66.57 10.4
10/27/2021 6:15:00 AM 11.85 53.33 0.045 6.74 64.74 10.4
10/27/2021 6:30:00 AM 11.84 53.312 0.045 6.75 57.67 10.4
10/27/2021 6:45:00 AM 11.83 53.294 0.045 6.75 58.73 10.4
10/27/2021 7:00:00 AM 11.82 53.276 0.046 6.76 56.12 10.41
10/27/2021 7:15:00 AM 11.82 53.276 0.046 6.76 54.72 10.41
10/27/2021 7:30:00 AM 11.81 53.258 0.046 6.76 53.46 10.42
10/27/2021 7:45:00 AM 11.8 53.24 0.046 6.77 51.3 10.42
10/27/2021 8:00:00 AM 11.79 53.222 0.046 6.77 46.94 10.42
10/27/2021 8:15:00 AM 11.78 53.204 0.046 6.77 48.17 10.43
10/27/2021 8:30:00 AM 11.77 53.186 0.046 6.77 47.92 10.43
10/27/2021 8:45:00 AM 11.76 53.168 0.046 6.74 41.6 10.44
10/27/2021 9:00:00 AM 11.75 53.15 0.046 6.78 40.11 10.44
10/27/2021 9:15:00 AM 11.75 53.15 0.047 6.78 674.06 10.45
10/27/2021 9:30:00 AM 11.74 53.132 0.047 6.79 38.61 10.45
10/27/2021 9:45:00 AM 11.74 53.132 0.047 6.8 2265.15 10.45
10/27/2021 10:00:00 AM 11.73 53.114 0.047 6.78 447.01 10.45
10/27/2021 10:15:00 AM 11.74 53.132 0.047 6.8 3420.61 10.46
10/27/2021 10:30:00 AM 11.74 53.132 0.047 6.8 173.47 10.45
10/27/2021 10:45:00 AM 11.77 53.186 0.047 6.8 33.99 10.46
10/27/2021 11:00:00 AM 11.78 53.204 0.047 6.81 1312.56 10.45
10/27/2021 11:15:00 AM 11.79 53.222 0.047 6.8 31.24 10.46
10/27/2021 11:30:00 AM 11.82 53.276 0.047 6.81 244.86 10.46
10/27/2021 11:45:00 AM 11.87 53.366 0.048 6.81 29.72 10.45
10/27/2021 12:00:00 PM 11.89 53.402 0.048 6.81 30.4 10.45
10/27/2021 12:15:00 PM 11.93 53.474 0.048 6.81 242.04 10.45
10/27/2021 12:30:00 PM 11.98 53.564 0.048 6.81 28.08 10.44
10/27/2021 12:45:00 PM 12.01 53.618 0.048 6.82 402.22 10.44
10/27/2021 1:00:00 PM 12.06 53.708 0.048 6.84 1005.98 10.42
10/27/2021 1:15:00 PM 12.11 53.798 0.048 6.83 2398.64 10.41
10/27/2021 1:30:00 PM 12.17 53.906 0.048 6.83 4105.24 10.4
10/27/2021 1:45:00 PM 12.2 53.96 0.048 6.84 28.65 10.39
10/27/2021 2:00:00 PM 12.24 54.032 0.048 6.84 471.42 10.38
10/27/2021 2:15:00 PM 12.28 54.104 0.048 6.84 510.61 10.37
10/27/2021 2:30:00 PM 12.33 54.194 0.048 6.84 413.88 10.36
10/27/2021 2:45:00 PM 12.4 54.32 0.048 6.84 3123.92 10.35
10/27/2021 3:00:00 PM 12.46 54.428 0.048 6.84 4515.82 10.33
10/27/2021 3:15:00 PM 12.5 54.5 0.048 6.84 630.24 10.32
10/27/2021 3:30:00 PM 12.53 54.554 0.048 6.84 980.16 10.31
10/27/2021 3:45:00 PM 12.56 54.608 0.048 6.84 634.19 10.3
10/27/2021 4:00:00 PM 12.58 54.644 0.048 6.84 21.21 10.29
10/27/2021 4:15:00 PM 12.58 54.644 0.048 6.85 47.4 10.29
10/27/2021 4:30:00 PM 12.58 54.644 0.048 6.83 23.36 10.28
10/27/2021 4:45:00 PM 12.58 54.644 0.048 6.83 23.85 10.27
10/27/2021 5:00:00 PM 12.56 54.608 0.048 6.84 27.65 10.27
10/27/2021 5:15:00 PM 12.54 54.572 0.048 6.84 22.35 10.28
10/27/2021 5:30:00 PM 12.53 54.554 0.049 6.83 658.45 10.28
10/27/2021 5:45:00 PM 12.51 54.518 0.049 6.84 1963.27 10.29
10/27/2021 6:00:00 PM 12.49 54.482 0.049 6.84 26.51 10.29
10/27/2021 6:15:00 PM 12.46 54.428 0.049 6.85 22.55 10.29
10/27/2021 6:30:00 PM 12.44 54.392 0.049 6.85 22.65 10.3
10/27/2021 6:45:00 PM 12.42 54.356 0.049 6.86 21.99 10.3
10/27/2021 7:00:00 PM 12.4 54.32 0.049 6.84 21.94 10.31
10/27/2021 7:15:00 PM 12.37 54.266 0.049 6.85 24.41 10.32
10/27/2021 7:30:00 PM 12.33 54.194 0.05 6.86 21.1 10.32
10/27/2021 7:45:00 PM 12.29 54.122 0.05 6.84 21.61 10.33
10/27/2021 8:00:00 PM 12.25 54.05 0.05 6.86 22.18 10.34
10/27/2021 8:15:00 PM 12.22 53.996 0.05 6.87 20.39 10.35
10/27/2021 8:30:00 PM 12.19 53.942 0.05 6.86 19.13 10.35
10/27/2021 8:45:00 PM 12.17 53.906 0.05 6.85 15.99 10.36
10/27/2021 9:00:00 PM 12.14 53.852 0.05 6.86 23.31 10.37
10/27/2021 9:15:00 PM 12.1 53.78 0.05 6.87 20.59 10.38
10/27/2021 9:30:00 PM 12.07 53.726 0.05 6.86 84.63 10.38
10/27/2021 9:45:00 PM 12.03 53.654 0.05 6.87 49.43 10.39
10/27/2021 10:00:00 PM 11.97 53.546 0.05 6.86 18.18 10.4
10/27/2021 10:15:00 PM 11.92 53.456 0.051 6.85 19.37 10.41
10/27/2021 10:30:00 PM 11.87 53.366 0.051 6.85 15.55 10.42
10/27/2021 10:45:00 PM 11.81 53.258 0.051 6.85 31.2 10.43
10/27/2021 11:00:00 PM 11.75 53.15 0.051 6.86 620.54 10.45
10/27/2021 11:15:00 PM 11.69 53.042 0.051 6.86 17.16 10.46
10/27/2021 11:30:00 PM 11.64 52.952 0.051 6.87 981.63 10.47
10/27/2021 11:45:00 PM 11.58 52.844 0.051 6.86 20.15 10.49
10/28/2021 12:00:00 AM 11.52 52.736 0.051 6.86 497.92 10.5
10/28/2021 12:15:00 AM 11.46 52.628 0.051 6.86 15.65 10.51
10/28/2021 12:30:00 AM 11.4 52.52 0.051 6.87 195.28 10.53
10/28/2021 12:45:00 AM 11.35 52.43 0.051 6.87 1642.66 10.54
10/28/2021 1:00:00 AM 11.29 52.322 0.051 6.86 49.74 10.56
10/28/2021 1:15:00 AM 11.24 52.232 0.052 6.87 875.33 10.57
10/28/2021 1:30:00 AM 11.18 52.124 0.052 6.88 1300.57 10.59
10/28/2021 1:45:00 AM 11.13 52.034 0.052 6.88 691.11 10.6
10/28/2021 2:00:00 AM 11.08 51.944 0.052 6.88 25.06 10.62
10/28/2021 2:15:00 AM 11.03 51.854 0.052 6.88 25.97 10.63
10/28/2021 2:30:00 AM 10.99 51.782 0.052 6.88 14.48 10.64
10/28/2021 2:45:00 AM 10.94 51.692 0.052 6.87 17.8 10.65
10/28/2021 3:00:00 AM 10.9 51.62 0.052 6.88 16.19 10.66
10/28/2021 3:15:00 AM 10.86 51.548 0.052 6.88 17.01 10.67
10/28/2021 3:30:00 AM 10.82 51.476 0.052 6.88 15.75 10.69
10/28/2021 3:45:00 AM 10.78 51.404 0.052 6.88 18.48 10.69
10/28/2021 4:00:00 AM 10.75 51.35 0.052 6.89 16.71 10.7
10/28/2021 4:15:00 AM 10.72 51.296 0.052 6.88 14.78 10.71
10/28/2021 4:30:00 AM 10.68 51.224 0.052 6.88 9.84 10.72
10/28/2021 4:45:00 AM 10.64 51.152 0.052 6.88 16.14 10.73
10/28/2021 5:00:00 AM 10.61 51.098 0.052 6.89 13.87 10.74
10/28/2021 5:15:00 AM 10.58 51.044 0.052 6.89 13.65 10.75
10/28/2021 5:30:00 AM 10.54 50.972 0.053 6.89 13.16 10.75
10/28/2021 5:45:00 AM 10.51 50.918 0.053 6.89 16.36 10.76
10/28/2021 6:00:00 AM 10.47 50.846 0.053 6.9 66.56 10.76
10/28/2021 6:15:00 AM 10.44 50.792 0.053 6.91 11.98 10.77
10/28/2021 6:30:00 AM 10.41 50.738 0.053 6.91 11.64 10.78
10/28/2021 6:45:00 AM 10.38 50.684 0.053 6.91 11.28 10.79
10/28/2021 7:00:00 AM 10.36 50.648 0.053 6.9 11.1 10.8
10/28/2021 7:15:00 AM 10.33 50.594 0.053 6.9 11.4 10.8
10/28/2021 7:30:00 AM 10.3 50.54 0.053 6.91 11.39 10.81
10/28/2021 7:45:00 AM 10.28 50.504 0.053 6.92 12.28 10.82
10/28/2021 8:00:00 AM 10.26 50.468 0.053 6.92 12.21 10.83
10/28/2021 8:15:00 AM 10.23 50.414 0.053 6.92 12.29 10.84
10/28/2021 8:30:00 AM 10.21 50.378 0.053 6.92 11.88 10.84
10/28/2021 8:45:00 AM 10.19 50.342 0.053 6.92 11.68 10.85
10/28/2021 9:00:00 AM 10.18 50.324 0.054 6.93 11.37 10.86
10/28/2021 9:15:00 AM 10.17 50.306 0.054 6.92 11.16 10.87
10/28/2021 9:30:00 AM 10.16 50.288 0.054 6.92 11.37 10.87
10/28/2021 9:45:00 AM 10.16 50.288 0.054 6.92 10.68 10.88
10/28/2021 10:00:00 AM 10.16 50.288 0.054 6.92 10.47 10.88
10/28/2021 10:15:00 AM 10.18 50.324 0.054 6.94 10.28 10.88
10/28/2021 10:30:00 AM 10.21 50.378 0.054 6.93 10.1 10.88
10/28/2021 10:45:00 AM 10.27 50.486 0.054 6.92 10.02 10.87
10/28/2021 11:00:00 AM 10.33 50.594 0.054 6.93 9.84 10.87
10/28/2021 11:15:00 AM 10.42 50.756 0.054 6.94 9.89 10.85
10/28/2021 11:30:00 AM 10.51 50.918 0.054 6.94 9.55 10.84
10/28/2021 11:45:00 AM 10.59 51.062 0.054 6.94 9.61 10.82
10/28/2021 12:00:00 PM 10.69 51.242 0.054 6.95 9.19 10.8
10/28/2021 12:15:00 PM 10.79 51.422 0.054 6.94 9.5 10.78
10/28/2021 12:30:00 PM 10.89 51.602 0.054 6.96 9.22 10.75
10/28/2021 12:45:00 PM 10.99 51.782 0.054 6.96 9.01 10.72
10/28/2021 1:00:00 PM 11.08 51.944 0.054 6.95 9.08 10.7
10/28/2021 1:15:00 PM 11.16 52.088 0.054 6.96 9.21 10.67
10/28/2021 1:30:00 PM 11.24 52.232 0.054 6.96 9.13 10.65
10/28/2021 1:45:00 PM 11.32 52.376 0.054 6.96 9.11 10.62
10/28/2021 2:00:00 PM 11.39 52.502 0.054 6.96 9.02 10.59
10/28/2021 2:15:00 PM 11.46 52.628 0.054 6.96 8.74 10.57
10/28/2021 2:30:00 PM 11.51 52.718 0.055 6.96 8.93 10.55
10/28/2021 2:45:00 PM 11.57 52.826 0.055 6.96 8.76 10.53
10/28/2021 3:00:00 PM 11.62 52.916 0.055 6.97 8.43 10.51
10/28/2021 3:15:00 PM 11.67 53.006 0.055 6.96 8.32 10.49
10/28/2021 3:30:00 PM 11.71 53.078 0.055 6.96 8.46 10.47
10/28/2021 3:45:00 PM 11.74 53.132 0.055 6.96 8.48 10.46
10/28/2021 4:00:00 PM 11.76 53.168 0.055 6.96 8.45 10.45
10/28/2021 4:15:00 PM 11.78 53.204 0.055 6.97 7.99 10.44
10/28/2021 4:30:00 PM 11.78 53.204 0.055 6.96 7.9 10.43
10/28/2021 4:45:00 PM 11.79 53.222 0.055 6.96 8.03 10.43
10/28/2021 5:00:00 PM 11.78 53.204 0.055 6.96 8.14 10.42
10/28/2021 5:15:00 PM 11.77 53.186 0.055 6.96 7.89 10.42
10/28/2021 5:30:00 PM 11.75 53.15 0.055 6.97 7.99 10.42
10/28/2021 5:45:00 PM 11.74 53.132 0.055 6.96 8.29 10.42
10/28/2021 6:00:00 PM 11.72 53.096 0.055 6.96 8.09 10.42
10/28/2021 6:15:00 PM 11.7 53.06 0.055 6.96 7.96 10.42
10/28/2021 6:30:00 PM 11.67 53.006 0.055 6.94 8.09 10.43
10/28/2021 6:45:00 PM 11.64 52.952 0.055 6.95 8.18 10.43
10/28/2021 7:00:00 PM 11.62 52.916 0.055 6.96 8.33 10.44
10/28/2021 7:15:00 PM 11.6 52.88 0.055 6.94 8.26 10.44
10/28/2021 7:30:00 PM 11.58 52.844 0.055 6.95 8.41 10.45
10/28/2021 7:45:00 PM 11.55 52.79 0.056 6.95 8.01 10.46
10/28/2021 8:00:00 PM 11.53 52.754 0.056 6.95 8.36 10.46
10/28/2021 8:15:00 PM 11.5 52.7 0.056 6.95 8.25 10.47
10/28/2021 8:30:00 PM 11.47 52.646 0.056 6.95 8.37 10.48
10/28/2021 8:45:00 PM 11.43 52.574 0.056 6.95 8.37 10.49
10/28/2021 9:00:00 PM 11.39 52.502 0.056 6.96 8.4 10.5
10/28/2021 9:15:00 PM 11.35 52.43 0.056 6.96 8.44 10.51
10/28/2021 9:30:00 PM 11.31 52.358 0.056 6.97 8.56 10.52
10/28/2021 9:45:00 PM 11.28 52.304 0.056 6.96 8.55 10.53
10/28/2021 10:00:00 PM 11.24 52.232 0.056 6.96 8.41 10.54
10/28/2021 10:15:00 PM 11.2 52.16 0.056 6.96 8.41 10.55
10/28/2021 10:30:00 PM 11.16 52.088 0.056 6.97 8.18 10.57
10/28/2021 10:45:00 PM 11.12 52.016 0.056 6.97 8.25 10.58
10/28/2021 11:00:00 PM 11.08 51.944 0.056 6.97 7.98 10.58
10/28/2021 11:15:00 PM 11.04 51.872 0.056 6.97 8.22 10.59
10/28/2021 11:30:00 PM 11 51.8 0.056 6.97 8.1 10.61
10/28/2021 11:45:00 PM 10.98 51.764 0.056 6.97 8.09 10.62
10/29/2021 12:00:00 AM 10.95 51.71 0.056 6.98 8.07 10.62
10/29/2021 12:15:00 AM 10.94 51.692 0.056 6.98 8.07 10.63
10/29/2021 12:30:00 AM 10.92 51.656 0.056 6.98 7.83 10.64
10/29/2021 12:45:00 AM 10.91 51.638 0.056 6.98 7.82 10.64
10/29/2021 1:00:00 AM 10.89 51.602 0.056 6.98 7.74 10.65
10/29/2021 1:15:00 AM 10.88 51.584 0.057 6.98 7.54 10.65
10/29/2021 1:30:00 AM 10.87 51.566 0.057 6.98 7.83 10.65
10/29/2021 1:45:00 AM 10.86 51.548 0.057 6.98 7.64 10.66
10/29/2021 2:00:00 AM 10.85 51.53 0.057 6.98 7.39 10.66
10/29/2021 2:15:00 AM 10.84 51.512 0.057 6.98 7.5 10.66
10/29/2021 2:30:00 AM 10.83 51.494 0.057 6.99 7.47 10.66
10/29/2021 2:45:00 AM 10.82 51.476 0.057 6.98 7.7 10.66
10/29/2021 3:00:00 AM 10.82 51.476 0.057 6.98 7.56 10.66
10/29/2021 3:15:00 AM 10.81 51.458 0.057 6.98 7.96 10.66
10/29/2021 3:30:00 AM 10.8 51.44 0.057 6.98 8.07 10.66
10/29/2021 3:45:00 AM 10.79 51.422 0.057 6.99 8.18 10.66
10/29/2021 4:00:00 AM 10.78 51.404 0.057 6.99 7.9 10.66
10/29/2021 4:15:00 AM 10.77 51.386 0.057 6.99 8.06 10.67
10/29/2021 4:30:00 AM 10.76 51.368 0.057 6.99 8.12 10.67
10/29/2021 4:45:00 AM 10.74 51.332 0.057 6.99 8.25 10.67
10/29/2021 5:00:00 AM 10.73 51.314 0.057 6.99 8.26 10.67
10/29/2021 5:15:00 AM 10.71 51.278 0.057 7 7.98 10.67
10/29/2021 5:30:00 AM 10.68 51.224 0.057 7 7.77 10.68
10/29/2021 5:45:00 AM 10.65 51.17 0.057 6.99 7.64 10.68
10/29/2021 6:00:00 AM 10.63 51.134 0.057 6.99 7.49 10.69
10/29/2021 6:15:00 AM 10.61 51.098 0.057 6.99 7.32 10.69
10/29/2021 6:30:00 AM 10.59 51.062 0.057 7.01 7.34 10.7
10/29/2021 6:45:00 AM 10.58 51.044 0.057 7 7.33 10.7
10/29/2021 7:00:00 AM 10.57 51.026 0.057 7 7.4 10.7
10/29/2021 7:15:00 AM 10.55 50.99 0.058 7 7.61 10.71
10/29/2021 7:30:00 AM 10.52 50.936 0.058 7 7.78 10.72
10/29/2021 7:45:00 AM 10.49 50.882 0.058 7 7.88 10.72
10/29/2021 8:00:00 AM 10.45 50.81 0.058 7.01 7.72 10.74
10/29/2021 8:15:00 AM 10.41 50.738 0.058 7.01 7.21 10.75
10/29/2021 8:30:00 AM 10.37 50.666 0.058 7.01 7.15 10.76
10/29/2021 8:45:00 AM 10.35 50.63 0.058 7.01 6.94 10.77
10/29/2021 9:00:00 AM 10.33 50.594 0.058 7.02 6.79 10.78
10/29/2021 9:15:00 AM 10.3 50.54 0.058 7.02 6.98 10.79
10/29/2021 9:30:00 AM 10.3 50.54 0.058 7.02 7.19 10.79
10/29/2021 9:45:00 AM 10.29 50.522 0.058 7.03 7.07 10.8
10/29/2021 10:00:00 AM 10.28 50.504 0.058 7.02 7.09 10.81
10/29/2021 10:15:00 AM 10.3 50.54 0.058 7.03 6.88 10.81
10/29/2021 10:30:00 AM 10.28 50.504 0.058 7.03 6.99 10.81
10/29/2021 10:45:00 AM 10.3 50.54 0.058 7.03 7.01 10.81
10/29/2021 11:00:00 AM 10.34 50.612 0.058 7.03 6.95 10.81
10/29/2021 11:15:00 AM 10.4 50.72 0.058 7.04 6.86 10.8
10/29/2021 11:30:00 AM 10.42 50.756 0.058 7.03 6.57 10.79
10/29/2021 11:45:00 AM 10.47 50.846 0.058 7.04 7.17 10.79
10/29/2021 12:00:00 PM 10.49 50.882 0.058 7.03 8.12 10.78
10/29/2021 12:15:00 PM 10.6 51.08 0.058 7.04 8.66 10.76
10/29/2021 12:30:00 PM 10.76 51.368 0.058 7.04 8.09 10.74
10/29/2021 12:45:00 PM 10.88 51.584 0.058 7.04 20.94 10.71
10/29/2021 1:00:00 PM 10.93 51.674 0.058 7.05 6.8 10.69
10/29/2021 1:15:00 PM 10.94 51.692 0.058 7.04 6.56 10.68
10/29/2021 1:30:00 PM 10.9 51.62 0.058 7.05 6.34 10.68
10/29/2021 1:45:00 PM 10.95 51.71 0.058 7.05 6.39 10.67
10/29/2021 2:00:00 PM 10.95 51.71 0.058 7.05 6.37 10.65
10/29/2021 2:15:00 PM 10.98 51.764 0.058 7.05 6.3 10.64
10/29/2021 2:30:00 PM 11 51.8 0.058 7.06 6.35 10.64
10/29/2021 2:45:00 PM 10.96 51.728 0.059 7.05 6.36 10.64
10/29/2021 3:00:00 PM 11 51.8 0.059 7.05 6.6 10.62
10/29/2021 3:15:00 PM 10.97 51.746 0.059 7.05 6.47 10.62
10/29/2021 3:30:00 PM 10.96 51.728 0.059 7.05 6.43 10.62
10/29/2021 3:45:00 PM 10.95 51.71 0.059 7.05 6.64 10.61
10/29/2021 4:00:00 PM 10.93 51.674 0.059 7.06 6.46 10.61
10/29/2021 4:15:00 PM 10.88 51.584 0.059 7.05 6.25 10.61
10/29/2021 4:30:00 PM 10.84 51.512 0.059 7.04 6.54 10.61
10/29/2021 4:45:00 PM 10.83 51.494 0.059 7.04 6.12 10.61
10/29/2021 5:00:00 PM 10.82 51.476 0.059 7.04 6.22 10.61
10/29/2021 5:15:00 PM 10.8 51.44 0.059 7.04 5.83 10.6
10/29/2021 5:30:00 PM 10.79 51.422 0.059 7.04 5.94 10.6
10/29/2021 5:45:00 PM 10.77 51.386 0.059 7.04 6.09 10.6
10/29/2021 6:00:00 PM 10.75 51.35 0.059 7.04 5.93 10.6
10/29/2021 6:15:00 PM 10.72 51.296 0.059 7.04 5.92 10.6
10/29/2021 6:30:00 PM 10.69 51.242 0.059 7.03 5.91 10.61
10/29/2021 6:45:00 PM 10.65 51.17 0.059 7.04 5.91 10.61
10/29/2021 7:00:00 PM 10.6 51.08 0.059 7.04 5.9 10.62
10/29/2021 7:15:00 PM 10.56 51.008 0.059 7.04 5.98 10.63
10/29/2021 7:30:00 PM 10.52 50.936 0.059 7.05 6.63 10.64
10/29/2021 7:45:00 PM 10.49 50.882 0.059 7.04 5.74 10.64
10/29/2021 8:00:00 PM 10.47 50.846 0.059 7.04 6.02 10.65
10/29/2021 8:15:00 PM 10.44 50.792 0.059 7.04 6.22 10.65
10/29/2021 8:30:00 PM 10.41 50.738 0.059 7.04 6.32 10.66
10/29/2021 8:45:00 PM 10.39 50.702 0.059 7.04 6.73 10.66
10/29/2021 9:00:00 PM 10.37 50.666 0.059 7.04 6.73 10.67
10/29/2021 9:15:00 PM 10.36 50.648 0.059 7.04 6.46 10.66
10/29/2021 9:30:00 PM 10.33 50.594 0.06 7.05 7.51 10.67
10/29/2021 9:45:00 PM 10.31 50.558 0.06 7.04 6.13 10.68
10/29/2021 10:00:00 PM 10.3 50.54 0.059 7.04 6.25 10.69
10/29/2021 10:15:00 PM 10.26 50.468 0.059 7.04 6.3 10.7
10/29/2021 10:30:00 PM 10.22 50.396 0.059 7.03 6.33 10.72
10/29/2021 10:45:00 PM 10.19 50.342 0.059 7.04 6.85 10.73
10/29/2021 11:00:00 PM 10.16 50.288 0.058 7.04 6.93 10.73
10/29/2021 11:15:00 PM 10.14 50.252 0.058 7.03 7.22 10.74
10/29/2021 11:30:00 PM 10.13 50.234 0.058 7.03 7.7 10.74
10/29/2021 11:45:00 PM 10.1 50.18 0.058 7.03 9.41 10.75
10/30/2021 12:00:00 AM 10.08 50.144 0.057 7.03 13.25 10.77
10/30/2021 12:15:00 AM 10.04 50.072 0.056 7.02 14.12 10.78
10/30/2021 12:30:00 AM 10 50 0.055 7.01 20.69 10.81
10/30/2021 12:45:00 AM 9.96 49.928 0.055 7.02 22.5 10.82
10/30/2021 1:00:00 AM 9.92 49.856 0.055 7.04 19.94 10.84
10/30/2021 1:15:00 AM 9.89 49.802 0.056 7.05 21.58 10.85
10/30/2021 1:30:00 AM 9.86 49.748 0.056 7.05 23.27 10.86
10/30/2021 1:45:00 AM 9.84 49.712 0.056 7.06 22.25 10.87
10/30/2021 2:00:00 AM 9.82 49.676 0.056 7.05 22.62 10.88
10/30/2021 2:15:00 AM 9.8 49.64 0.055 7.05 21.77 10.88
10/30/2021 2:30:00 AM 9.79 49.622 0.055 7.05 20.06 10.88
10/30/2021 2:45:00 AM 9.78 49.604 0.055 7.05 18.99 10.88
10/30/2021 3:00:00 AM 9.78 49.604 0.054 7.05 18.05 10.87
10/30/2021 3:15:00 AM 9.77 49.586 0.054 7.04 17.64 10.87
10/30/2021 3:30:00 AM 9.76 49.568 0.054 7.03 17.55 10.88
10/30/2021 3:45:00 AM 9.76 49.568 0.054 7.03 18.02 10.87
10/30/2021 4:00:00 AM 9.76 49.568 0.054 7.03 16.62 10.87
10/30/2021 4:15:00 AM 9.75 49.55 0.054 7.04 14.27 10.87
10/30/2021 4:30:00 AM 9.75 49.55 0.054 7.03 13.28 10.86
10/30/2021 4:45:00 AM 9.76 49.568 0.054 7.03 11.93 10.86
10/30/2021 5:00:00 AM 9.76 49.568 0.054 7.03 12.08 10.86
10/30/2021 5:15:00 AM 9.76 49.568 0.054 7.03 11.24 10.86
10/30/2021 5:30:00 AM 9.77 49.586 0.054 7.03 11.44 10.86
10/30/2021 5:45:00 AM 9.77 49.586 0.055 7.02 11.09 10.86
10/30/2021 6:00:00 AM 9.78 49.604 0.055 7.02 10.59 10.85
10/30/2021 6:15:00 AM 9.78 49.604 0.055 7.02 10.81 10.85
10/30/2021 6:30:00 AM 9.79 49.622 0.055 7.03 10.77 10.85
10/30/2021 6:45:00 AM 9.8 49.64 0.055 7.03 10.5 10.84
10/30/2021 7:00:00 AM 9.81 49.658 0.055 7.03 9.81 10.84
10/30/2021 7:15:00 AM 9.82 49.676 0.055 7.02 18.79 10.84
10/30/2021 7:30:00 AM 9.83 49.694 0.055 7.03 9.35 10.84
10/30/2021 7:45:00 AM 9.84 49.712 0.055 7.03 9.18 10.83
10/30/2021 8:00:00 AM 9.85 49.73 0.055 7.03 9.17 10.83
10/30/2021 8:15:00 AM 9.86 49.748 0.055 7.02 8.95 10.83
10/30/2021 8:30:00 AM 9.88 49.784 0.055 7.03 9 10.83
10/30/2021 8:45:00 AM 9.89 49.802 0.055 7.02 8.94 10.83
10/30/2021 9:00:00 AM 9.91 49.838 0.055 7.02 8.83 10.83
10/30/2021 9:15:00 AM 9.93 49.874 0.055 7.02 8.22 10.83
10/30/2021 9:30:00 AM 9.95 49.91 0.055 7.02 8.49 10.82
10/30/2021 9:45:00 AM 9.97 49.946 0.055 7.02 8.21 10.82
10/30/2021 10:00:00 AM 10 50 0.055 7.02 8.47 10.82
10/30/2021 10:15:00 AM 10.02 50.036 0.055 7.03 8.5 10.81
10/30/2021 10:30:00 AM 10.05 50.09 0.055 7.03 8.39 10.81
10/30/2021 10:45:00 AM 10.08 50.144 0.055 7.03 8.05 10.81
10/30/2021 11:00:00 AM 10.12 50.216 0.055 7.04 8.02 10.8
10/30/2021 11:15:00 AM 10.17 50.306 0.055 7.04 8.14 10.8
10/30/2021 11:30:00 AM 10.21 50.378 0.055 7.04 8.23 10.79
10/30/2021 11:45:00 AM 10.24 50.432 0.055 7.04 8.27 10.78
10/30/2021 12:00:00 PM 10.26 50.468 0.055 7.04 8.27 10.78
10/30/2021 12:15:00 PM 10.3 50.54 0.055 7.04 8.63 10.77
10/30/2021 12:30:00 PM 10.35 50.63 0.055 7.04 8.4 10.76
10/30/2021 12:45:00 PM 10.42 50.756 0.055 7.06 8.3 10.74
10/30/2021 1:00:00 PM 10.47 50.846 0.055 7.05 8.27 10.73
10/30/2021 1:15:00 PM 10.51 50.918 0.055 7.05 8.14 10.71
10/30/2021 1:30:00 PM 10.55 50.99 0.055 7.05 7.97 10.7
10/30/2021 1:45:00 PM 10.57 51.026 0.055 7.04 7.84 10.69
10/30/2021 2:00:00 PM 10.59 51.062 0.055 7.05 7.93 10.68
10/30/2021 2:15:00 PM 10.6 51.08 0.055 7.04 7.63 10.67
10/30/2021 2:30:00 PM 10.62 51.116 0.055 7.05 7.53 10.66
10/30/2021 2:45:00 PM 10.63 51.134 0.055 7.04 7.78 10.66
10/30/2021 3:00:00 PM 10.64 51.152 0.055 7.04 7.45 10.66
10/30/2021 3:15:00 PM 10.67 51.206 0.055 7.04 7.37 10.65
10/30/2021 3:30:00 PM 10.71 51.278 0.055 7.04 7.28 10.65
10/30/2021 3:45:00 PM 10.75 51.35 0.055 7.04 7 10.64
10/30/2021 4:00:00 PM 10.79 51.422 0.055 7.05 7.21 10.63
10/30/2021 4:15:00 PM 10.82 51.476 0.055 7.04 7.3 10.63
10/30/2021 4:30:00 PM 10.84 51.512 0.055 7.04 7.06 10.61
10/30/2021 4:45:00 PM 10.86 51.548 0.055 7.05 7.18 10.6
10/30/2021 5:00:00 PM 10.87 51.566 0.055 7.04 6.97 10.59
10/30/2021 5:15:00 PM 10.88 51.584 0.055 7.04 6.9 10.59
10/30/2021 5:30:00 PM 10.89 51.602 0.055 7.03 7.11 10.58
10/30/2021 5:45:00 PM 10.9 51.62 0.055 7.03 7.03 10.58
10/30/2021 6:00:00 PM 10.9 51.62 0.055 7.02 6.95 10.57
10/30/2021 6:15:00 PM 10.9 51.62 0.056 7.03 6.85 10.57
10/30/2021 6:30:00 PM 10.9 51.62 0.056 7.03 6.77 10.56
10/30/2021 6:45:00 PM 10.9 51.62 0.056 7.02 6.82 10.56
10/30/2021 7:00:00 PM 10.9 51.62 0.056 7.01 6.99 10.56
10/30/2021 7:15:00 PM 10.89 51.602 0.056 7.01 6.89 10.56
10/30/2021 7:30:00 PM 10.89 51.602 0.056 7.01 6.99 10.56
10/30/2021 7:45:00 PM 10.88 51.584 0.056 7 6.81 10.56
10/30/2021 8:00:00 PM 10.87 51.566 0.056 7.01 6.85 10.56
10/30/2021 8:15:00 PM 10.85 51.53 0.056 7 6.96 10.56
10/30/2021 8:30:00 PM 10.83 51.494 0.056 7 6.93 10.57
10/30/2021 8:45:00 PM 10.81 51.458 0.056 7 6.89 10.57
10/30/2021 9:00:00 PM 10.79 51.422 0.056 7 6.76 10.57
10/30/2021 9:15:00 PM 10.78 51.404 0.056 7 6.82 10.58
10/30/2021 9:30:00 PM 10.78 51.404 0.056 7 6.8 10.58
10/30/2021 9:45:00 PM 10.78 51.404 0.056 7 7.09 10.58
10/30/2021 10:00:00 PM 10.78 51.404 0.056 7 6.6 10.58
10/30/2021 10:15:00 PM 10.79 51.422 0.056 7.01 6.83 10.58
10/30/2021 10:30:00 PM 10.78 51.404 0.057 7.01 6.6 10.58
10/30/2021 10:45:00 PM 10.79 51.422 0.057 7 6.68 10.58
10/30/2021 11:00:00 PM 10.8 51.44 0.057 7 6.6 10.57
10/30/2021 11:15:00 PM 10.81 51.458 0.057 7.01 827.33 10.57
10/30/2021 11:30:00 PM 10.81 51.458 0.057 7.01 420.39 10.56
10/30/2021 11:45:00 PM 10.82 51.476 0.057 7.01 6.45 10.56
10/31/2021 12:00:00 AM 10.83 51.494 0.057 7.01 6.5 10.56
10/31/2021 12:15:00 AM 10.83 51.494 0.057 7.01 226.5 10.56
10/31/2021 12:30:00 AM 10.83 51.494 0.057 7.01 6.1 10.55
10/31/2021 12:45:00 AM 10.83 51.494 0.057 7.02 6.34 10.55
10/31/2021 1:00:00 AM 10.83 51.494 0.057 7.01 6.24 10.55
10/31/2021 1:15:00 AM 10.82 51.476 0.057 7.01 6.46 10.55
10/31/2021 1:30:00 AM 10.82 51.476 0.057 7.01 6.43 10.54
10/31/2021 1:45:00 AM 10.83 51.494 0.057 7.01 6.4 10.55
10/31/2021 2:00:00 AM 10.83 51.494 0.057 7.01 6.27 10.54
10/31/2021 2:15:00 AM 10.84 51.512 0.057 7.02 6.41 10.54
10/31/2021 2:30:00 AM 10.84 51.512 0.057 7.02 6.46 10.54
10/31/2021 2:45:00 AM 10.84 51.512 0.057 7.02 6.54 10.55
10/31/2021 3:00:00 AM 10.83 51.494 0.057 7.03 6.3 10.55
10/31/2021 3:15:00 AM 10.83 51.494 0.057 7.03 6.46 10.54
10/31/2021 3:30:00 AM 10.83 51.494 0.057 7.04 6.3 10.54
10/31/2021 3:45:00 AM 10.84 51.512 0.057 7.03 6.45 10.54
10/31/2021 4:00:00 AM 10.84 51.512 0.057 7.03 6.78 10.54
10/31/2021 4:15:00 AM 10.84 51.512 0.057 7.03 6.6 10.54
10/31/2021 4:30:00 AM 10.84 51.512 0.057 7.03 6.64 10.54
10/31/2021 4:45:00 AM 10.84 51.512 0.057 7.04 6.38 10.54
10/31/2021 5:00:00 AM 10.84 51.512 0.057 7.04 6.43 10.54
10/31/2021 5:15:00 AM 10.84 51.512 0.057 7.04 6.16 10.54
10/31/2021 5:30:00 AM 10.84 51.512 0.057 7.04 6.23 10.54
10/31/2021 5:45:00 AM 10.83 51.494 0.057 7.04 6.17 10.54
10/31/2021 6:00:00 AM 10.83 51.494 0.057 7.04 6.12 10.54
10/31/2021 6:15:00 AM 10.83 51.494 0.057 7.04 5.99 10.54
10/31/2021 6:30:00 AM 10.83 51.494 0.057 7.04 6.17 10.54
10/31/2021 6:45:00 AM 10.82 51.476 0.057 7.05 6.06 10.55
10/31/2021 7:00:00 AM 10.82 51.476 0.057 7.05 6.2 10.54
10/31/2021 7:15:00 AM 10.81 51.458 0.057 7.05 6.18 10.55
10/31/2021 7:30:00 AM 10.81 51.458 0.057 7.05 6.03 10.55
10/31/2021 7:45:00 AM 10.8 51.44 0.057 7.05 6.05 10.55
10/31/2021 8:00:00 AM 10.8 51.44 0.057 7.05 5.92 10.55
10/31/2021 8:15:00 AM 10.8 51.44 0.057 7.05 5.87 10.56
10/31/2021 8:30:00 AM 10.8 51.44 0.057 7.05 5.98 10.56
10/31/2021 8:45:00 AM 10.8 51.44 0.057 7.04 6.01 10.56
10/31/2021 9:00:00 AM 10.8 51.44 0.057 7.05 5.73 10.57
10/31/2021 9:15:00 AM 10.8 51.44 0.057 7.05 5.92 10.57
10/31/2021 9:30:00 AM 10.8 51.44 0.057 7.05 5.82 10.57
10/31/2021 9:45:00 AM 10.81 51.458 0.057 7.06 5.49 10.57
10/31/2021 10:00:00 AM 10.83 51.494 0.057 7.05 5.69 10.57
10/31/2021 10:15:00 AM 10.84 51.512 0.058 7.06 5.61 10.57
10/31/2021 10:30:00 AM 10.85 51.53 0.058 7.06 5.46 10.57
10/31/2021 10:45:00 AM 10.87 51.566 0.058 7.06 5.47 10.57
10/31/2021 11:00:00 AM 10.89 51.602 0.058 7.07 5.54 10.57
10/31/2021 11:15:00 AM 10.91 51.638 0.058 7.07 5.51 10.57
10/31/2021 11:30:00 AM 10.95 51.71 0.058 7.08 5.44 10.56
10/31/2021 11:45:00 AM 10.99 51.782 0.058 7.08 5.43 10.57
10/31/2021 12:00:00 PM 11.04 51.872 0.058 7.07 5.6 10.56
10/31/2021 12:15:00 PM 11.06 51.908 0.058 7.08 5.53 10.56
10/31/2021 12:30:00 PM 11.07 51.926 0.058 7.07 5.63 10.55
10/31/2021 12:45:00 PM 11.1 51.98 0.058 7.08 5.47 10.55
10/31/2021 1:00:00 PM 11.13 52.034 0.058 7.08 5.47 10.54
10/31/2021 1:15:00 PM 11.15 52.07 0.058 7.08 5.48 10.53
10/31/2021 1:30:00 PM 11.24 52.232 0.058 7.09 5.48 10.52
10/31/2021 1:45:00 PM 11.26 52.268 0.058 7.09 5.49 10.51
10/31/2021 2:00:00 PM 11.29 52.322 0.058 7.09 5.52 10.5
10/31/2021 2:15:00 PM 11.37 52.466 0.058 7.1 5.35 10.49
10/31/2021 2:30:00 PM 11.39 52.502 0.058 7.09 5.35 10.48
10/31/2021 2:45:00 PM 11.39 52.502 0.058 7.09 5.26 10.47
10/31/2021 3:00:00 PM 11.42 52.556 0.058 7.09 5.26 10.46
10/31/2021 3:15:00 PM 11.43 52.574 0.058 7.1 5.36 10.46
10/31/2021 3:30:00 PM 11.46 52.628 0.058 7.09 5.35 10.45
10/31/2021 3:45:00 PM 11.46 52.628 0.058 7.09 5.26 10.45
10/31/2021 4:00:00 PM 11.46 52.628 0.058 7.09 5.1 10.45
10/31/2021 4:15:00 PM 11.46 52.628 0.058 7.09 5.13 10.45
10/31/2021 4:30:00 PM 11.46 52.628 0.058 7.09 5.3 10.45
10/31/2021 4:45:00 PM 11.47 52.646 0.058 7.09 5.14 10.44
10/31/2021 5:00:00 PM 11.47 52.646 0.058 7.1 5.25 10.44
10/31/2021 5:15:00 PM 11.46 52.628 0.058 7.09 5.2 10.44
10/31/2021 5:30:00 PM 11.45 52.61 0.058 7.09 5.21 10.44
10/31/2021 5:45:00 PM 11.44 52.592 0.058 7.09 5.42 10.43
10/31/2021 6:00:00 PM 11.43 52.574 0.058 7.09 5.22 10.43
10/31/2021 6:15:00 PM 11.41 52.538 0.058 7.08 5.22 10.44
10/31/2021 6:30:00 PM 11.4 52.52 0.058 7.07 5.36 10.44
10/31/2021 6:45:00 PM 11.39 52.502 0.058 7.07 5.21 10.44
10/31/2021 7:00:00 PM 11.37 52.466 0.058 7.07 5.34 10.45
10/31/2021 7:15:00 PM 11.35 52.43 0.058 7.07 7.09 10.46
10/31/2021 7:30:00 PM 11.33 52.394 0.058 7.07 5.19 10.46
10/31/2021 7:45:00 PM 11.31 52.358 0.058 7.08 5.16 10.47
10/31/2021 8:00:00 PM 11.29 52.322 0.058 7.07 5.34 10.48
10/31/2021 8:15:00 PM 11.28 52.304 0.058 7.07 5.28 10.49
10/31/2021 8:30:00 PM 11.26 52.268 0.058 7.08 5.58 10.49
10/31/2021 8:45:00 PM 11.23 52.214 0.058 7.07 37.96 10.5
10/31/2021 9:00:00 PM 11.19 52.142 0.058 7.07 5.41 10.51
10/31/2021 9:15:00 PM 11.16 52.088 0.058 7.07 5.61 10.52
10/31/2021 9:30:00 PM 11.11 51.998 0.058 7.07 5.58 10.53
10/31/2021 9:45:00 PM 11.06 51.908 0.058 7.07 5.69 10.55
10/31/2021 10:00:00 PM 11.02 51.836 0.059 7.07 5.58 10.56
10/31/2021 10:15:00 PM 10.99 51.782 0.059 7.07 5.41 10.57
10/31/2021 10:30:00 PM 10.94 51.692 0.059 7.07 5.43 10.58
10/31/2021 10:45:00 PM 10.9 51.62 0.059 7.07 5.46 10.59
10/31/2021 11:00:00 PM 10.87 51.566 0.059 7.07 5.63 10.6
10/31/2021 11:15:00 PM 10.84 51.512 0.059 7.06 5.6 10.61
10/31/2021 11:30:00 PM 10.81 51.458 0.059 7.07 5.45 10.62
10/31/2021 11:45:00 PM 10.78 51.404 0.059 7.06 5.27 10.63
11/1/2021 12:00:00 AM 10.74 51.332 0.059 7.06 5.22 10.64
11/1/2021 12:15:00 AM 10.71 51.278 0.059 7.06 5.28 10.65
11/1/2021 12:30:00 AM 10.69 51.242 0.059 7.07 5.11 10.65
11/1/2021 12:45:00 AM 10.66 51.188 0.059 7.06 5.11 10.66
11/1/2021 1:00:00 AM 10.64 51.152 0.059 7.06 5.14 10.67
11/1/2021 1:15:00 AM 10.63 51.134 0.059 7.06 5.06 10.67
11/1/2021 1:30:00 AM 10.62 51.116 0.059 7.06 5.12 10.67
11/1/2021 1:45:00 AM 10.6 51.08 0.059 7.06 5.16 10.68
11/1/2021 2:00:00 AM 10.59 51.062 0.059 7.07 5.22 10.69
11/1/2021 2:15:00 AM 10.58 51.044 0.059 7.07 5.45 10.69
11/1/2021 2:30:00 AM 10.57 51.026 0.059 7.08 5.13 10.69
11/1/2021 2:45:00 AM 10.57 51.026 0.059 7.07 5.26 10.69
11/1/2021 3:00:00 AM 10.56 51.008 0.059 7.07 5.34 10.69
11/1/2021 3:15:00 AM 10.55 50.99 0.059 7.07 5.06 10.7
11/1/2021 3:30:00 AM 10.54 50.972 0.059 7.08 5.03 10.7
11/1/2021 3:45:00 AM 10.53 50.954 0.059 7.07 4.84 10.71
11/1/2021 4:00:00 AM 10.52 50.936 0.059 7.08 4.85 10.71
11/1/2021 4:15:00 AM 10.5 50.9 0.059 7.07 4.98 10.72
11/1/2021 4:30:00 AM 10.5 50.9 0.059 7.08 5.13 10.71
11/1/2021 4:45:00 AM 10.49 50.882 0.059 7.08 4.81 10.72
11/1/2021 5:00:00 AM 10.46 50.828 0.059 7.08 4.8 10.72
11/1/2021 5:15:00 AM 10.43 50.774 0.06 7.08 4.82 10.73
11/1/2021 5:30:00 AM 10.41 50.738 0.06 7.08 4.81 10.74
11/1/2021 5:45:00 AM 10.39 50.702 0.06 7.09 4.76 10.75
11/1/2021 6:00:00 AM 10.37 50.666 0.06 7.09 4.75 10.76
11/1/2021 6:15:00 AM 10.35 50.63 0.06 7.09 4.79 10.77
11/1/2021 6:30:00 AM 10.33 50.594 0.06 7.09 5.01 10.78
11/1/2021 6:45:00 AM 10.32 50.576 0.06 7.09 4.87 10.79
11/1/2021 7:00:00 AM 10.29 50.522 0.06 7.09 4.86 10.8
11/1/2021 7:15:00 AM 10.26 50.468 0.06 7.09 4.87 10.81
11/1/2021 7:30:00 AM 10.22 50.396 0.06 7.09 4.76 10.82
11/1/2021 7:45:00 AM 10.17 50.306 0.06 7.09 4.76 10.83
11/1/2021 8:00:00 AM 10.12 50.216 0.06 7.09 4.81 10.85
11/1/2021 8:15:00 AM 10.07 50.126 0.06 7.09 4.93 10.87
11/1/2021 8:30:00 AM 10.02 50.036 0.06 7.09 4.78 10.89
11/1/2021 8:45:00 AM 9.99 49.982 0.06 7.09 4.84 10.91
11/1/2021 9:00:00 AM 9.96 49.928 0.06 7.1 4.82 10.93
11/1/2021 9:15:00 AM 9.95 49.91 0.06 7.11 4.86 10.94
11/1/2021 9:30:00 AM 9.94 49.892 0.06 7.11 4.82 10.95
11/1/2021 9:45:00 AM 9.95 49.91 0.06 7.1 5.07 10.96
11/1/2021 10:00:00 AM 9.97 49.946 0.06 7.11 4.94 10.97
11/1/2021 10:15:00 AM 10 50 0.06 7.11 4.83 10.98
11/1/2021 10:30:00 AM 10.03 50.054 0.06 7.11 4.83 10.98
11/1/2021 10:45:00 AM 10.07 50.126 0.06 7.11 4.78 10.98
11/1/2021 11:00:00 AM 10.1 50.18 0.06 7.11 4.7 10.97
11/1/2021 11:15:00 AM 10.15 50.27 0.06 7.12 4.63 10.97
11/1/2021 11:30:00 AM 10.2 50.36 0.06 7.12 4.72 10.96
11/1/2021 11:45:00 AM 10.25 50.45 0.06 7.13 4.71 10.94
11/1/2021 12:00:00 PM 10.27 50.486 0.06 7.13 4.85 10.94
11/1/2021 12:15:00 PM 10.35 50.63 0.06 7.13 4.94 10.93
11/1/2021 12:30:00 PM 10.46 50.828 0.061 7.13 4.88 10.91
11/1/2021 12:45:00 PM 10.51 50.918 0.061 7.14 4.64 10.9
11/1/2021 1:00:00 PM 10.57 51.026 0.061 7.13 4.54 10.9
11/1/2021 1:15:00 PM 10.56 51.008 0.061 7.13 4.47 10.89
11/1/2021 1:30:00 PM 10.46 50.828 0.061 7.12 4.51 10.89
11/1/2021 1:45:00 PM 10.42 50.756 0.061 7.13 4.51 10.88
11/1/2021 2:00:00 PM 10.42 50.756 0.061 7.13 4.47 10.88
11/1/2021 2:15:00 PM 10.47 50.846 0.061 7.12 4.34 10.87
11/1/2021 2:30:00 PM 10.47 50.846 0.061 7.12 4.42 10.86
11/1/2021 2:45:00 PM 10.5 50.9 0.061 7.13 4.35 10.85
11/1/2021 3:00:00 PM 10.58 51.044 0.061 7.13 4.28 10.83
11/1/2021 3:15:00 PM 10.62 51.116 0.061 7.13 4.4 10.82
11/1/2021 3:30:00 PM 10.67 51.206 0.061 7.13 4.33 10.8
11/1/2021 3:45:00 PM 10.66 51.188 0.061 7.13 4.34 10.79
11/1/2021 4:00:00 PM 10.61 51.098 0.061 7.12 4.38 10.8
11/1/2021 4:15:00 PM 10.54 50.972 0.061 7.13 4.48 10.82
11/1/2021 4:30:00 PM 10.46 50.828 0.061 7.12 4.47 10.84
11/1/2021 4:45:00 PM 10.38 50.684 0.061 7.12 4.48 10.85
11/1/2021 5:00:00 PM 10.3 50.54 0.061 7.11 4.4 10.87
11/1/2021 5:15:00 PM 10.23 50.414 0.061 7.12 4.68 10.88
11/1/2021 5:30:00 PM 10.18 50.324 0.061 7.11 4.55 10.89
11/1/2021 5:45:00 PM 10.14 50.252 0.061 7.11 4.44 10.89
11/1/2021 6:00:00 PM 10.09 50.162 0.061 7.11 4.26 10.9
11/1/2021 6:15:00 PM 10.05 50.09 0.061 7.11 4.48 10.91
11/1/2021 6:30:00 PM 9.99 49.982 0.061 7.1 4.68 10.92
11/1/2021 6:45:00 PM 9.94 49.892 0.061 7.1 4.42 10.93
11/1/2021 7:00:00 PM 9.87 49.766 0.061 7.1 4.39 10.95
11/1/2021 7:15:00 PM 9.8 49.64 0.061 7.09 4.31 10.97
11/1/2021 7:30:00 PM 9.74 49.532 0.061 7.09 4.35 10.98
11/1/2021 7:45:00 PM 9.68 49.424 0.061 7.09 4.31 11.01
11/1/2021 8:00:00 PM 9.61 49.298 0.061 7.09 4.22 11.02
11/1/2021 8:15:00 PM 9.55 49.19 0.061 7.09 4.29 11.04
11/1/2021 8:30:00 PM 9.49 49.082 0.061 7.09 4.26 11.06
11/1/2021 8:45:00 PM 9.43 48.974 0.061 7.08 4.24 11.07
11/1/2021 9:00:00 PM 9.37 48.866 0.061 7.09 4.25 11.09
11/1/2021 9:15:00 PM 9.31 48.758 0.061 7.09 4.28 11.11
11/1/2021 9:30:00 PM 9.25 48.65 0.061 7.09 4.34 11.12
11/1/2021 9:45:00 PM 9.19 48.542 0.061 7.09 4.29 11.14
11/1/2021 10:00:00 PM 9.14 48.452 0.061 7.08 4.33 11.16
11/1/2021 10:15:00 PM 9.08 48.344 0.062 7.09 4.25 11.18
11/1/2021 10:30:00 PM 9.03 48.254 0.062 7.09 4.38 11.19
11/1/2021 10:45:00 PM 8.98 48.164 0.062 7.09 4.26 11.21
11/1/2021 11:00:00 PM 8.93 48.074 0.062 7.09 4.28 11.22
11/1/2021 11:15:00 PM 8.88 47.984 0.062 7.09 4.26 11.23
11/1/2021 11:30:00 PM 8.84 47.912 0.062 7.09 4.31 11.24
11/1/2021 11:45:00 PM 8.8 47.84 0.062 7.09 4.21 11.26
11/2/2021 12:00:00 AM 8.75 47.75 0.062 7.09 4.23 11.27
11/2/2021 12:15:00 AM 8.72 47.696 0.062 7.09 4.14 11.28
11/2/2021 12:30:00 AM 8.69 47.642 0.062 7.09 4.25 11.29
11/2/2021 12:45:00 AM 8.65 47.57 0.062 7.09 4.31 11.31
11/2/2021 1:00:00 AM 8.62 47.516 0.062 7.09 4.35 11.31
11/2/2021 1:15:00 AM 8.59 47.462 0.062 7.09 4.53 11.32
11/2/2021 1:30:00 AM 8.57 47.426 0.062 7.09 4.31 11.33
11/2/2021 1:45:00 AM 8.54 47.372 0.062 7.09 4.43 11.34
11/2/2021 2:00:00 AM 8.51 47.318 0.062 7.09 4.35 11.34
11/2/2021 2:15:00 AM 8.48 47.264 0.062 7.09 4.26 11.35
11/2/2021 2:30:00 AM 8.45 47.21 0.062 7.1 4.35 11.36
11/2/2021 2:45:00 AM 8.43 47.174 0.062 7.09 4.23 11.36
11/2/2021 3:00:00 AM 8.4 47.12 0.062 7.1 4.19 11.37
11/2/2021 3:15:00 AM 8.38 47.084 0.062 7.09 4.27 11.38
11/2/2021 3:30:00 AM 8.36 47.048 0.062 7.1 4.15 11.38
11/2/2021 3:45:00 AM 8.34 47.012 0.062 7.09 4.19 11.39
11/2/2021 4:00:00 AM 8.32 46.976 0.062 7.1 4.12 11.39
11/2/2021 4:15:00 AM 8.31 46.958 0.062 7.1 4.23 11.4
11/2/2021 4:30:00 AM 8.29 46.922 0.062 7.1 4.34 11.4
11/2/2021 4:45:00 AM 8.28 46.904 0.062 7.1 4.11 11.4
11/2/2021 5:00:00 AM 8.26 46.868 0.062 7.1 4.22 11.41
11/2/2021 5:15:00 AM 8.25 46.85 0.062 7.09 4.23 11.41
11/2/2021 5:30:00 AM 8.24 46.832 0.062 7.09 4.24 11.42
11/2/2021 5:45:00 AM 8.22 46.796 0.062 7.09 4.12 11.42
11/2/2021 6:00:00 AM 8.21 46.778 0.062 7.09 4.05 11.42
11/2/2021 6:15:00 AM 8.2 46.76 0.062 7.1 4.05 11.43
11/2/2021 6:30:00 AM 8.17 46.706 0.062 7.09 4.11 11.43
11/2/2021 6:45:00 AM 8.16 46.688 0.062 7.09 4.16 11.44
11/2/2021 7:00:00 AM 8.14 46.652 0.063 7.09 3.96 11.44
11/2/2021 7:15:00 AM 8.12 46.616 0.063 7.09 4.06 11.44
11/2/2021 7:30:00 AM 8.11 46.598 0.063 7.1 4.03 11.45
11/2/2021 7:45:00 AM 8.08 46.544 0.063 7.09 4.37 11.46
11/2/2021 8:00:00 AM 8.06 46.508 0.063 7.09 4.37 11.46
11/2/2021 8:15:00 AM 8.05 46.49 0.063 7.1 3.98 11.47
11/2/2021 8:30:00 AM 8.04 46.472 0.063 7.09 4.17 11.48
11/2/2021 8:45:00 AM 8.05 46.49 0.063 7.09 4.11 11.49
11/2/2021 9:00:00 AM 8.06 46.508 0.063 7.1 3.89 11.5
11/2/2021 9:15:00 AM 8.07 46.526 0.063 7.11 4.17 11.5
11/2/2021 9:30:00 AM 8.08 46.544 0.063 7.11 4.3 11.51
11/2/2021 9:45:00 AM 8.13 46.634 0.063 7.11 4.1 11.51
11/2/2021 10:00:00 AM 8.19 46.742 0.063 7.12 4.18 11.51
11/2/2021 10:15:00 AM 8.25 46.85 0.063 7.12 4.5 11.5
11/2/2021 10:30:00 AM 8.34 47.012 0.063 7.13 4.58 11.49
11/2/2021 10:45:00 AM 8.44 47.192 0.063 7.14 4.53 11.47
11/2/2021 11:00:00 AM 8.52 47.336 0.063 7.15 4.76 11.45
11/2/2021 11:15:00 AM 8.6 47.48 0.063 7.15 4.56 11.44
11/2/2021 11:30:00 AM 8.73 47.714 0.063 7.15 4.38 11.41
11/2/2021 11:45:00 AM 8.84 47.912 0.063 7.15 4.28 11.38
11/2/2021 12:00:00 PM 8.9 48.02 0.063 7.15 4.38 11.36
11/2/2021 12:15:00 PM 8.96 48.128 0.063 7.15 4.23 11.34
11/2/2021 12:30:00 PM 9.05 48.29 0.063 7.15 4.49 11.32
11/2/2021 12:45:00 PM 9.11 48.398 0.063 7.16 4.26 11.3
11/2/2021 1:00:00 PM 9.2 48.56 0.063 7.15 4.62 11.28
11/2/2021 1:15:00 PM 9.18 48.524 0.063 7.16 4.59 11.26
11/2/2021 1:30:00 PM 9.2 48.56 0.063 7.16 4.59 11.25
11/2/2021 1:45:00 PM 9.23 48.614 0.063 7.16 4.32 11.23
11/2/2021 2:00:00 PM 9.22 48.596 0.063 7.16 4.16 11.22
11/2/2021 2:15:00 PM 9.21 48.578 0.063 7.15 4.14 11.21
11/2/2021 2:30:00 PM 9.23 48.614 0.063 7.16 4.08 11.2
11/2/2021 2:45:00 PM 9.25 48.65 0.063 7.15 3.93 11.2
11/2/2021 3:00:00 PM 9.27 48.686 0.063 7.15 4.11 11.2
11/2/2021 3:15:00 PM 9.28 48.704 0.063 7.15 4.08 11.19
11/2/2021 3:30:00 PM 9.26 48.668 0.063 7.15 4.09 11.18
11/2/2021 3:45:00 PM 9.26 48.668 0.063 7.15 4.08 11.18
11/2/2021 4:00:00 PM 9.22 48.596 0.063 7.14 4 11.18
11/2/2021 4:15:00 PM 9.17 48.506 0.063 7.14 3.91 11.19
11/2/2021 4:30:00 PM 9.13 48.434 0.063 7.14 3.92 11.19
11/2/2021 4:45:00 PM 9.08 48.344 0.063 7.14 3.84 11.2
11/2/2021 5:00:00 PM 9.03 48.254 0.063 7.13 3.86 11.21
11/2/2021 5:15:00 PM 9 48.2 0.063 7.13 3.78 11.21
11/2/2021 5:30:00 PM 8.98 48.164 0.063 7.14 3.9 11.22
11/2/2021 5:45:00 PM 8.96 48.128 0.063 7.14 3.88 11.22
11/2/2021 6:00:00 PM 8.93 48.074 0.063 7.13 3.84 11.22
11/2/2021 6:15:00 PM 8.88 47.984 0.063 7.12 4.02 11.23
11/2/2021 6:30:00 PM 8.84 47.912 0.063 7.13 3.86 11.23
11/2/2021 6:45:00 PM 8.79 47.822 0.063 7.12 3.91 11.24
11/2/2021 7:00:00 PM 8.73 47.714 0.063 7.12 3.75 11.26
11/2/2021 7:15:00 PM 8.68 47.624 0.063 7.13 4.06 11.27
11/2/2021 7:30:00 PM 8.62 47.516 0.063 7.12 3.96 11.29
11/2/2021 7:45:00 PM 8.57 47.426 0.063 7.12 3.96 11.3
11/2/2021 8:00:00 PM 8.53 47.354 0.063 7.12 3.94 11.32
11/2/2021 8:15:00 PM 8.49 47.282 0.063 7.12 3.9 11.33
11/2/2021 8:30:00 PM 8.44 47.192 0.063 7.12 4.01 11.34
11/2/2021 8:45:00 PM 8.39 47.102 0.063 7.12 3.92 11.36
11/2/2021 9:00:00 PM 8.33 46.994 0.063 7.11 3.86 11.38
11/2/2021 9:15:00 PM 8.27 46.886 0.064 7.12 3.97 11.39
11/2/2021 9:30:00 PM 8.21 46.778 0.064 7.12 3.93 11.41
11/2/2021 9:45:00 PM 8.15 46.67 0.064 7.12 3.82 11.43
11/2/2021 10:00:00 PM 8.1 46.58 0.064 7.12 3.82 11.44
11/2/2021 10:15:00 PM 8.03 46.454 0.064 7.12 3.87 11.46
11/2/2021 10:30:00 PM 7.97 46.346 0.064 7.12 4.09 11.48
11/2/2021 10:45:00 PM 7.91 46.238 0.064 7.12 3.94 11.5
11/2/2021 11:00:00 PM 7.85 46.13 0.064 7.12 3.96 11.52
11/2/2021 11:15:00 PM 7.79 46.022 0.064 7.12 3.99 11.54
11/2/2021 11:30:00 PM 7.73 45.914 0.064 7.12 3.92 11.56
11/2/2021 11:45:00 PM 7.67 45.806 0.064 7.12 4.01 11.57
11/3/2021 12:00:00 AM 7.6 45.68 0.064 7.12 3.83 11.59
11/3/2021 12:15:00 AM 7.54 45.572 0.064 7.12 3.89 11.61
11/3/2021 12:30:00 AM 7.49 45.482 0.064 7.12 3.83 11.62
11/3/2021 12:45:00 AM 7.44 45.392 0.064 7.12 4.03 11.64
11/3/2021 1:00:00 AM 7.38 45.284 0.064 7.11 3.88 11.66
11/3/2021 1:15:00 AM 7.33 45.194 0.064 7.12 3.86 11.68
11/3/2021 1:30:00 AM 7.27 45.086 0.064 7.12 3.88 11.7
11/3/2021 1:45:00 AM 7.22 44.996 0.064 7.11 3.99 11.72
11/3/2021 2:00:00 AM 7.17 44.906 0.064 7.12 3.85 11.73
11/3/2021 2:15:00 AM 7.12 44.816 0.064 7.11 3.86 11.74
11/3/2021 2:30:00 AM 7.07 44.726 0.064 7.12 3.7 11.76
11/3/2021 2:45:00 AM 7.02 44.636 0.064 7.12 3.78 11.77
11/3/2021 3:00:00 AM 6.97 44.546 0.064 7.12 3.79 11.79
11/3/2021 3:15:00 AM 6.92 44.456 0.064 7.12 3.82 11.81
11/3/2021 3:30:00 AM 6.87 44.366 0.064 7.12 3.81 11.82
11/3/2021 3:45:00 AM 6.82 44.276 0.064 7.12 3.81 11.84
11/3/2021 4:00:00 AM 6.78 44.204 0.064 7.12 3.75 11.85
11/3/2021 4:15:00 AM 6.73 44.114 0.064 7.12 3.63 11.86
11/3/2021 4:30:00 AM 6.69 44.042 0.064 7.12 3.58 11.87
11/3/2021 4:45:00 AM 6.65 43.97 0.064 7.12 3.63 11.89
11/3/2021 5:00:00 AM 6.6 43.88 0.064 7.12 3.56 11.9
11/3/2021 5:15:00 AM 6.56 43.808 0.064 7.12 3.73 11.91
11/3/2021 5:30:00 AM 6.53 43.754 0.064 7.13 3.57 11.92
11/3/2021 5:45:00 AM 6.49 43.682 0.064 7.12 3.63 11.93
11/3/2021 6:00:00 AM 6.45 43.61 0.064 7.12 3.66 11.95
11/3/2021 6:15:00 AM 6.41 43.538 0.064 7.12 3.65 11.96
11/3/2021 6:30:00 AM 6.38 43.484 0.065 7.11 3.65 11.97
11/3/2021 6:45:00 AM 6.35 43.43 0.065 7.13 3.46 11.98
11/3/2021 7:00:00 AM 6.32 43.376 0.065 7.12 3.54 11.99
11/3/2021 7:15:00 AM 6.29 43.322 0.065 7.12 3.53 12
11/3/2021 7:30:00 AM 6.26 43.268 0.065 7.13 3.54 12.01
11/3/2021 7:45:00 AM 6.25 43.25 0.065 7.12 3.52 12.02
11/3/2021 8:00:00 AM 6.23 43.214 0.065 7.12 3.65 12.03
11/3/2021 8:15:00 AM 6.22 43.196 0.065 7.12 3.67 12.04
11/3/2021 8:30:00 AM 6.22 43.196 0.065 7.13 3.75 12.05
11/3/2021 8:45:00 AM 6.23 43.214 0.065 7.13 3.94 12.06
11/3/2021 9:00:00 AM 6.24 43.232 0.065 7.13 3.8 12.07
11/3/2021 9:15:00 AM 6.25 43.25 0.065 7.14 3.82 12.08
11/3/2021 9:30:00 AM 6.27 43.286 0.065 7.14 3.82 12.08
11/3/2021 9:45:00 AM 6.29 43.322 0.065 7.14 3.77 12.08
11/3/2021 10:00:00 AM 6.3 43.34 0.065 7.14 3.73 12.08
11/3/2021 10:15:00 AM 6.34 43.412 0.065 7.14 3.84 12.08
11/3/2021 10:30:00 AM 6.38 43.484 0.065 7.15 3.71 12.07
11/3/2021 10:45:00 AM 6.44 43.592 0.065 7.15 3.67 12.07
11/3/2021 11:00:00 AM 6.54 43.772 0.065 7.16 3.69 12.05
11/3/2021 11:15:00 AM 6.62 43.916 0.065 7.16 3.68 12.04
11/3/2021 11:30:00 AM 6.77 44.186 0.065 7.17 3.62 12.02
11/3/2021 11:45:00 AM 6.85 44.33 0.065 7.17 3.68 11.98
11/3/2021 12:00:00 PM 6.91 44.438 0.065 7.17 3.55 11.97
11/3/2021 12:15:00 PM 6.96 44.528 0.065 7.17 3.74 11.95
11/3/2021 12:30:00 PM 7.06 44.708 0.065 7.18 3.66 11.93
11/3/2021 12:45:00 PM 7.1 44.78 0.065 7.18 3.53 11.91
11/3/2021 1:00:00 PM 7.12 44.816 0.065 7.17 3.76 11.89
11/3/2021 1:15:00 PM 7.17 44.906 0.065 7.18 3.67 11.88
11/3/2021 1:30:00 PM 7.32 45.176 0.065 7.18 3.61 11.85
11/3/2021 1:45:00 PM 7.33 45.194 0.065 7.18 3.81 11.83
11/3/2021 2:00:00 PM 7.31 45.158 0.065 7.18 3.78 11.82
11/3/2021 2:15:00 PM 7.42 45.356 0.065 7.18 3.7 11.79
11/3/2021 2:30:00 PM 7.46 45.428 0.065 7.18 3.62 11.77
11/3/2021 2:45:00 PM 7.46 45.428 0.065 7.18 3.72 11.77
11/3/2021 3:00:00 PM 7.46 45.428 0.065 7.18 3.63 11.77
11/3/2021 3:15:00 PM 7.47 45.446 0.065 7.19 3.53 11.76
11/3/2021 3:30:00 PM 7.5 45.5 0.065 7.19 3.73 11.74
11/3/2021 3:45:00 PM 7.52 45.536 0.065 7.18 3.65 11.73
11/3/2021 4:00:00 PM 7.5 45.5 0.065 7.18 3.62 11.72
11/3/2021 4:15:00 PM 7.52 45.536 0.065 7.18 3.56 11.71
11/3/2021 4:30:00 PM 7.53 45.554 0.065 7.18 3.6 11.7
11/3/2021 4:45:00 PM 7.52 45.536 0.065 7.17 3.71 11.7
11/3/2021 5:00:00 PM 7.51 45.518 0.065 7.17 3.6 11.69
11/3/2021 5:15:00 PM 7.48 45.464 0.065 7.17 3.67 11.69
11/3/2021 5:30:00 PM 7.46 45.428 0.065 7.17 3.64 11.69
11/3/2021 5:45:00 PM 7.41 45.338 0.065 7.17 3.63 11.7
11/3/2021 6:00:00 PM 7.38 45.284 0.065 7.16 3.78 11.7
11/3/2021 6:15:00 PM 7.34 45.212 0.065 7.16 3.72 11.71
11/3/2021 6:30:00 PM 7.3 45.14 0.065 7.15 3.76 11.71
11/3/2021 6:45:00 PM 7.26 45.068 0.065 7.15 3.89 11.73
11/3/2021 7:00:00 PM 7.21 44.978 0.065 7.15 3.91 11.74
11/3/2021 7:15:00 PM 7.16 44.888 0.065 7.15 3.92 11.75
11/3/2021 7:30:00 PM 7.11 44.798 0.065 7.14 3.87 11.77
11/3/2021 7:45:00 PM 7.05 44.69 0.065 7.11 3.86 11.79
11/3/2021 8:00:00 PM 7 44.6 0.065 7.14 3.74 11.81
11/3/2021 8:15:00 PM 6.95 44.51 0.065 7.14 3.66 11.82
11/3/2021 8:30:00 PM 6.9 44.42 0.065 7.14 3.63 11.84
11/3/2021 8:45:00 PM 6.86 44.348 0.065 7.15 3.77 11.85
11/3/2021 9:00:00 PM 6.81 44.258 0.065 7.14 3.78 11.87
11/3/2021 9:15:00 PM 6.76 44.168 0.065 7.14 3.9 11.88
11/3/2021 9:30:00 PM 6.71 44.078 0.065 7.14 789.01 11.9
11/3/2021 9:45:00 PM 6.66 43.988 0.065 7.14 803.84 11.91
11/3/2021 10:00:00 PM 6.6 43.88 0.066 7.15 817.64 11.93
11/3/2021 10:15:00 PM 6.55 43.79 0.066 7.14 787.95 11.95
11/3/2021 10:30:00 PM 6.5 43.7 0.066 7.14 546.27 11.97
11/3/2021 10:45:00 PM 6.45 43.61 0.066 7.14 429.9 11.99
11/3/2021 11:00:00 PM 6.39 43.502 0.066 7.14 753.69 12.01
11/3/2021 11:15:00 PM 6.34 43.412 0.066 7.15 435.64 12.02
11/3/2021 11:30:00 PM 6.29 43.322 0.066 7.14 958.43 12.04
11/3/2021 11:45:00 PM 6.24 43.232 0.066 7.14 571.43 12.05
11/4/2021 12:00:00 AM 6.18 43.124 0.066 7.14 718.54 12.07
11/4/2021 12:15:00 AM 6.13 43.034 0.066 7.14 378.39 12.09
11/4/2021 12:30:00 AM 6.08 42.944 0.066 7.14 677.82 12.11
11/4/2021 12:45:00 AM 6.03 42.854 0.066 7.14 677.31 12.13
11/4/2021 1:00:00 AM 5.98 42.764 0.066 7.14 513.08 12.14
11/4/2021 1:15:00 AM 5.93 42.674 0.066 7.14 601.97 12.16
11/4/2021 1:30:00 AM 5.88 42.584 0.066 7.14 378.98 12.17
11/4/2021 1:45:00 AM 5.83 42.494 0.066 7.14 754.78 12.19
11/4/2021 2:00:00 AM 5.78 42.404 0.066 7.14 501.18 12.21
11/4/2021 2:15:00 AM 5.74 42.332 0.066 7.14 264.03 12.22
11/4/2021 2:30:00 AM 5.69 42.242 0.066 7.14 284.79 12.24
11/4/2021 2:45:00 AM 5.66 42.188 0.066 7.13 650.24 12.25
11/4/2021 3:00:00 AM 5.62 42.116 0.066 7.14 255.4 12.26
11/4/2021 3:15:00 AM 5.57 42.026 0.066 7.14 343.92 12.28
11/4/2021 3:30:00 AM 5.53 41.954 0.066 7.13 344.6 12.29
11/4/2021 3:45:00 AM 5.49 41.882 0.066 7.14 493.78 12.3
11/4/2021 4:00:00 AM 5.45 41.81 0.066 7.14 327.04 12.32
11/4/2021 4:15:00 AM 5.4 41.72 0.066 7.14 327.04 12.33
11/4/2021 4:30:00 AM 5.36 41.648 0.066 7.13 740.37 12.35
11/4/2021 4:45:00 AM 5.32 41.576 0.066 7.13 379.91 12.36
11/4/2021 5:00:00 AM 5.27 41.486 0.066 7.13 332.61 12.38
11/4/2021 5:15:00 AM 5.24 41.432 0.066 7.13 703.31 12.39
11/4/2021 5:30:00 AM 5.2 41.36 0.066 7.13 289.85 12.4
11/4/2021 5:45:00 AM 5.17 41.306 0.066 7.14 699.56 12.42
11/4/2021 6:00:00 AM 5.14 41.252 0.066 7.13 359.37 12.43
11/4/2021 6:15:00 AM 5.1 41.18 0.066 7.14 233.79 12.44
11/4/2021 6:30:00 AM 5.06 41.108 0.066 7.13 432.75 12.46
11/4/2021 6:45:00 AM 5.02 41.036 0.066 7.13 571.28 12.47
11/4/2021 7:00:00 AM 4.98 40.964 0.066 7.14 315.75 12.48
11/4/2021 7:15:00 AM 4.95 40.91 0.066 7.14 253.37 12.49
11/4/2021 7:30:00 AM 4.91 40.838 0.066 7.14 330.51 12.51
11/4/2021 7:45:00 AM 4.87 40.766 0.066 7.13 291.88 12.52
11/4/2021 8:00:00 AM 4.84 40.712 0.066 7.13 292.5 12.54
11/4/2021 8:15:00 AM 4.81 40.658 0.067 7.14 402.42 12.55
11/4/2021 8:30:00 AM 4.79 40.622 0.066 7.14 369.55 12.57
11/4/2021 8:45:00 AM 4.77 40.586 0.066 7.14 316.56 12.59
11/4/2021 9:00:00 AM 4.78 40.604 0.066 7.14 323.69 12.6
11/4/2021 9:15:00 AM 4.78 40.604 0.066 7.14 868.18 12.61
11/4/2021 9:30:00 AM 4.81 40.658 0.066 7.15 355.24 12.62
11/4/2021 9:45:00 AM 4.86 40.748 0.066 7.16 979.42 12.61
11/4/2021 10:00:00 AM 4.92 40.856 0.066 7.15 387.09 12.61
11/4/2021 10:15:00 AM 5.01 41.018 0.066 7.16 328.17 12.59
11/4/2021 10:30:00 AM 5.1 41.18 0.066 7.17 394.41 12.58
11/4/2021 10:45:00 AM 5.23 41.414 0.066 7.16 350.32 12.55
11/4/2021 11:00:00 AM 5.35 41.63 0.066 7.17 1046.39 12.52
11/4/2021 11:15:00 AM 5.49 41.882 0.066 7.17 250.68 12.49
11/4/2021 11:30:00 AM 5.63 42.134 0.066 7.17 430.75 12.45
11/4/2021 11:45:00 AM 5.79 42.422 0.066 7.18 444.62 12.4
11/4/2021 12:00:00 PM 5.93 42.674 0.066 7.18 312.43 12.36
11/4/2021 12:15:00 PM 6.06 42.908 0.066 7.18 323.15 12.31
11/4/2021 12:30:00 PM 6.19 43.142 0.066 7.19 368.82 12.27
11/4/2021 12:45:00 PM 6.3 43.34 0.066 7.19 288.25 12.23
11/4/2021 1:00:00 PM 6.3 43.34 0.066 7.18 213.24 12.23
11/4/2021 1:15:00 PM 6.28 43.304 0.066 7.19 281.48 12.22
11/4/2021 1:30:00 PM 6.34 43.412 0.066 7.19 259.78 12.19
11/4/2021 1:45:00 PM 6.41 43.538 0.066 7.19 3.3 12.15
11/4/2021 2:00:00 PM 6.45 43.61 0.066 7.19 228.07 12.12
11/4/2021 2:15:00 PM 6.57 43.826 0.066 7.19 721.54 12.08
11/4/2021 2:30:00 PM 6.63 43.934 0.066 7.19 376.04 12.06
11/4/2021 2:45:00 PM 6.65 43.97 0.066 7.19 320.2 12.06
11/4/2021 3:00:00 PM 6.66 43.988 0.066 7.19 324.26 12.06
11/4/2021 3:15:00 PM 6.68 44.024 0.066 7.19 368.14 12.05
11/4/2021 3:30:00 PM 6.71 44.078 0.066 7.19 299.47 12.03
11/4/2021 3:45:00 PM 6.75 44.15 0.066 7.19 477.14 12.02
11/4/2021 4:00:00 PM 6.78 44.204 0.066 7.2 250.63 12
11/4/2021 4:15:00 PM 6.82 44.276 0.066 7.19 263.89 11.97
11/4/2021 4:30:00 PM 6.86 44.348 0.066 7.19 295.59 11.94
11/4/2021 4:45:00 PM 6.9 44.42 0.066 7.19 321.99 11.92
11/4/2021 5:00:00 PM 6.92 44.456 0.066 7.18 3.25 11.91
11/4/2021 5:15:00 PM 6.92 44.456 0.066 7.18 344.86 11.9
11/4/2021 5:30:00 PM 6.9 44.42 0.066 7.18 251.56 11.89
11/4/2021 5:45:00 PM 6.89 44.402 0.066 7.17 434.67 11.88
11/4/2021 6:00:00 PM 6.88 44.384 0.066 7.18 3.3 11.87
11/4/2021 6:15:00 PM 6.86 44.348 0.066 7.16 363.57 11.87
11/4/2021 6:30:00 PM 6.83 44.294 0.066 7.16 502.17 11.87
11/4/2021 6:45:00 PM 6.8 44.24 0.066 7.16 3.33 11.88
11/4/2021 7:00:00 PM 6.76 44.168 0.066 7.15 466.15 11.88
11/4/2021 7:15:00 PM 6.73 44.114 0.066 7.16 300.41 11.89
11/4/2021 7:30:00 PM 6.68 44.024 0.066 7.15 319.14 11.9
11/4/2021 7:45:00 PM 6.64 43.952 0.066 7.15 272.08 11.91
11/4/2021 8:00:00 PM 6.6 43.88 0.066 7.15 320.8 11.93
11/4/2021 8:15:00 PM 6.55 43.79 0.066 7.15 224.98 11.94
11/4/2021 8:30:00 PM 6.5 43.7 0.066 7.14 190.92 11.95
11/4/2021 8:45:00 PM 6.45 43.61 0.066 7.15 249.44 11.97
11/4/2021 9:00:00 PM 6.4 43.52 0.067 7.15 258.74 11.99
11/4/2021 9:15:00 PM 6.34 43.412 0.067 7.14 306.33 12
11/4/2021 9:30:00 PM 6.29 43.322 0.067 7.15 405.91 12.02
11/4/2021 9:45:00 PM 6.23 43.214 0.067 7.15 253.36 12.04
11/4/2021 10:00:00 PM 6.18 43.124 0.067 7.15 263.97 12.06
11/4/2021 10:15:00 PM 6.12 43.016 0.067 7.14 350.24 12.08
11/4/2021 10:30:00 PM 6.07 42.926 0.067 7.15 295.28 12.09
11/4/2021 10:45:00 PM 6.02 42.836 0.067 7.14 382.49 12.11
11/4/2021 11:00:00 PM 5.97 42.746 0.067 7.14 291.35 12.13
11/4/2021 11:15:00 PM 5.91 42.638 0.067 7.15 315.81 12.15
11/4/2021 11:30:00 PM 5.86 42.548 0.067 7.15 260.57 12.17
11/4/2021 11:45:00 PM 5.81 42.458 0.067 7.15 348.78 12.18
11/5/2021 12:00:00 AM 5.76 42.368 0.067 7.14 257.79 12.2
11/5/2021 12:15:00 AM 5.71 42.278 0.067 7.14 3.45 12.22
11/5/2021 12:30:00 AM 5.66 42.188 0.067 7.14 291.28 12.23
11/5/2021 12:45:00 AM 5.61 42.098 0.067 7.14 311 12.25
11/5/2021 1:00:00 AM 5.55 41.99 0.067 7.14 306.76 12.26
11/5/2021 1:15:00 AM 5.5 41.9 0.067 7.14 307.17 12.28
11/5/2021 1:30:00 AM 5.45 41.81 0.067 7.14 213.62 12.3
11/5/2021 1:45:00 AM 5.4 41.72 0.067 7.14 290.91 12.31
11/5/2021 2:00:00 AM 5.35 41.63 0.067 7.15 497.55 12.33
11/5/2021 2:15:00 AM 5.3 41.54 0.067 7.15 313.47 12.34
11/5/2021 2:30:00 AM 5.24 41.432 0.067 7.14 241.01 12.36
11/5/2021 2:45:00 AM 5.2 41.36 0.067 7.15 231.97 12.38
11/5/2021 3:00:00 AM 5.15 41.27 0.067 7.15 307.34 12.4
11/5/2021 3:15:00 AM 5.1 41.18 0.067 7.14 329.31 12.41
11/5/2021 3:30:00 AM 5.05 41.09 0.067 7.14 214.43 12.43
11/5/2021 3:45:00 AM 5 41 0.067 7.14 312.23 12.45
11/5/2021 4:00:00 AM 4.95 40.91 0.067 7.14 342.03 12.47
11/5/2021 4:15:00 AM 4.9 40.82 0.067 7.14 324.65 12.48
11/5/2021 4:30:00 AM 4.85 40.73 0.067 7.14 378.2 12.5
11/5/2021 4:45:00 AM 4.8 40.64 0.067 7.14 364.23 12.52
11/5/2021 5:00:00 AM 4.76 40.568 0.067 7.14 221.21 12.54
11/5/2021 5:15:00 AM 4.71 40.478 0.068 7.15 519.62 12.56
11/5/2021 5:30:00 AM 4.67 40.406 0.068 7.15 267.95 12.58
11/5/2021 5:45:00 AM 4.62 40.316 0.068 7.14 3.53 12.59
11/5/2021 6:00:00 AM 4.58 40.244 0.068 7.14 451.49 12.61
11/5/2021 6:15:00 AM 4.53 40.154 0.068 7.14 3.48 12.62
11/5/2021 6:30:00 AM 4.49 40.082 0.068 7.15 346.56 12.64
11/5/2021 6:45:00 AM 4.45 40.01 0.068 7.14 275.13 12.66
11/5/2021 7:00:00 AM 4.41 39.938 0.068 7.15 242.48 12.67
11/5/2021 7:15:00 AM 4.37 39.866 0.068 7.14 298.21 12.69
11/5/2021 7:30:00 AM 4.33 39.794 0.068 7.15 268.32 12.71
11/5/2021 7:45:00 AM 4.29 39.722 0.068 7.14 406.07 12.73
11/5/2021 8:00:00 AM 4.25 39.65 0.068 7.14 182.21 12.74
11/5/2021 8:15:00 AM 4.21 39.578 0.068 7.14 314.05 12.76
11/5/2021 8:30:00 AM 4.19 39.542 0.068 7.15 89.33 12.78
11/5/2021 8:45:00 AM 4.17 39.506 0.068 7.15 383.71 12.8
11/5/2021 9:00:00 AM 4.16 39.488 0.068 7.16 321.19 12.82
11/5/2021 9:15:00 AM 4.17 39.506 0.068 7.16 297.03 12.83
11/5/2021 9:30:00 AM 4.19 39.542 0.068 7.16 310.22 12.84
11/5/2021 9:45:00 AM 4.24 39.632 0.068 7.16 276.24 12.85
11/5/2021 10:00:00 AM 4.3 39.74 0.068 7.17 239.84 12.84
11/5/2021 10:15:00 AM 4.39 39.902 0.068 7.17 299.88 12.83
11/5/2021 10:30:00 AM 4.49 40.082 0.068 7.18 3.07 12.81
11/5/2021 10:45:00 AM 4.6 40.28 0.068 7.18 227.8 12.79
11/5/2021 11:00:00 AM 4.73 40.514 0.068 7.19 322.86 12.76
11/5/2021 11:15:00 AM 4.86 40.748 0.068 7.19 410.86 12.72
11/5/2021 11:30:00 AM 5.01 41.018 0.068 7.19 185.01 12.68
11/5/2021 11:45:00 AM 5.17 41.306 0.068 7.19 235.31 12.63
11/5/2021 12:00:00 PM 5.34 41.612 0.068 7.19 294.32 12.58
11/5/2021 12:15:00 PM 5.5 41.9 0.068 7.2 350.63 12.53
11/5/2021 12:30:00 PM 5.65 42.17 0.067 7.2 226.85 12.48
11/5/2021 12:45:00 PM 5.8 42.44 0.067 7.21 217.59 12.44
11/5/2021 1:00:00 PM 5.92 42.656 0.067 7.21 288.22 12.39
11/5/2021 1:15:00 PM 6.03 42.854 0.067 7.21 296.86 12.35
11/5/2021 1:30:00 PM 6.13 43.034 0.067 7.21 392.19 12.31
11/5/2021 1:45:00 PM 6.21 43.178 0.067 7.21 250.98 12.27
11/5/2021 2:00:00 PM 6.28 43.304 0.068 7.21 312.18 12.24
11/5/2021 2:15:00 PM 6.32 43.376 0.068 7.21 245.2 12.22
11/5/2021 2:30:00 PM 6.35 43.43 0.068 7.21 292.5 12.19
11/5/2021 2:45:00 PM 6.39 43.502 0.068 7.21 323.62 12.17
11/5/2021 3:00:00 PM 6.43 43.574 0.068 7.21 335.98 12.14
11/5/2021 3:15:00 PM 6.47 43.646 0.068 7.21 412.72 12.12
11/5/2021 3:30:00 PM 6.5 43.7 0.067 7.21 431.36 12.1
11/5/2021 3:45:00 PM 6.51 43.718 0.067 7.21 394.25 12.09
11/5/2021 4:00:00 PM 6.51 43.718 0.067 7.21 283.25 12.07
11/5/2021 4:15:00 PM 6.52 43.736 0.067 7.21 291.74 12.06
11/5/2021 4:30:00 PM 6.53 43.754 0.067 7.2 309.71 12.05
11/5/2021 4:45:00 PM 6.52 43.736 0.068 7.2 221.42 12.04
11/5/2021 5:00:00 PM 6.53 43.754 0.068 7.2 307.2 12.04
11/5/2021 5:15:00 PM 6.51 43.718 0.068 7.19 379.7 12.03
11/5/2021 5:30:00 PM 6.49 43.682 0.068 7.19 289.11 12.03
11/5/2021 5:45:00 PM 6.46 43.628 0.068 7.19 293.81 12.03
11/5/2021 6:00:00 PM 6.44 43.592 0.068 7.18 268.97 12.03
11/5/2021 6:15:00 PM 6.42 43.556 0.068 7.18 198.41 12.02
11/5/2021 6:30:00 PM 6.4 43.52 0.068 7.17 230.96 12.03
11/5/2021 6:45:00 PM 6.37 43.466 0.068 7.17 207.7 12.04
11/5/2021 7:00:00 PM 6.34 43.412 0.068 7.17 3.27 12.04
11/5/2021 7:15:00 PM 6.31 43.358 0.068 7.16 3.41 12.05
11/5/2021 7:30:00 PM 6.25 43.25 0.068 7.16 3.49 12.07
11/5/2021 7:45:00 PM 6.2 43.16 0.068 7.16 232.04 12.08
11/5/2021 8:00:00 PM 6.14 43.052 0.068 7.15 143.88 12.1
11/5/2021 8:15:00 PM 6.08 42.944 0.068 7.16 224.97 12.12
11/5/2021 8:30:00 PM 6.02 42.836 0.068 7.16 171.72 12.14
11/5/2021 8:45:00 PM 5.96 42.728 0.068 7.16 47.81 12.16
11/5/2021 9:00:00 PM 5.91 42.638 0.068 7.16 293.06 12.18
11/5/2021 9:15:00 PM 5.85 42.53 0.068 7.16 211.53 12.2
11/5/2021 9:30:00 PM 5.8 42.44 0.068 7.16 230.97 12.22
11/5/2021 9:45:00 PM 5.74 42.332 0.068 7.15 3.27 12.23
11/5/2021 10:00:00 PM 5.69 42.242 0.068 7.15 45.86 12.25
11/5/2021 10:15:00 PM 5.63 42.134 0.068 7.16 188.38 12.27
11/5/2021 10:30:00 PM 5.58 42.044 0.068 7.15 109.36 12.29
11/5/2021 10:45:00 PM 5.52 41.936 0.068 7.15 151.02 12.3
11/5/2021 11:00:00 PM 5.47 41.846 0.068 7.15 140.59 12.32
11/5/2021 11:15:00 PM 5.41 41.738 0.068 7.15 334.07 12.34
11/5/2021 11:30:00 PM 5.36 41.648 0.068 7.15 371.61 12.36
11/5/2021 11:45:00 PM 5.31 41.558 0.068 7.15 175.16 12.37
11/6/2021 12:00:00 AM 5.25 41.45 0.068 7.15 240.68 12.39
11/6/2021 12:15:00 AM 5.2 41.36 0.068 7.15 202.16 12.41
11/6/2021 12:30:00 AM 5.15 41.27 0.068 7.15 194.77 12.43
11/6/2021 12:45:00 AM 5.1 41.18 0.068 7.15 162.12 12.45
11/6/2021 1:00:00 AM 5.05 41.09 0.068 7.15 131.88 12.46
11/6/2021 1:15:00 AM 5 41 0.068 7.15 125.27 12.48
11/6/2021 1:30:00 AM 4.94 40.892 0.068 7.15 117.48 12.5
11/6/2021 1:45:00 AM 4.89 40.802 0.068 7.15 153.87 12.52
11/6/2021 2:00:00 AM 4.84 40.712 0.069 7.15 105.73 12.53
11/6/2021 2:15:00 AM 4.79 40.622 0.069 7.15 98.65 12.55
11/6/2021 2:30:00 AM 4.74 40.532 0.069 7.15 75.08 12.57
11/6/2021 2:45:00 AM 4.69 40.442 0.069 7.15 97.28 12.58
11/6/2021 3:00:00 AM 4.64 40.352 0.069 7.14 235.93 12.59
11/6/2021 3:15:00 AM 4.6 40.28 0.069 7.13 91.86 12.59
11/6/2021 3:30:00 AM 4.56 40.208 0.07 7.13 142.98 12.59
11/6/2021 3:45:00 AM 4.51 40.118 0.07 7.12 5.3 12.6
11/6/2021 4:00:00 AM 4.47 40.046 0.07 7.12 83.44 12.62
11/6/2021 4:15:00 AM 4.42 39.956 0.069 7.14 149.45 12.65
11/6/2021 4:30:00 AM 4.37 39.866 0.069 7.14 170.76 12.68
11/6/2021 4:45:00 AM 4.32 39.776 0.069 7.14 102.79 12.7
11/6/2021 5:00:00 AM 4.27 39.686 0.069 7.14 172.21 12.72
11/6/2021 5:15:00 AM 4.23 39.614 0.069 7.14 124.64 12.73
11/6/2021 5:30:00 AM 4.19 39.542 0.069 7.14 112.35 12.75
11/6/2021 5:45:00 AM 4.14 39.452 0.069 7.14 152.74 12.78
11/6/2021 6:00:00 AM 4.09 39.362 0.069 7.14 10.7 12.79
11/6/2021 6:15:00 AM 4.05 39.29 0.069 7.14 11.37 12.8
11/6/2021 6:30:00 AM 4.01 39.218 0.069 7.15 107.45 12.82
11/6/2021 6:45:00 AM 3.97 39.146 0.069 7.14 39.35 12.84
11/6/2021 7:00:00 AM 3.93 39.074 0.069 7.14 48.78 12.85
11/6/2021 7:15:00 AM 3.89 39.002 0.069 7.14 12.8 12.87
11/6/2021 7:30:00 AM 3.85 38.93 0.069 7.14 49.28 12.88
11/6/2021 7:45:00 AM 3.8 38.84 0.069 7.14 61.14 12.9
11/6/2021 8:00:00 AM 3.77 38.786 0.069 7.14 70.3 12.91
11/6/2021 8:15:00 AM 3.74 38.732 0.069 7.14 42.14 12.93
11/6/2021 8:30:00 AM 3.71 38.678 0.069 7.14 54.93 12.95
11/6/2021 8:45:00 AM 3.69 38.642 0.069 7.15 11.43 12.97
11/6/2021 9:00:00 AM 3.69 38.642 0.069 7.15 10.6 12.99
11/6/2021 9:15:00 AM 3.7 38.66 0.069 7.15 46.15 13
11/6/2021 9:30:00 AM 3.72 38.696 0.069 7.15 10.45 13.01
11/6/2021 9:45:00 AM 3.77 38.786 0.069 7.16 10.38 13.01
11/6/2021 10:00:00 AM 3.83 38.894 0.069 7.17 68.41 13
11/6/2021 10:15:00 AM 3.92 39.056 0.069 7.16 49.37 12.98
11/6/2021 10:30:00 AM 4.03 39.254 0.069 7.17 62.17 12.97
11/6/2021 10:45:00 AM 4.16 39.488 0.069 7.17 10.4 12.94
11/6/2021 11:00:00 AM 4.3 39.74 0.069 7.18 136.46 12.9
11/6/2021 11:15:00 AM 4.44 39.992 0.069 7.18 9.68 12.87
11/6/2021 11:30:00 AM 4.59 40.262 0.069 7.19 11.7 12.83
11/6/2021 11:45:00 AM 4.77 40.586 0.069 7.19 127.09 12.77
11/6/2021 12:00:00 PM 4.94 40.892 0.069 7.19 12.03 12.71
11/6/2021 12:15:00 PM 5.13 41.234 0.069 7.19 146.38 12.65
11/6/2021 12:30:00 PM 5.3 41.54 0.069 7.2 112.69 12.59
11/6/2021 12:45:00 PM 5.46 41.828 0.069 7.2 12.4 12.54
11/6/2021 1:00:00 PM 5.59 42.062 0.069 7.2 16.09 12.49
11/6/2021 1:15:00 PM 5.72 42.296 0.069 7.2 155.16 12.43
11/6/2021 1:30:00 PM 5.83 42.494 0.069 7.2 14.77 12.39
11/6/2021 1:45:00 PM 5.92 42.656 0.069 7.21 140.03 12.35
11/6/2021 2:00:00 PM 6 42.8 0.069 7.21 13.54 12.31
11/6/2021 2:15:00 PM 6.07 42.926 0.069 7.21 184.62 12.27
11/6/2021 2:30:00 PM 6.13 43.034 0.069 7.21 164.7 12.24
11/6/2021 2:45:00 PM 6.18 43.124 0.069 7.2 135.79 12.2
11/6/2021 3:00:00 PM 6.24 43.232 0.069 7.2 19.34 12.17
11/6/2021 3:15:00 PM 6.27 43.286 0.069 7.2 123.7 12.15
11/6/2021 3:30:00 PM 6.31 43.358 0.069 7.2 128.74 12.12
11/6/2021 3:45:00 PM 6.34 43.412 0.069 7.2 115.35 12.1
11/6/2021 4:00:00 PM 6.35 43.43 0.069 7.19 13.34 12.08
11/6/2021 4:15:00 PM 6.35 43.43 0.069 7.19 15.54 12.07
11/6/2021 4:30:00 PM 6.34 43.412 0.069 7.19 146.64 12.05
11/6/2021 4:45:00 PM 6.32 43.376 0.069 7.19 13.16 12.05
11/6/2021 5:00:00 PM 6.31 43.358 0.069 7.18 98.95 12.04
11/6/2021 5:15:00 PM 6.3 43.34 0.069 7.18 112.78 12.03
11/6/2021 5:30:00 PM 6.27 43.286 0.069 7.18 99.8 12.03
11/6/2021 5:45:00 PM 6.23 43.214 0.069 7.17 160.43 12.04
11/6/2021 6:00:00 PM 6.19 43.142 0.069 7.17 126.05 12.04
11/6/2021 6:15:00 PM 6.15 43.07 0.069 7.16 114.5 12.05
11/6/2021 6:30:00 PM 6.12 43.016 0.069 7.16 9.68 12.04
11/6/2021 6:45:00 PM 6.07 42.926 0.069 7.16 99.6 12.06
11/6/2021 7:00:00 PM 6.03 42.854 0.069 7.16 83.1 12.08
11/6/2021 7:15:00 PM 5.99 42.782 0.069 7.15 93.56 12.09
11/6/2021 7:30:00 PM 5.94 42.692 0.069 7.15 11.2 12.1
11/6/2021 7:45:00 PM 5.89 42.602 0.069 7.14 12 12.11
11/6/2021 8:00:00 PM 5.84 42.512 0.069 7.14 11.45 12.13
11/6/2021 8:15:00 PM 5.78 42.404 0.069 7.14 17.63 12.14
11/6/2021 8:30:00 PM 5.72 42.296 0.069 7.14 12.5 12.17
11/6/2021 8:45:00 PM 5.66 42.188 0.069 7.15 76.8 12.19
11/6/2021 9:00:00 PM 5.6 42.08 0.069 7.14 13.2 12.2
11/6/2021 9:15:00 PM 5.55 41.99 0.069 7.14 82.78 12.22
11/6/2021 9:30:00 PM 5.49 41.882 0.069 7.14 60.52 12.24
11/6/2021 9:45:00 PM 5.43 41.774 0.069 7.14 9.58 12.26
11/6/2021 10:00:00 PM 5.38 41.684 0.069 7.14 60.81 12.27
11/6/2021 10:15:00 PM 5.33 41.594 0.069 7.14 7.74 12.29
11/6/2021 10:30:00 PM 5.28 41.504 0.069 7.13 11.66 12.3
11/6/2021 10:45:00 PM 5.23 41.414 0.069 7.14 61.54 12.33
11/6/2021 11:00:00 PM 5.17 41.306 0.069 7.14 20.12 12.35
11/6/2021 11:15:00 PM 5.12 41.216 0.069 7.14 9.9 12.37
11/6/2021 11:30:00 PM 5.07 41.126 0.069 7.14 162.98 12.38
11/6/2021 11:45:00 PM 5.02 41.036 0.069 7.14 53.88 12.4
11/7/2021 12:00:00 AM 4.97 40.946 0.07 7.14 10.96 12.41
11/7/2021 12:15:00 AM 4.91 40.838 0.07 7.14 44.66 12.43
11/7/2021 12:30:00 AM 4.87 40.766 0.07 7.14 12.19 12.45
11/7/2021 12:45:00 AM 4.82 40.676 0.07 7.14 73.91 12.47
11/7/2021 1:00:00 AM 4.76 40.568 0.07 7.14 15.01 12.49
11/7/2021 1:15:00 AM 4.72 40.496 0.07 7.14 3.83 12.51
11/7/2021 1:30:00 AM 4.66 40.388 0.07 7.14 43.18 12.53
11/7/2021 1:45:00 AM 4.62 40.316 0.07 7.14 9.32 12.54
11/7/2021 2:00:00 AM 4.56 40.208 0.07 7.15 53.48 12.57
11/7/2021 2:15:00 AM 4.52 40.136 0.07 7.14 64.53 12.57
11/7/2021 2:30:00 AM 4.47 40.046 0.07 7.14 52.63 12.59
11/7/2021 2:45:00 AM 4.42 39.956 0.07 7.14 51.58 12.61
11/7/2021 3:00:00 AM 4.38 39.884 0.07 7.15 151.88 12.63
11/7/2021 3:15:00 AM 4.33 39.794 0.07 7.15 7.01 12.64
11/7/2021 3:30:00 AM 4.29 39.722 0.07 7.14 11.24 12.65
11/7/2021 3:45:00 AM 4.24 39.632 0.07 7.14 145.85 12.66
11/7/2021 4:00:00 AM 4.19 39.542 0.07 7.15 3.86 12.69
11/7/2021 4:15:00 AM 4.14 39.452 0.07 7.14 11.84 12.7
11/7/2021 4:30:00 AM 4.1 39.38 0.07 7.14 102.68 12.71
11/7/2021 4:45:00 AM 4.06 39.308 0.07 7.14 48.96 12.73
11/7/2021 5:00:00 AM 4.02 39.236 0.07 7.15 35.12 12.74
11/7/2021 5:15:00 AM 3.97 39.146 0.07 7.15 36.48 12.76
11/7/2021 5:30:00 AM 3.93 39.074 0.07 7.14 6.76 12.77
11/7/2021 5:45:00 AM 3.88 38.984 0.07 7.15 3.01 12.78
11/7/2021 6:00:00 AM 3.83 38.894 0.07 7.15 2.91 12.81
11/7/2021 6:15:00 AM 3.79 38.822 0.07 7.15 45.95 12.82
11/7/2021 6:30:00 AM 3.75 38.75 0.07 7.14 47.56 12.83
11/7/2021 6:45:00 AM 3.71 38.678 0.07 7.14 31.01 12.85
11/7/2021 7:00:00 AM 3.67 38.606 0.07 7.14 33.53 12.86
11/7/2021 7:15:00 AM 3.63 38.534 0.07 7.14 3.18 12.89
11/7/2021 7:30:00 AM 3.59 38.462 0.07 7.15 3.05 12.9
11/7/2021 7:45:00 AM 3.55 38.39 0.07 7.14 80.48 12.92
11/7/2021 8:00:00 AM 3.52 38.336 0.07 7.15 3 12.93
11/7/2021 8:15:00 AM 3.49 38.282 0.07 7.15 3.08 12.95
11/7/2021 8:30:00 AM 3.45 38.21 0.07 7.15 186.28 12.97
11/7/2021 8:45:00 AM 3.44 38.192 0.07 7.15 45.82 13
11/7/2021 9:00:00 AM 3.44 38.192 0.07 7.16 93.02 13.01
11/7/2021 9:15:00 AM 3.44 38.192 0.07 7.16 52.42 13.03
11/7/2021 9:30:00 AM 3.47 38.246 0.07 7.16 48.23 13.03
11/7/2021 9:45:00 AM 3.52 38.336 0.07 7.17 24.48 13.03
11/7/2021 10:00:00 AM 3.59 38.462 0.07 7.18 156.61 13.03
11/7/2021 10:15:00 AM 3.68 38.624 0.07 7.18 73.92 13
11/7/2021 10:30:00 AM 3.79 38.822 0.07 7.18 8.52 12.99
11/7/2021 10:45:00 AM 3.92 39.056 0.07 7.19 142.53 12.96
11/7/2021 11:00:00 AM 4.07 39.326 0.07 7.2 117.41 12.92
11/7/2021 11:15:00 AM 4.22 39.596 0.07 7.2 73.9 12.88
11/7/2021 11:30:00 AM 4.38 39.884 0.07 7.2 61.64 12.84
11/7/2021 11:45:00 AM 4.55 40.19 0.07 7.2 2.81 12.79
11/7/2021 12:00:00 PM 4.73 40.514 0.07 7.21 119.59 12.73
11/7/2021 12:15:00 PM 4.92 40.856 0.07 7.21 121.45 12.67
11/7/2021 12:30:00 PM 5.1 41.18 0.07 7.22 2.96 12.61
11/7/2021 12:45:00 PM 5.28 41.504 0.07 7.23 2.92 12.55
11/7/2021 1:00:00 PM 5.42 41.756 0.07 7.22 180.13 12.5
11/7/2021 1:15:00 PM 5.54 41.972 0.07 7.24 55.17 12.46
11/7/2021 1:30:00 PM 5.66 42.188 0.07 7.22 145.91 12.4
11/7/2021 1:45:00 PM 5.76 42.368 0.07 7.22 21.21 12.35
11/7/2021 2:00:00 PM 5.85 42.53 0.07 7.22 303.01 12.31
11/7/2021 2:15:00 PM 5.93 42.674 0.07 7.22 140.9 12.28
11/7/2021 2:30:00 PM 6 42.8 0.07 7.22 156.42 12.24
11/7/2021 2:45:00 PM 6.06 42.908 0.07 7.22 290.9 12.2
11/7/2021 3:00:00 PM 6.12 43.016 0.07 7.22 222.2 12.17
11/7/2021 3:15:00 PM 6.17 43.106 0.07 7.21 185.05 12.14
11/7/2021 3:30:00 PM 6.21 43.178 0.07 7.22 22.78 12.12
11/7/2021 3:45:00 PM 6.24 43.232 0.07 7.21 221.39 12.09
11/7/2021 4:00:00 PM 6.27 43.286 0.07 7.22 139.53 12.07
11/7/2021 4:15:00 PM 6.28 43.304 0.07 7.21 153.13 12.04
11/7/2021 4:30:00 PM 6.28 43.304 0.07 7.21 21.6 12.03
11/7/2021 4:45:00 PM 6.27 43.286 0.07 7.21 3.09 12.02
11/7/2021 5:00:00 PM 6.28 43.304 0.07 7.2 21.49 12.01
11/7/2021 5:15:00 PM 6.27 43.286 0.07 7.19 162.21 12
11/7/2021 5:30:00 PM 6.26 43.268 0.07 7.19 19.66 11.99
11/7/2021 5:45:00 PM 6.23 43.214 0.07 7.19 120.27 11.99
11/7/2021 6:00:00 PM 6.19 43.142 0.07 7.18 138.83 11.99
11/7/2021 6:15:00 PM 6.15 43.07 0.07 7.17 19.52 11.99
11/7/2021 6:30:00 PM 6.12 43.016 0.07 7.18 119.15 12
11/7/2021 6:45:00 PM 6.08 42.944 0.07 7.17 103.3 12
11/7/2021 7:00:00 PM 6.05 42.89 0.07 7.17 84.18 12
11/7/2021 7:15:00 PM 6.01 42.818 0.07 7.16 12.94 12.02
11/7/2021 7:30:00 PM 5.97 42.746 0.07 7.16 71.52 12.04
11/7/2021 7:45:00 PM 5.93 42.674 0.07 7.15 13.26 12.04
11/7/2021 8:00:00 PM 5.89 42.602 0.07 7.15 105.16 12.06
11/7/2021 8:15:00 PM 5.84 42.512 0.07 7.16 10.15 12.08
11/7/2021 8:30:00 PM 5.8 42.44 0.07 7.15 15.49 12.09
11/7/2021 8:45:00 PM 5.75 42.35 0.07 7.16 210.77 12.11
11/7/2021 9:00:00 PM 5.69 42.242 0.07 7.15 11.97 12.13
11/7/2021 9:15:00 PM 5.65 42.17 0.07 7.15 14.81 12.14
11/7/2021 9:30:00 PM 5.59 42.062 0.07 7.15 213.54 12.17
11/7/2021 9:45:00 PM 5.55 41.99 0.07 7.16 95.4 12.19
11/7/2021 10:00:00 PM 5.51 41.918 0.07 7.15 14.13 12.19
11/7/2021 10:15:00 PM 5.46 41.828 0.07 7.15 6.57 12.21
11/7/2021 10:30:00 PM 5.41 41.738 0.07 7.16 11.8 12.23
11/7/2021 10:45:00 PM 5.37 41.666 0.071 7.15 119.27 12.24
11/7/2021 11:00:00 PM 5.33 41.594 0.071 7.15 11.32 12.26
11/7/2021 11:15:00 PM 5.28 41.504 0.071 7.15 12.22 12.27
11/7/2021 11:30:00 PM 5.24 41.432 0.071 7.15 14.77 12.29
11/7/2021 11:45:00 PM 5.19 41.342 0.071 7.16 175.73 12.31
11/8/2021 12:00:00 AM 5.16 41.288 0.071 7.15 18.29 12.3
11/8/2021 12:15:00 AM 5.11 41.198 0.071 7.15 14.78 12.32
11/8/2021 12:30:00 AM 5.07 41.126 0.071 7.15 17.35 12.34
11/8/2021 12:45:00 AM 5.03 41.054 0.071 7.15 13.12 12.36
11/8/2021 1:00:00 AM 4.99 40.982 0.071 7.15 9.5 12.38
11/8/2021 1:15:00 AM 4.96 40.928 0.071 7.16 93.72 12.39
11/8/2021 1:30:00 AM 4.92 40.856 0.071 7.15 11.75 12.4
11/8/2021 1:45:00 AM 4.88 40.784 0.071 7.15 129.5 12.41
11/8/2021 2:00:00 AM 4.84 40.712 0.071 7.16 104 12.42
11/8/2021 2:15:00 AM 4.8 40.64 0.071 7.15 11.77 12.44
11/8/2021 2:30:00 AM 4.77 40.586 0.071 7.15 17.07 12.46
11/8/2021 2:45:00 AM 4.73 40.514 0.071 7.15 87.76 12.47
11/8/2021 3:00:00 AM 4.69 40.442 0.071 7.16 75.39 12.48
11/8/2021 3:15:00 AM 4.65 40.37 0.071 7.15 8.46 12.49
11/8/2021 3:30:00 AM 4.61 40.298 0.071 7.16 63.39 12.51
11/8/2021 3:45:00 AM 4.58 40.244 0.071 7.16 9.25 12.52
11/8/2021 4:00:00 AM 4.54 40.172 0.071 7.16 11.46 12.53
11/8/2021 4:15:00 AM 4.5 40.1 0.071 7.16 110.33 12.55
11/8/2021 4:30:00 AM 4.47 40.046 0.071 7.16 63.9 12.55
11/8/2021 4:45:00 AM 4.43 39.974 0.071 7.16 106.81 12.58
11/8/2021 5:00:00 AM 4.4 39.92 0.071 7.16 13 12.58
11/8/2021 5:15:00 AM 4.36 39.848 0.071 7.15 48.59 12.6
11/8/2021 5:30:00 AM 4.32 39.776 0.071 7.16 81.46 12.61
11/8/2021 5:45:00 AM 4.29 39.722 0.071 7.15 46.05 12.63
11/8/2021 6:00:00 AM 4.25 39.65 0.071 7.16 72.4 12.64
11/8/2021 6:15:00 AM 4.22 39.596 0.071 7.15 59.04 12.65
11/8/2021 6:30:00 AM 4.18 39.524 0.071 7.16 67.01 12.67
11/8/2021 6:45:00 AM 4.15 39.47 0.071 7.15 7.66 12.68
11/8/2021 7:00:00 AM 4.11 39.398 0.071 7.16 54.83 12.69
11/8/2021 7:15:00 AM 4.09 39.362 0.072 7.15 130.36 12.69
11/8/2021 7:30:00 AM 4.05 39.29 0.072 7.17 77.78 12.72
11/8/2021 7:45:00 AM 4.01 39.218 0.071 7.16 117.87 12.74
11/8/2021 8:00:00 AM 3.99 39.182 0.071 7.15 51.88 12.74
11/8/2021 8:15:00 AM 3.96 39.128 0.071 7.16 54.43 12.77
11/8/2021 8:30:00 AM 3.95 39.11 0.071 7.16 48.01 12.78
11/8/2021 8:45:00 AM 3.94 39.092 0.071 7.16 5.23 12.81
11/8/2021 9:00:00 AM 3.94 39.092 0.071 7.17 84.2 12.83
11/8/2021 9:15:00 AM 3.95 39.11 0.071 7.17 68.93 12.85
11/8/2021 9:30:00 AM 3.98 39.164 0.071 7.18 8.68 12.86
11/8/2021 9:45:00 AM 4.04 39.272 0.071 7.18 70.84 12.86
11/8/2021 10:00:00 AM 4.1 39.38 0.071 7.19 78.03 12.86
11/8/2021 10:15:00 AM 4.19 39.542 0.071 7.2 67.51 12.85
11/8/2021 10:30:00 AM 4.29 39.722 0.071 7.2 156.81 12.84
11/8/2021 10:45:00 AM 4.42 39.956 0.071 7.21 9.54 12.81
11/8/2021 11:00:00 AM 4.56 40.208 0.071 7.21 14.99 12.78
11/8/2021 11:15:00 AM 4.71 40.478 0.071 7.22 97.1 12.73
11/8/2021 11:30:00 AM 4.88 40.784 0.071 7.22 115.57 12.69
11/8/2021 11:45:00 AM 5.05 41.09 0.071 7.23 9.73 12.64
11/8/2021 12:00:00 PM 5.23 41.414 0.071 7.23 90.12 12.58
11/8/2021 12:15:00 PM 5.43 41.774 0.071 7.23 93.63 12.53
11/8/2021 12:30:00 PM 5.62 42.116 0.071 7.24 124.14 12.46
11/8/2021 12:45:00 PM 5.8 42.44 0.071 7.24 2.66 12.41
11/8/2021 1:00:00 PM 5.97 42.746 0.071 7.25 108.73 12.35
11/8/2021 1:15:00 PM 6.12 43.016 0.071 7.24 147.52 12.3
11/8/2021 1:30:00 PM 6.26 43.268 0.071 7.25 185.97 12.25
11/8/2021 1:45:00 PM 6.37 43.466 0.071 7.24 2.75 12.2
11/8/2021 2:00:00 PM 6.47 43.646 0.071 7.25 22.64 12.16
11/8/2021 2:15:00 PM 6.56 43.808 0.071 7.24 37.6 12.11
11/8/2021 2:30:00 PM 6.64 43.952 0.071 7.25 202.04 12.07
11/8/2021 2:45:00 PM 6.71 44.078 0.071 7.24 23.83 12.03
11/8/2021 3:00:00 PM 6.78 44.204 0.071 7.25 43.05 12
11/8/2021 3:15:00 PM 6.84 44.312 0.071 7.24 2.91 11.97
11/8/2021 3:30:00 PM 6.89 44.402 0.071 7.24 22.83 11.95
11/8/2021 3:45:00 PM 6.94 44.492 0.071 7.23 24.44 11.92
11/8/2021 4:00:00 PM 6.97 44.546 0.071 7.23 23.23 11.89
11/8/2021 4:15:00 PM 7 44.6 0.071 7.23 215.75 11.87
11/8/2021 4:30:00 PM 7.02 44.636 0.071 7.23 182.46 11.85
11/8/2021 4:45:00 PM 7.03 44.654 0.071 7.23 28.78 11.83
11/8/2021 5:00:00 PM 7.05 44.69 0.071 7.22 25.02 11.8
11/8/2021 5:15:00 PM 7.06 44.708 0.071 7.22 31.72 11.79
11/8/2021 5:30:00 PM 7.05 44.69 0.071 7.21 147.37 11.78
11/8/2021 5:45:00 PM 7.02 44.636 0.071 7.21 2.82 11.77
11/8/2021 6:00:00 PM 7 44.6 0.071 7.2 208.14 11.77
11/8/2021 6:15:00 PM 6.97 44.546 0.071 7.19 229.8 11.77
11/8/2021 6:30:00 PM 6.94 44.492 0.071 7.19 207.22 11.77
11/8/2021 6:45:00 PM 6.91 44.438 0.071 7.18 172.12 11.76
11/8/2021 7:00:00 PM 6.89 44.402 0.071 7.18 141.5 11.77
11/8/2021 7:15:00 PM 6.85 44.33 0.071 7.17 246.34 11.78
11/8/2021 7:30:00 PM 6.82 44.276 0.071 7.16 25.02 11.78
11/8/2021 7:45:00 PM 6.79 44.222 0.071 7.16 25.37 11.79
11/8/2021 8:00:00 PM 6.75 44.15 0.071 7.16 2.94 11.8
11/8/2021 8:15:00 PM 6.71 44.078 0.071 7.16 3.04 11.81
11/8/2021 8:30:00 PM 6.66 43.988 0.071 7.16 170.93 11.83
11/8/2021 8:45:00 PM 6.62 43.916 0.071 7.16 3.23 11.84
11/8/2021 9:00:00 PM 6.57 43.826 0.071 7.15 24.69 11.85
11/8/2021 9:15:00 PM 6.52 43.736 0.071 7.16 212.15 11.87
11/8/2021 9:30:00 PM 6.48 43.664 0.071 7.16 157.79 11.88
11/8/2021 9:45:00 PM 6.43 43.574 0.071 7.15 131.47 11.9
11/8/2021 10:00:00 PM 6.39 43.502 0.071 7.15 159.23 11.91
11/8/2021 10:15:00 PM 6.35 43.43 0.071 7.15 44.83 11.92
11/8/2021 10:30:00 PM 6.3 43.34 0.071 7.16 142.56 11.94
11/8/2021 10:45:00 PM 6.26 43.268 0.071 7.15 15.62 11.95
11/8/2021 11:00:00 PM 6.22 43.196 0.071 7.15 16.34 11.96
11/8/2021 11:15:00 PM 6.18 43.124 0.072 7.16 19.76 11.98
11/8/2021 11:30:00 PM 6.14 43.052 0.072 7.16 132.93 11.99
11/8/2021 11:45:00 PM 6.09 42.962 0.072 7.16 24.09 12.01
11/9/2021 12:00:00 AM 6.05 42.89 0.072 7.15 27.62 12.02
11/9/2021 12:15:00 AM 6.01 42.818 0.072 7.15 20.95 12.04
11/9/2021 12:30:00 AM 5.96 42.728 0.072 7.16 22.7 12.05
11/9/2021 12:45:00 AM 5.92 42.656 0.072 7.16 21.54 12.07
11/9/2021 1:00:00 AM 5.88 42.584 0.072 7.16 17.34 12.08
11/9/2021 1:15:00 AM 5.84 42.512 0.072 7.16 17.82 12.1
11/9/2021 1:30:00 AM 5.8 42.44 0.072 7.16 24.93 12.1
11/9/2021 1:45:00 AM 5.75 42.35 0.072 7.16 19.9 12.12
11/9/2021 2:00:00 AM 5.72 42.296 0.072 7.16 19.92 12.13
11/9/2021 2:15:00 AM 5.68 42.224 0.072 7.15 5.19 12.14
11/9/2021 2:30:00 AM 5.64 42.152 0.072 7.16 111.97 12.16
11/9/2021 2:45:00 AM 5.6 42.08 0.072 7.16 15.65 12.17
11/9/2021 3:00:00 AM 5.56 42.008 0.072 7.16 25.66 12.18
11/9/2021 3:15:00 AM 5.52 41.936 0.072 7.16 15.9 12.19
11/9/2021 3:30:00 AM 5.48 41.864 0.072 7.16 31.03 12.2
11/9/2021 3:45:00 AM 5.44 41.792 0.072 7.16 29.85 12.22
11/9/2021 4:00:00 AM 5.41 41.738 0.072 7.16 155.69 12.22
11/9/2021 4:15:00 AM 5.37 41.666 0.072 7.16 272.08 12.23
11/9/2021 4:30:00 AM 5.33 41.594 0.072 7.16 173.51 12.25
11/9/2021 4:45:00 AM 5.3 41.54 0.072 7.16 225.9 12.26
11/9/2021 5:00:00 AM 5.26 41.468 0.072 7.16 17.21 12.27
11/9/2021 5:15:00 AM 5.22 41.396 0.072 7.16 20.21 12.28
11/9/2021 5:30:00 AM 5.19 41.342 0.072 7.16 17.7 12.3
11/9/2021 5:45:00 AM 5.16 41.288 0.073 7.16 17.21 12.31
11/9/2021 6:00:00 AM 5.12 41.216 0.073 7.16 21.09 12.32
11/9/2021 6:15:00 AM 5.1 41.18 0.073 7.16 15.46 12.33
11/9/2021 6:30:00 AM 5.06 41.108 0.073 7.16 16.9 12.35
11/9/2021 6:45:00 AM 5.03 41.054 0.073 7.16 20.66 12.35
11/9/2021 7:00:00 AM 5 41 0.073 7.16 23.58 12.36
11/9/2021 7:15:00 AM 4.97 40.946 0.073 7.16 20 12.38
11/9/2021 7:30:00 AM 4.95 40.91 0.073 7.16 222.81 12.38
11/9/2021 7:45:00 AM 4.92 40.856 0.073 7.16 14.58 12.39
11/9/2021 8:00:00 AM 4.9 40.82 0.073 7.16 14.71 12.41
11/9/2021 8:15:00 AM 4.88 40.784 0.073 7.16 15.99 12.43
11/9/2021 8:30:00 AM 4.86 40.748 0.073 7.16 270.46 12.45
11/9/2021 8:45:00 AM 4.85 40.73 0.073 7.17 13.98 12.48
11/9/2021 9:00:00 AM 4.86 40.748 0.073 7.18 16.51 12.49
11/9/2021 9:15:00 AM 4.89 40.802 0.073 7.18 22.33 12.51
11/9/2021 9:30:00 AM 4.92 40.856 0.073 7.19 18.73 12.52
11/9/2021 9:45:00 AM 4.98 40.964 0.073 7.2 20.72 12.53
11/9/2021 10:00:00 AM 5.06 41.108 0.073 7.21 26.44 12.52
11/9/2021 10:15:00 AM 5.16 41.288 0.073 7.21 26.85 12.51
11/9/2021 10:30:00 AM 5.28 41.504 0.073 7.21 24.41 12.48
11/9/2021 10:45:00 AM 5.42 41.756 0.073 7.22 21.53 12.45
11/9/2021 11:00:00 AM 5.57 42.026 0.073 7.23 27.24 12.42
11/9/2021 11:15:00 AM 5.75 42.35 0.073 7.24 37.3 12.39
11/9/2021 11:30:00 AM 5.93 42.674 0.072 7.25 31.73 12.34
11/9/2021 11:45:00 AM 6.12 43.016 0.072 7.25 34.5 12.28
11/9/2021 12:00:00 PM 6.31 43.358 0.072 7.26 31.68 12.23
11/9/2021 12:15:00 PM 6.53 43.754 0.072 7.28 52.33 12.19
11/9/2021 12:30:00 PM 6.66 43.988 0.072 7.27 43.89 12.11
11/9/2021 12:45:00 PM 6.75 44.15 0.072 7.27 40.79 12.07
11/9/2021 1:00:00 PM 6.89 44.402 0.072 7.27 226.23 12.04
11/9/2021 1:15:00 PM 7.09 44.762 0.072 7.28 39.3 11.97
11/9/2021 1:30:00 PM 7.27 45.086 0.072 7.28 51.94 11.93
11/9/2021 1:45:00 PM 7.35 45.23 0.072 7.28 49.43 11.9
11/9/2021 2:00:00 PM 7.42 45.356 0.072 7.27 36.69 11.85
11/9/2021 2:15:00 PM 7.53 45.554 0.072 7.28 53.53 11.82
11/9/2021 2:30:00 PM 7.64 45.752 0.072 7.28 70.3 11.77
11/9/2021 2:45:00 PM 7.75 45.95 0.072 7.29 306.6 11.73
11/9/2021 3:00:00 PM 7.85 46.13 0.072 7.28 47.18 11.69
11/9/2021 3:15:00 PM 7.96 46.328 0.072 7.28 59.66 11.65
11/9/2021 3:30:00 PM 8.05 46.49 0.072 7.29 15.72 11.61
11/9/2021 3:45:00 PM 8.11 46.598 0.072 7.27 49.16 11.58
11/9/2021 4:00:00 PM 8.12 46.616 0.072 7.27 62.66 11.56
11/9/2021 4:15:00 PM 8.14 46.652 0.072 7.26 63.38 11.54
11/9/2021 4:30:00 PM 8.15 46.67 0.072 7.26 70.43 11.51
11/9/2021 4:45:00 PM 8.17 46.706 0.072 7.25 60.32 11.48
11/9/2021 5:00:00 PM 8.21 46.778 0.072 7.24 265.04 11.46
11/9/2021 5:15:00 PM 8.23 46.814 0.072 7.22 47.21 11.42
11/9/2021 5:30:00 PM 8.25 46.85 0.072 7.23 247.19 11.39
11/9/2021 5:45:00 PM 8.25 46.85 0.072 7.21 49.72 11.38
11/9/2021 6:00:00 PM 8.24 46.832 0.072 7.21 33.43 11.36
11/9/2021 6:15:00 PM 8.24 46.832 0.072 7.2 44.69 11.35
11/9/2021 6:30:00 PM 8.25 46.85 0.072 7.19 7.38 11.32
11/9/2021 6:45:00 PM 8.27 46.886 0.072 7.17 50.85 11.32
11/9/2021 7:00:00 PM 8.27 46.886 0.072 7.17 39.7 11.31
11/9/2021 7:15:00 PM 8.27 46.886 0.072 7.16 317.16 11.3
11/9/2021 7:30:00 PM 8.26 46.868 0.072 7.16 41.98 11.3
11/9/2021 7:45:00 PM 8.26 46.868 0.072 7.15 34.71 11.3
11/9/2021 8:00:00 PM 8.27 46.886 0.072 7.15 246.53 11.31
11/9/2021 8:15:00 PM 8.27 46.886 0.072 7.15 34.78 11.31
11/9/2021 8:30:00 PM 8.26 46.868 0.072 7.14 216.18 11.3
11/9/2021 8:45:00 PM 8.25 46.85 0.072 7.14 42.87 11.31
11/9/2021 9:00:00 PM 8.24 46.832 0.072 7.13 372.53 11.32
11/9/2021 9:15:00 PM 8.23 46.814 0.072 7.14 206.3 11.32
11/9/2021 9:30:00 PM 8.23 46.814 0.072 7.13 54.92 11.31
11/9/2021 9:45:00 PM 8.23 46.814 0.072 7.14 39.14 11.32
11/9/2021 10:00:00 PM 8.22 46.796 0.072 7.14 8.08 11.32
11/9/2021 10:15:00 PM 8.22 46.796 0.073 7.14 40.81 11.32
11/9/2021 10:30:00 PM 8.22 46.796 0.073 7.13 35.87 11.32
11/9/2021 10:45:00 PM 8.21 46.778 0.073 7.13 197.97 11.32
11/9/2021 11:00:00 PM 8.21 46.778 0.073 7.13 176.41 11.31
11/9/2021 11:15:00 PM 8.21 46.778 0.073 7.13 28.25 11.3
11/9/2021 11:30:00 PM 8.19 46.742 0.073 7.13 212.34 11.33
11/9/2021 11:45:00 PM 8.18 46.724 0.073 7.13 30.83 11.32
11/10/2021 12:00:00 AM 8.16 46.688 0.073 7.13 30.31 11.32
11/10/2021 12:15:00 AM 8.15 46.67 0.073 7.13 23.49 11.32
11/10/2021 12:30:00 AM 8.13 46.634 0.073 7.14 14.83 11.33
11/10/2021 12:45:00 AM 8.11 46.598 0.073 7.13 25.17 11.33
11/10/2021 1:00:00 AM 8.1 46.58 0.073 7.14 192.7 11.35
11/10/2021 1:15:00 AM 8.09 46.562 0.073 7.13 31.49 11.35
11/10/2021 1:30:00 AM 8.08 46.544 0.073 7.14 19.51 11.35
11/10/2021 1:45:00 AM 8.08 46.544 0.073 7.13 254.78 11.35
11/10/2021 2:00:00 AM 8.07 46.526 0.073 7.14 304.47 11.34
11/10/2021 2:15:00 AM 8.07 46.526 0.073 7.15 493.58 11.35
11/10/2021 2:30:00 AM 8.06 46.508 0.073 7.14 244.01 11.35
11/10/2021 2:45:00 AM 8.05 46.49 0.073 7.14 36.43 11.34
11/10/2021 3:00:00 AM 8.05 46.49 0.073 7.14 28.14 11.32
11/10/2021 3:15:00 AM 8.03 46.454 0.073 7.14 243.88 11.35
11/10/2021 3:30:00 AM 8.01 46.418 0.073 7.15 12.73 11.35
11/10/2021 3:45:00 AM 8 46.4 0.073 7.14 21.7 11.34
11/10/2021 4:00:00 AM 7.98 46.364 0.074 7.15 5.34 11.36
11/10/2021 4:15:00 AM 7.96 46.328 0.074 7.14 10.3 11.36
11/10/2021 4:30:00 AM 7.96 46.328 0.074 7.13 5.85 11.36
11/10/2021 4:45:00 AM 7.95 46.31 0.074 7.14 182.82 11.37
11/10/2021 5:00:00 AM 7.94 46.292 0.074 7.14 118.95 11.36
11/10/2021 5:15:00 AM 7.93 46.274 0.074 7.14 12.62 11.37
11/10/2021 5:30:00 AM 7.92 46.256 0.074 7.15 20.19 11.38
11/10/2021 5:45:00 AM 7.92 46.256 0.074 7.15 11.63 11.38
11/10/2021 6:00:00 AM 7.92 46.256 0.074 7.13 20.56 11.38
11/10/2021 6:15:00 AM 7.92 46.256 0.074 7.14 20.63 11.38
11/10/2021 6:30:00 AM 7.93 46.274 0.074 7.15 21.64 11.39
11/10/2021 6:45:00 AM 7.93 46.274 0.074 7.15 205.34 11.4
11/10/2021 7:00:00 AM 7.94 46.292 0.074 7.15 289.35 11.39
11/10/2021 7:15:00 AM 7.95 46.31 0.074 7.17 16.72 11.39
11/10/2021 7:30:00 AM 7.96 46.328 0.074 7.16 168.3 11.38
11/10/2021 7:45:00 AM 7.97 46.346 0.074 7.18 27.61 11.39
11/10/2021 8:00:00 AM 7.99 46.382 0.074 7.18 23.95 11.39
11/10/2021 8:15:00 AM 8 46.4 0.074 7.19 36.72 11.39
11/10/2021 8:30:00 AM 8.01 46.418 0.074 7.18 139.58 11.4
11/10/2021 8:45:00 AM 8.03 46.454 0.074 7.18 24.8 11.37
11/10/2021 9:00:00 AM 8.04 46.472 0.074 7.19 5.94 11.4
11/10/2021 9:15:00 AM 8.06 46.508 0.074 7.2 17 11.41
11/10/2021 9:30:00 AM 8.07 46.526 0.074 7.18 19.42 11.4
11/10/2021 9:45:00 AM 8.1 46.58 0.074 7.19 16.5 11.43
11/10/2021 10:00:00 AM 8.13 46.634 0.074 7.2 21.5 11.47
11/10/2021 10:15:00 AM 8.16 46.688 0.074 7.22 15.74 11.47
11/10/2021 10:30:00 AM 8.2 46.76 0.074 7.21 179.63 11.47
11/10/2021 10:45:00 AM 8.24 46.832 0.074 7.23 23.55 11.52
11/10/2021 11:00:00 AM 8.33 46.994 0.074 7.24 191.29 11.52
11/10/2021 11:15:00 AM 8.39 47.102 0.074 7.24 24.49 11.5
11/10/2021 11:30:00 AM 8.46 47.228 0.074 7.25 209.11 11.52
11/10/2021 11:45:00 AM 8.53 47.354 0.074 7.24 17.27 11.49
11/10/2021 12:00:00 PM 8.65 47.57 0.074 7.24 128.35 11.46
11/10/2021 12:15:00 PM 8.75 47.75 0.074 7.27 139.42 11.44
11/10/2021 12:30:00 PM 8.88 47.984 0.074 7.24 10.65 11.38
11/10/2021 12:45:00 PM 9.04 48.272 0.074 7.25 8.87 11.37
11/10/2021 1:00:00 PM 9.15 48.47 0.073 7.26 7.66 11.35
11/10/2021 1:15:00 PM 9.26 48.668 0.074 7.25 10.01 11.29
11/10/2021 1:30:00 PM 9.34 48.812 0.074 7.27 8.24 11.29
11/10/2021 1:45:00 PM 9.38 48.884 0.074 7.25 47.11 11.25
11/10/2021 2:00:00 PM 9.41 48.938 0.073 7.23 24.38 11.24
11/10/2021 2:15:00 PM 9.43 48.974 0.073 7.25 210.42 11.22
11/10/2021 2:30:00 PM 9.41 48.938 0.073 7.27 19.22 11.23
11/10/2021 2:45:00 PM 9.39 48.902 0.073 7.25 6.34 11.19
11/10/2021 3:00:00 PM 9.36 48.848 0.073 7.24 8.74 11.21
11/10/2021 3:15:00 PM 9.32 48.776 0.073 7.24 183.59 11.2
11/10/2021 3:30:00 PM 9.29 48.722 0.073 7.24 9.66 11.19
11/10/2021 3:45:00 PM 9.24 48.632 0.073 7.23 7.06 11.2
11/10/2021 4:00:00 PM 9.21 48.578 0.073 7.22 7.53 11.15
11/10/2021 4:15:00 PM 9.16 48.488 0.073 7.23 7.51 11.17
11/10/2021 4:30:00 PM 9.1 48.38 0.073 7.22 10.33 11.15
11/10/2021 4:45:00 PM 9.04 48.272 0.073 7.22 10.03 11.18
11/10/2021 5:00:00 PM 8.99 48.182 0.073 7.2 9.85 11.18
11/10/2021 5:15:00 PM 8.95 48.11 0.073 7.2 10.75 11.19
11/10/2021 5:30:00 PM 8.9 48.02 0.073 7.18 5.3 11.14
11/10/2021 5:45:00 PM 8.84 47.912 0.073 7.18 7.37 11.18
11/10/2021 6:00:00 PM 8.78 47.804 0.073 7.19 9.02 11.18
11/10/2021 6:15:00 PM 8.73 47.714 0.073 7.16 6.24 11.17
11/10/2021 6:30:00 PM 8.67 47.606 0.073 7.16 4.8 11.13
11/10/2021 6:45:00 PM 8.59 47.462 0.073 7.15 61.23 11.18
11/10/2021 7:00:00 PM 8.52 47.336 0.073 7.16 4.87 11.18
11/10/2021 7:15:00 PM 8.44 47.192 0.073 7.14 155.16 11.22
11/10/2021 7:30:00 PM 8.35 47.03 0.073 7.13 103.03 11.23
11/10/2021 7:45:00 PM 8.25 46.85 0.073 7.15 5.05 11.29
11/10/2021 8:00:00 PM 8.17 46.706 0.073 7.13 96.14 11.28
11/10/2021 8:15:00 PM 8.06 46.508 0.074 7.14 83.75 11.32
11/10/2021 8:30:00 PM 7.97 46.346 0.074 7.14 4.54 11.35
11/10/2021 8:45:00 PM 7.87 46.166 0.074 7.14 4.57 11.39
11/10/2021 9:00:00 PM 7.79 46.022 0.074 7.13 5.36 11.39
11/10/2021 9:15:00 PM 7.71 45.878 0.074 7.13 4.66 11.4
11/10/2021 9:30:00 PM 7.62 45.716 0.074 7.13 4.38 11.46
11/10/2021 9:45:00 PM 7.54 45.572 0.074 7.1 5.98 11.46
11/10/2021 10:00:00 PM 7.46 45.428 0.074 7.11 72.12 11.49
11/10/2021 10:15:00 PM 7.37 45.266 0.074 7.13 82.72 11.54
11/10/2021 10:30:00 PM 7.3 45.14 0.074 7.13 114.54 11.56
11/10/2021 10:45:00 PM 7.23 45.014 0.074 7.12 8.4 11.57
11/10/2021 11:00:00 PM 7.15 44.87 0.074 7.12 293.94 11.63
11/10/2021 11:15:00 PM 7.08 44.744 0.074 7.12 6.72 11.64
11/10/2021 11:30:00 PM 7 44.6 0.074 7.12 134.25 11.66
11/10/2021 11:45:00 PM 6.93 44.474 0.074 7.13 5.48 11.68
11/11/2021 12:00:00 AM 6.84 44.312 0.074 7.15 4.5 11.74
11/11/2021 12:15:00 AM 6.76 44.168 0.074 7.13 4.76 11.75
11/11/2021 12:30:00 AM 6.68 44.024 0.074 7.13 4.89 11.75
11/11/2021 12:45:00 AM 6.61 43.898 0.074 7.12 4.37 11.78
11/11/2021 1:00:00 AM 6.54 43.772 0.074 7.13 4.52 11.81
11/11/2021 1:15:00 AM 6.46 43.628 0.075 7.12 70.78 11.83
11/11/2021 1:30:00 AM 6.38 43.484 0.075 7.13 4.42 11.87
11/11/2021 1:45:00 AM 6.32 43.376 0.075 7.13 4.54 11.87
11/11/2021 2:00:00 AM 6.25 43.25 0.075 7.13 4.52 11.89
11/11/2021 2:15:00 AM 6.18 43.124 0.075 7.14 52.5 11.94
11/11/2021 2:30:00 AM 6.12 43.016 0.075 7.13 37.24 11.95
11/11/2021 2:45:00 AM 6.04 42.872 0.075 7.14 68.62 11.98
11/11/2021 3:00:00 AM 5.99 42.782 0.075 7.13 37.06 11.98
11/11/2021 3:15:00 AM 5.91 42.638 0.075 7.13 4.27 12.03
11/11/2021 3:30:00 AM 5.85 42.53 0.075 7.12 4.31 12.01
11/11/2021 3:45:00 AM 5.79 42.422 0.075 7.14 4.07 12.06
11/11/2021 4:00:00 AM 5.74 42.332 0.075 7.13 4.08 12.07
11/11/2021 4:15:00 AM 5.66 42.188 0.075 7.15 4.42 12.11
11/11/2021 4:30:00 AM 5.62 42.116 0.075 7.13 33.66 12.11
11/11/2021 4:45:00 AM 5.56 42.008 0.075 7.11 65.25 12.09
11/11/2021 5:00:00 AM 5.5 41.9 0.075 7.13 4.4 12.12
11/11/2021 5:15:00 AM 5.43 41.774 0.075 7.15 3.92 12.2
11/11/2021 5:30:00 AM 5.37 41.666 0.075 7.13 3.99 12.2
11/11/2021 5:45:00 AM 5.33 41.594 0.075 7.14 33.23 12.21
11/11/2021 6:00:00 AM 5.28 41.504 0.075 7.13 27.27 12.21
11/11/2021 6:15:00 AM 5.22 41.396 0.075 7.14 122.95 12.26
11/11/2021 6:30:00 AM 5.18 41.324 0.075 7.13 61.81 12.28
11/11/2021 6:45:00 AM 5.14 41.252 0.075 7.14 276.44 12.28
11/11/2021 7:00:00 AM 5.09 41.162 0.075 7.13 180.28 12.29
11/11/2021 7:15:00 AM 5.06 41.108 0.075 7.14 49.92 12.31
11/11/2021 7:30:00 AM 5.02 41.036 0.075 7.13 4.28 12.3
11/11/2021 7:45:00 AM 4.99 40.982 0.075 7.13 30.02 12.33
11/11/2021 8:00:00 AM 4.98 40.964 0.075 7.14 3.88 12.35
11/11/2021 8:15:00 AM 4.97 40.946 0.075 7.14 4.17 12.38
11/11/2021 8:30:00 AM 4.95 40.91 0.075 7.15 4.06 12.41
11/11/2021 8:45:00 AM 4.95 40.91 0.075 7.16 4.04 12.45
11/11/2021 9:00:00 AM 4.98 40.964 0.075 7.15 34.18 12.45
11/11/2021 9:15:00 AM 5 41 0.075 7.15 4.33 12.43
11/11/2021 9:30:00 AM 5.04 41.072 0.075 7.17 4.32 12.5
11/11/2021 9:45:00 AM 5.08 41.144 0.075 7.15 4.44 12.5
11/11/2021 10:00:00 AM 5.13 41.234 0.075 7.16 4.3 12.54
11/11/2021 10:15:00 AM 5.2 41.36 0.075 7.19 4.27 12.5
11/11/2021 10:30:00 AM 5.27 41.486 0.075 7.2 4.36 12.53
11/11/2021 10:45:00 AM 5.35 41.63 0.075 7.19 4.46 12.5
11/11/2021 11:00:00 AM 5.45 41.81 0.075 7.22 4.39 12.47
11/11/2021 11:15:00 AM 5.56 42.008 0.075 7.21 4.31 12.47
11/11/2021 11:30:00 AM 5.7 42.26 0.075 7.21 71.16 12.43
11/11/2021 11:45:00 AM 5.85 42.53 0.075 7.22 5.06 12.4
11/11/2021 12:00:00 PM 5.98 42.764 0.075 7.23 82.78 12.35
11/11/2021 12:15:00 PM 6.14 43.052 0.075 7.22 5.38 12.32
11/11/2021 12:30:00 PM 6.3 43.34 0.075 7.24 5.38 12.28
11/11/2021 12:45:00 PM 6.46 43.628 0.075 7.25 5.14 12.23
11/11/2021 1:00:00 PM 6.64 43.952 0.075 7.25 5.78 12.17
11/11/2021 1:15:00 PM 6.74 44.132 0.075 7.25 5.82 12.14
11/11/2021 1:30:00 PM 6.81 44.258 0.075 7.24 5.92 12.11
11/11/2021 1:45:00 PM 6.87 44.366 0.075 7.23 121.93 12.07
11/11/2021 2:00:00 PM 6.92 44.456 0.075 7.24 147.51 12.05
11/11/2021 2:15:00 PM 7 44.6 0.075 7.24 2.96 12.02
11/11/2021 2:30:00 PM 7.07 44.726 0.075 7.26 8.71 12
11/11/2021 2:45:00 PM 7.12 44.816 0.075 7.24 110.48 11.97
11/11/2021 3:00:00 PM 7.17 44.906 0.075 7.24 9.44 11.93
11/11/2021 3:15:00 PM 7.21 44.978 0.075 7.25 7.1 11.93
11/11/2021 3:30:00 PM 7.25 45.05 0.075 7.24 8.07 11.9
11/11/2021 3:45:00 PM 7.27 45.086 0.075 7.23 6.52 11.89
11/11/2021 4:00:00 PM 7.31 45.158 0.075 7.24 12.16 11.87
11/11/2021 4:15:00 PM 7.35 45.23 0.075 7.22 168.41 11.82
11/11/2021 4:30:00 PM 7.37 45.266 0.075 7.23 42.35 11.81
11/11/2021 4:45:00 PM 7.39 45.302 0.075 7.22 23.58 11.76
11/11/2021 5:00:00 PM 7.4 45.32 0.075 7.21 23.64 11.74
11/11/2021 5:15:00 PM 7.42 45.356 0.075 7.2 125.67 11.69
11/11/2021 5:30:00 PM 7.42 45.356 0.075 7.2 7.42 11.67
11/11/2021 5:45:00 PM 7.41 45.338 0.075 7.2 18 11.63
11/11/2021 6:00:00 PM 7.39 45.302 0.075 7.19 9.55 11.59
11/11/2021 6:15:00 PM 7.37 45.266 0.075 7.16 11.8 11.57
11/11/2021 6:30:00 PM 7.34 45.212 0.075 7.18 19.73 11.56
11/11/2021 6:45:00 PM 7.33 45.194 0.075 7.15 14.29 11.53
11/11/2021 7:00:00 PM 7.3 45.14 0.075 7.16 8.32 11.57
11/11/2021 7:15:00 PM 7.28 45.104 0.075 7.15 5.3 11.54
11/11/2021 7:30:00 PM 7.27 45.086 0.075 7.15 4.95 11.55
11/11/2021 7:45:00 PM 7.25 45.05 0.075 7.14 4.63 11.56
11/11/2021 8:00:00 PM 7.24 45.032 0.075 7.15 4.66 11.57
11/11/2021 8:15:00 PM 7.25 45.05 0.075 7.15 6.51 11.57
11/11/2021 8:30:00 PM 7.26 45.068 0.075 7.15 112.8 11.55
11/11/2021 8:45:00 PM 7.28 45.104 0.075 7.13 9.12 11.54
11/11/2021 9:00:00 PM 7.29 45.122 0.075 7.13 5.37 11.54
11/11/2021 9:15:00 PM 7.3 45.14 0.075 7.14 5.4 11.54
11/11/2021 9:30:00 PM 7.32 45.176 0.075 7.14 5.47 11.54
11/11/2021 9:45:00 PM 7.35 45.23 0.075 7.13 142.3 11.5
11/11/2021 10:00:00 PM 7.37 45.266 0.075 7.14 5.96 11.53
11/11/2021 10:15:00 PM 7.41 45.338 0.075 7.12 4.68 11.48
11/11/2021 10:30:00 PM 7.42 45.356 0.075 7.15 5.62 11.52
11/11/2021 10:45:00 PM 7.46 45.428 0.075 7.14 8.63 11.51
11/11/2021 11:00:00 PM 7.48 45.464 0.075 7.13 11.84 11.48
11/11/2021 11:15:00 PM 7.51 45.518 0.075 7.14 6.9 11.46
11/11/2021 11:30:00 PM 7.54 45.572 0.075 7.14 116.19 11.45
11/11/2021 11:45:00 PM 7.58 45.644 0.075 7.14 269.57 11.44
11/12/2021 12:00:00 AM 7.62 45.716 0.075 7.14 128.58 11.45
11/12/2021 12:15:00 AM 7.66 45.788 0.075 7.14 6.96 11.41
11/12/2021 12:30:00 AM 7.71 45.878 0.075 7.13 5.88 11.39
11/12/2021 12:45:00 AM 7.77 45.986 0.075 7.13 7.12 11.36
11/12/2021 1:00:00 AM 7.81 46.058 0.075 7.13 10.44 11.36
11/12/2021 1:15:00 AM 7.87 46.166 0.075 7.13 9.08 11.32
11/12/2021 1:30:00 AM 7.92 46.256 0.075 7.14 6.96 11.32
11/12/2021 1:45:00 AM 7.96 46.328 0.075 7.15 5.98 11.32
11/12/2021 2:00:00 AM 8.02 46.436 0.076 7.16 18.73 11.32
11/12/2021 2:15:00 AM 8.06 46.508 0.076 7.16 5.93 11.3
11/12/2021 2:30:00 AM 8.11 46.598 0.076 7.16 5.5 11.28
11/12/2021 2:45:00 AM 8.15 46.67 0.076 7.16 7.22 11.27
11/12/2021 3:00:00 AM 8.19 46.742 0.076 7.15 6.21 11.22
11/12/2021 3:15:00 AM 8.25 46.85 0.076 7.17 333.78 11.23
11/12/2021 3:30:00 AM 8.3 46.94 0.076 7.17 10.8 11.24
11/12/2021 3:45:00 AM 8.35 47.03 0.076 7.17 25.83 11.21
11/12/2021 4:00:00 AM 8.4 47.12 0.076 7.17 167.18 11.18
11/12/2021 4:15:00 AM 8.45 47.21 0.076 7.17 7.05 11.15
11/12/2021 4:30:00 AM 8.49 47.282 0.076 7.16 143.04 11.16
11/12/2021 4:45:00 AM 8.56 47.408 0.076 7.15 134.16 11.11
11/12/2021 5:00:00 AM 8.61 47.498 0.076 7.14 157.53 11.08
11/12/2021 5:15:00 AM 8.66 47.588 0.076 7.15 7.83 11.07
11/12/2021 5:30:00 AM 8.72 47.696 0.076 7.15 22.98 11.04
11/12/2021 5:45:00 AM 8.77 47.786 0.076 7.15 11.4 11.04
11/12/2021 6:00:00 AM 8.82 47.876 0.076 7.17 7.75 11.01
11/12/2021 6:15:00 AM 8.88 47.984 0.075 7.17 5.84 11.01
11/12/2021 6:30:00 AM 8.93 48.074 0.075 7.18 15.6 11
11/12/2021 6:45:00 AM 9 48.2 0.075 7.17 8.45 10.98
11/12/2021 7:00:00 AM 9.05 48.29 0.075 7.15 8.87 10.94
11/12/2021 7:15:00 AM 9.12 48.416 0.074 7.2 146.89 10.97
11/12/2021 7:30:00 AM 9.18 48.524 0.074 7.17 154.41 10.93
11/12/2021 7:45:00 AM 9.25 48.65 0.074 7.19 24 10.94
11/12/2021 8:00:00 AM 9.32 48.776 0.073 7.2 11.02 10.92
11/12/2021 8:15:00 AM 9.41 48.938 0.073 7.21 131.88 10.91
11/12/2021 8:30:00 AM 9.51 49.118 0.072 7.24 142.45 10.91
11/12/2021 8:45:00 AM 9.7 49.46 0.069 7.25 29.88 10.88
11/12/2021 9:00:00 AM 9.75 49.55 0.069 7.24 380.32 10.9
11/12/2021 9:15:00 AM 9.81 49.658 0.068 7.23 36.35 10.88
11/12/2021 9:30:00 AM 9.85 49.73 0.066 7.19 48.78 10.88
11/12/2021 9:45:00 AM 9.84 49.712 0.066 7.2 68.95 10.9
11/12/2021 10:00:00 AM 9.86 49.748 0.064 7.19 455.04 10.92
11/12/2021 10:15:00 AM 9.9 49.82 0.063 7.19 336 10.96
11/12/2021 10:30:00 AM 9.96 49.928 0.062 7.18 318.58 10.97
11/12/2021 10:45:00 AM 10.04 50.072 0.062 7.15 449.1 10.96
11/12/2021 11:00:00 AM 10.11 50.198 0.059 7.14 437.07 10.95
11/12/2021 11:15:00 AM 10.17 50.306 0.057 7.12 489.14 10.94
11/12/2021 11:30:00 AM 10.19 50.342 0.054 7.09 433.47 10.94
11/12/2021 11:45:00 AM 10.17 50.306 0.053 7.07 490.36 10.95
11/12/2021 12:00:00 PM 10.15 50.27 0.051 7.05 444.97 10.96
11/12/2021 12:15:00 PM 10.11 50.198 0.051 7.04 378.12 10.98
11/12/2021 12:30:00 PM 10.08 50.144 0.05 7.03 374.76 10.99
11/12/2021 12:45:00 PM 10.04 50.072 0.05 7.03 107.33 11.01
11/12/2021 1:00:00 PM 9.99 49.982 0.05 7.03 338.34 11.02
11/12/2021 1:15:00 PM 9.95 49.91 0.05 7.02 390.56 11.04
11/12/2021 1:30:00 PM 9.93 49.874 0.051 7.03 364.02 11.04
11/12/2021 1:45:00 PM 9.93 49.874 0.051 7.03 315 11.05
11/12/2021 2:00:00 PM 9.92 49.856 0.051 7.03 327.4 11.05
11/12/2021 2:15:00 PM 9.93 49.874 0.052 7.03 345.36 11.05
11/12/2021 2:30:00 PM 9.92 49.856 0.052 7.02 328.11 11.05
11/12/2021 2:45:00 PM 9.9 49.82 0.052 7.03 370.63 11.06
11/12/2021 3:00:00 PM 9.92 49.856 0.052 7.04 267.08 11.06
11/12/2021 3:15:00 PM 9.93 49.874 0.052 7.05 320.49 11.05
11/12/2021 3:30:00 PM 9.92 49.856 0.052 7.06 185.71 11.05
11/12/2021 3:45:00 PM 9.89 49.802 0.052 7.05 230.66 11.05
11/12/2021 4:00:00 PM 9.86 49.748 0.052 7.05 100.07 11.05
11/12/2021 4:15:00 PM 9.83 49.694 0.052 7.05 27.53 11.05
11/12/2021 4:30:00 PM 9.79 49.622 0.052 7.05 116.34 11.05
11/12/2021 4:45:00 PM 9.74 49.532 0.052 7.06 33.33 11.06
11/12/2021 5:00:00 PM 9.7 49.46 0.052 7.05 79.66 11.06
11/12/2021 5:15:00 PM 9.66 49.388 0.052 7.05 130.48 11.07
11/12/2021 5:30:00 PM 9.61 49.298 0.052 7.05 132.79 11.08
11/12/2021 5:45:00 PM 9.56 49.208 0.052 7.05 45.18 11.09
11/12/2021 6:00:00 PM 9.51 49.118 0.052 7.04 28.56 11.1
11/12/2021 6:15:00 PM 9.45 49.01 0.052 7.04 38.07 11.11
11/12/2021 6:30:00 PM 9.39 48.902 0.052 7.03 17.81 11.12
11/12/2021 6:45:00 PM 9.34 48.812 0.052 7.04 21.72 11.13
11/12/2021 7:00:00 PM 9.28 48.704 0.052 7.04 18.98 11.15
11/12/2021 7:15:00 PM 9.22 48.596 0.052 7.03 16.47 11.17
11/12/2021 7:30:00 PM 9.15 48.47 0.052 7.04 33.24 11.18
11/12/2021 7:45:00 PM 9.08 48.344 0.052 7.04 131.1 11.2
11/12/2021 8:00:00 PM 9.02 48.236 0.053 7.04 19.75 11.22
11/12/2021 8:15:00 PM 8.95 48.11 0.053 7.04 68.3 11.23
11/12/2021 8:30:00 PM 8.88 47.984 0.053 7.03 16.53 11.26
11/12/2021 8:45:00 PM 8.81 47.858 0.053 7.03 14.34 11.28
11/12/2021 9:00:00 PM 8.74 47.732 0.053 7.03 15.72 11.3
11/12/2021 9:15:00 PM 8.67 47.606 0.053 7.02 14.99 11.31
11/12/2021 9:30:00 PM 8.59 47.462 0.053 7.03 13.61 11.33
11/12/2021 9:45:00 PM 8.53 47.354 0.053 7.03 34.63 11.34
11/12/2021 10:00:00 PM 8.46 47.228 0.053 7.03 42.82 11.37
11/12/2021 10:15:00 PM 8.39 47.102 0.053 7.03 12.91 11.38
11/12/2021 10:30:00 PM 8.32 46.976 0.053 7.03 12.61 11.4
11/12/2021 10:45:00 PM 8.26 46.868 0.053 7.04 13.17 11.42
11/12/2021 11:00:00 PM 8.19 46.742 0.054 7.04 49.66 11.43
11/12/2021 11:15:00 PM 8.13 46.634 0.054 7.04 17.12 11.45
11/12/2021 11:30:00 PM 8.06 46.508 0.054 7.03 14.77 11.46
11/12/2021 11:45:00 PM 8 46.4 0.054 7.04 21.25 11.48
11/13/2021 12:00:00 AM 7.94 46.292 0.054 7.03 16.02 11.5
11/13/2021 12:15:00 AM 7.88 46.184 0.054 7.03 41.77 11.51
11/13/2021 12:30:00 AM 7.82 46.076 0.054 7.04 25.01 11.53
11/13/2021 12:45:00 AM 7.77 45.986 0.054 7.03 11.43 11.54
11/13/2021 1:00:00 AM 7.72 45.896 0.054 7.03 11.2 11.56
11/13/2021 1:15:00 AM 7.66 45.788 0.054 7.03 37.29 11.57
11/13/2021 1:30:00 AM 7.61 45.698 0.054 7.03 18.79 11.58
11/13/2021 1:45:00 AM 7.56 45.608 0.054 7.03 13.84 11.59
11/13/2021 2:00:00 AM 7.52 45.536 0.054 7.03 9.74 11.6
11/13/2021 2:15:00 AM 7.47 45.446 0.055 7.02 9.42 11.62
11/13/2021 2:30:00 AM 7.43 45.374 0.055 7.03 9.67 11.63
11/13/2021 2:45:00 AM 7.4 45.32 0.055 7.04 52.5 11.64
11/13/2021 3:00:00 AM 7.37 45.266 0.055 7.03 15.55 11.64
11/13/2021 3:15:00 AM 7.35 45.23 0.055 7.03 9.7 11.66
11/13/2021 3:30:00 AM 7.32 45.176 0.055 7.04 13.52 11.66
11/13/2021 3:45:00 AM 7.3 45.14 0.055 7.04 12.95 11.67
11/13/2021 4:00:00 AM 7.28 45.104 0.055 7.04 10.03 11.67
11/13/2021 4:15:00 AM 7.26 45.068 0.055 7.04 20.59 11.67
11/13/2021 4:30:00 AM 7.25 45.05 0.055 7.03 9.37 11.67
11/13/2021 4:45:00 AM 7.23 45.014 0.055 7.04 17.32 11.67
11/13/2021 5:00:00 AM 7.21 44.978 0.055 7.04 11.96 11.67
11/13/2021 5:15:00 AM 7.2 44.96 0.055 7.04 8.32 11.68
11/13/2021 5:30:00 AM 7.18 44.924 0.055 7.04 10.11 11.68
11/13/2021 5:45:00 AM 7.17 44.906 0.055 7.04 8.95 11.68
11/13/2021 6:00:00 AM 7.15 44.87 0.055 7.04 8.15 11.68
11/13/2021 6:15:00 AM 7.14 44.852 0.055 7.04 26.08 11.69
11/13/2021 6:30:00 AM 7.12 44.816 0.055 7.03 7.62 11.69
11/13/2021 6:45:00 AM 7.12 44.816 0.056 7.04 7.85 11.69
11/13/2021 7:00:00 AM 7.12 44.816 0.056 7.05 12.04 11.69
11/13/2021 7:15:00 AM 7.12 44.816 0.056 7.04 7.52 11.69
11/13/2021 7:30:00 AM 7.13 44.834 0.056 7.04 17.19 11.68
11/13/2021 7:45:00 AM 7.14 44.852 0.056 7.05 7.38 11.68
11/13/2021 8:00:00 AM 7.15 44.87 0.056 7.04 7.48 11.68
11/13/2021 8:15:00 AM 7.16 44.888 0.056 7.04 8.92 11.68
11/13/2021 8:30:00 AM 7.17 44.906 0.056 7.05 10.05 11.68
11/13/2021 8:45:00 AM 7.2 44.96 0.056 7.04 6.73 11.68
11/13/2021 9:00:00 AM 7.23 45.014 0.056 7.06 11.9 11.68
11/13/2021 9:15:00 AM 7.26 45.068 0.056 7.05 6.91 11.67
11/13/2021 9:30:00 AM 7.3 45.14 0.056 7.06 11.61 11.67
11/13/2021 9:45:00 AM 7.34 45.212 0.056 7.07 7.93 11.67
11/13/2021 10:00:00 AM 7.38 45.284 0.056 7.07 6.6 11.66
11/13/2021 10:15:00 AM 7.41 45.338 0.056 7.07 6.53 11.64
11/13/2021 10:30:00 AM 7.45 45.41 0.056 7.08 6.17 11.63
11/13/2021 10:45:00 AM 7.48 45.464 0.056 7.07 6.05 11.62
11/13/2021 11:00:00 AM 7.52 45.536 0.056 7.08 6.89 11.61
11/13/2021 11:15:00 AM 7.56 45.608 0.056 7.08 11.29 11.59
11/13/2021 11:30:00 AM 7.61 45.698 0.056 7.08 5.82 11.58
11/13/2021 11:45:00 AM 7.65 45.77 0.056 7.08 5.92 11.58
11/13/2021 12:00:00 PM 7.68 45.824 0.056 7.08 5.95 11.57
11/13/2021 12:15:00 PM 7.71 45.878 0.056 7.09 6.14 11.55
11/13/2021 12:30:00 PM 7.75 45.95 0.056 7.09 5.88 11.54
11/13/2021 12:45:00 PM 7.78 46.004 0.056 7.08 5.89 11.53
11/13/2021 1:00:00 PM 7.8 46.04 0.056 7.09 7.89 11.52
11/13/2021 1:15:00 PM 7.81 46.058 0.056 7.09 6.17 11.5
11/13/2021 1:30:00 PM 7.81 46.058 0.056 7.09 5.94 11.49
11/13/2021 1:45:00 PM 7.81 46.058 0.056 7.09 6.07 11.49
11/13/2021 2:00:00 PM 7.81 46.058 0.056 7.1 6 11.49
11/13/2021 2:15:00 PM 7.82 46.076 0.056 7.09 5.78 11.49
11/13/2021 2:30:00 PM 7.81 46.058 0.056 7.09 5.84 11.49
11/13/2021 2:45:00 PM 7.81 46.058 0.056 7.09 6.09 11.49
11/13/2021 3:00:00 PM 7.78 46.004 0.056 7.1 7.23 11.49
11/13/2021 3:15:00 PM 7.75 45.95 0.056 7.1 19.19 11.5
11/13/2021 3:30:00 PM 7.74 45.932 0.056 7.1 6.84 11.51
11/13/2021 3:45:00 PM 7.72 45.896 0.056 7.1 8.46 11.52
11/13/2021 4:00:00 PM 7.69 45.842 0.056 7.09 8 11.52
11/13/2021 4:15:00 PM 7.66 45.788 0.056 7.09 7.6 11.53
11/13/2021 4:30:00 PM 7.63 45.734 0.056 7.1 8.3 11.55
11/13/2021 4:45:00 PM 7.6 45.68 0.056 7.11 9.19 11.56
11/13/2021 5:00:00 PM 7.57 45.626 0.056 7.11 10.9 11.57
11/13/2021 5:15:00 PM 7.54 45.572 0.056 7.11 11.33 11.58
11/13/2021 5:30:00 PM 7.51 45.518 0.055 7.1 9.4 11.58
11/13/2021 5:45:00 PM 7.47 45.446 0.055 7.1 12.47 11.59
11/13/2021 6:00:00 PM 7.42 45.356 0.055 7.1 8.92 11.6
11/13/2021 6:15:00 PM 7.38 45.284 0.055 7.09 9.33 11.61
11/13/2021 6:30:00 PM 7.34 45.212 0.055 7.1 9.49 11.62
11/13/2021 6:45:00 PM 7.31 45.158 0.055 7.09 9.54 11.63
11/13/2021 7:00:00 PM 7.27 45.086 0.055 7.09 9.48 11.64
11/13/2021 7:15:00 PM 7.23 45.014 0.055 7.08 9.98 11.65
11/13/2021 7:30:00 PM 7.18 44.924 0.055 7.08 9.04 11.67
11/13/2021 7:45:00 PM 7.12 44.816 0.055 7.08 8.86 11.68
11/13/2021 8:00:00 PM 7.08 44.744 0.055 7.08 9.09 11.7
11/13/2021 8:15:00 PM 7.03 44.654 0.055 7.08 8.97 11.71
11/13/2021 8:30:00 PM 6.99 44.582 0.055 7.08 9.51 11.73
11/13/2021 8:45:00 PM 6.95 44.51 0.055 7.07 9.69 11.74
11/13/2021 9:00:00 PM 6.91 44.438 0.055 7.07 8.85 11.75
11/13/2021 9:15:00 PM 6.87 44.366 0.055 7.07 7.98 11.76
11/13/2021 9:30:00 PM 6.82 44.276 0.055 7.07 7.97 11.77
11/13/2021 9:45:00 PM 6.78 44.204 0.055 7.07 7.66 11.79
11/13/2021 10:00:00 PM 6.74 44.132 0.055 7.06 7.9 11.8
11/13/2021 10:15:00 PM 6.7 44.06 0.055 7.07 7.53 11.81
11/13/2021 10:30:00 PM 6.66 43.988 0.055 7.06 7.15 11.82
11/13/2021 10:45:00 PM 6.62 43.916 0.055 7.06 7.18 11.83
11/13/2021 11:00:00 PM 6.6 43.88 0.055 7.06 7.16 11.85
11/13/2021 11:15:00 PM 6.57 43.826 0.055 7.06 9.82 11.85
11/13/2021 11:30:00 PM 6.56 43.808 0.055 7.06 7.93 11.86
11/13/2021 11:45:00 PM 6.54 43.772 0.055 7.07 8.26 11.87
11/14/2021 12:00:00 AM 6.52 43.736 0.055 7.05 6.75 11.88
11/14/2021 12:15:00 AM 6.51 43.718 0.056 7.05 6.66 11.88
11/14/2021 12:30:00 AM 6.5 43.7 0.056 7.06 7.89 11.89
11/14/2021 12:45:00 AM 6.48 43.664 0.056 7.06 6.93 11.89
11/14/2021 1:00:00 AM 6.47 43.646 0.056 7.05 6.64 11.89
11/14/2021 1:15:00 AM 6.46 43.628 0.056 7.06 6.79 11.9
11/14/2021 1:30:00 AM 6.46 43.628 0.056 7.05 6.24 11.9
11/14/2021 1:45:00 AM 6.46 43.628 0.056 7.05 6.43 11.91
11/14/2021 2:00:00 AM 6.45 43.61 0.056 7.06 6.52 11.91
11/14/2021 2:15:00 AM 6.45 43.61 0.056 7.06 6.68 11.9
11/14/2021 2:30:00 AM 6.44 43.592 0.056 7.05 6.22 11.91
11/14/2021 2:45:00 AM 6.44 43.592 0.056 7.06 5.99 11.91
11/14/2021 3:00:00 AM 6.44 43.592 0.056 7.05 6.23 11.91
11/14/2021 3:15:00 AM 6.44 43.592 0.056 7.05 6.12 11.91
11/14/2021 3:30:00 AM 6.44 43.592 0.056 7.05 5.72 11.91
11/14/2021 3:45:00 AM 6.43 43.574 0.056 7.05 5.63 11.92
11/14/2021 4:00:00 AM 6.43 43.574 0.056 7.05 5.96 11.92
11/14/2021 4:15:00 AM 6.43 43.574 0.056 7.06 5.89 11.91
11/14/2021 4:30:00 AM 6.43 43.574 0.056 7.06 5.65 11.91
11/14/2021 4:45:00 AM 6.43 43.574 0.056 7.06 5.52 11.91
11/14/2021 5:00:00 AM 6.43 43.574 0.056 7.05 5.59 11.91
11/14/2021 5:15:00 AM 6.44 43.592 0.056 7.06 5.6 11.91
11/14/2021 5:30:00 AM 6.44 43.592 0.056 7.05 5.38 11.91
11/14/2021 5:45:00 AM 6.44 43.592 0.056 7.06 5.54 11.91
11/14/2021 6:00:00 AM 6.44 43.592 0.056 7.07 5.78 11.91
11/14/2021 6:15:00 AM 6.45 43.61 0.056 7.05 5.38 11.91
11/14/2021 6:30:00 AM 6.45 43.61 0.056 7.06 5.38 11.91
11/14/2021 6:45:00 AM 6.45 43.61 0.056 7.07 5.58 11.91
11/14/2021 7:00:00 AM 6.45 43.61 0.056 7.06 5.33 11.91
11/14/2021 7:15:00 AM 6.45 43.61 0.056 7.06 5.18 11.91
11/14/2021 7:30:00 AM 6.45 43.61 0.057 7.07 5.84 11.91
11/14/2021 7:45:00 AM 6.45 43.61 0.057 7.07 5.14 11.91
11/14/2021 8:00:00 AM 6.45 43.61 0.057 7.06 5.19 11.91
11/14/2021 8:15:00 AM 6.45 43.61 0.057 7.05 4.97 11.92
11/14/2021 8:30:00 AM 6.45 43.61 0.057 7.07 5.47 11.92
11/14/2021 8:45:00 AM 6.46 43.628 0.057 7.07 5.09 11.93
11/14/2021 9:00:00 AM 6.47 43.646 0.057 7.06 5.19 11.94
11/14/2021 9:15:00 AM 6.48 43.664 0.057 7.07 5 11.95
11/14/2021 9:30:00 AM 6.5 43.7 0.057 7.08 9.63 11.96
11/14/2021 9:45:00 AM 6.51 43.718 0.057 7.08 5.93 11.97
11/14/2021 10:00:00 AM 6.54 43.772 0.057 7.09 5.62 11.98
11/14/2021 10:15:00 AM 6.57 43.826 0.057 7.1 9.56 12
11/14/2021 10:30:00 AM 6.61 43.898 0.057 7.1 5.53 12
11/14/2021 10:45:00 AM 6.65 43.97 0.057 7.11 9.82 12
11/14/2021 11:00:00 AM 6.69 44.042 0.057 7.11 4.94 12
11/14/2021 11:15:00 AM 6.71 44.078 0.057 7.11 4.92 11.99
11/14/2021 11:30:00 AM 6.74 44.132 0.057 7.12 4.76 11.98
11/14/2021 11:45:00 AM 6.81 44.258 0.057 7.12 6.28 11.98
11/14/2021 12:00:00 PM 6.84 44.312 0.057 7.12 23.54 11.97
11/14/2021 12:15:00 PM 6.91 44.438 0.057 7.13 13.91 11.96
11/14/2021 12:30:00 PM 6.98 44.564 0.057 7.12 5.51 11.95
11/14/2021 12:45:00 PM 7.16 44.888 0.057 7.13 6.82 11.91
11/14/2021 1:00:00 PM 7.17 44.906 0.057 7.13 13.66 11.89
11/14/2021 1:15:00 PM 7.16 44.888 0.057 7.13 10.67 11.88
11/14/2021 1:30:00 PM 7.16 44.888 0.057 7.14 8.23 11.87
11/14/2021 1:45:00 PM 7.18 44.924 0.057 7.15 13.4 11.85
11/14/2021 2:00:00 PM 7.25 45.05 0.057 7.13 4.88 11.82
11/14/2021 2:15:00 PM 7.32 45.176 0.057 7.14 6.48 11.8
11/14/2021 2:30:00 PM 7.37 45.266 0.057 7.14 7.37 11.78
11/14/2021 2:45:00 PM 7.4 45.32 0.057 7.14 5.67 11.76
11/14/2021 3:00:00 PM 7.43 45.374 0.057 7.14 11.88 11.74
11/14/2021 3:15:00 PM 7.43 45.374 0.057 7.14 6.82 11.72
11/14/2021 3:30:00 PM 7.42 45.356 0.057 7.13 6.92 11.71
11/14/2021 3:45:00 PM 7.41 45.338 0.057 7.13 18.25 11.7
11/14/2021 4:00:00 PM 7.4 45.32 0.057 7.13 10.67 11.7
11/14/2021 4:15:00 PM 7.4 45.32 0.057 7.12 14.37 11.69
11/14/2021 4:30:00 PM 7.4 45.32 0.057 7.12 9.04 11.68
11/14/2021 4:45:00 PM 7.39 45.302 0.057 7.11 5.78 11.66
11/14/2021 5:00:00 PM 7.37 45.266 0.058 7.11 5.62 11.65
11/14/2021 5:15:00 PM 7.34 45.212 0.058 7.11 9.52 11.64
11/14/2021 5:30:00 PM 7.32 45.176 0.058 7.1 6 11.63
11/14/2021 5:45:00 PM 7.3 45.14 0.058 7.1 10.21 11.62
11/14/2021 6:00:00 PM 7.28 45.104 0.058 7.09 8.09 11.62
11/14/2021 6:15:00 PM 7.26 45.068 0.058 7.09 6.53 11.62
11/14/2021 6:30:00 PM 7.24 45.032 0.058 7.09 9.71 11.62
11/14/2021 6:45:00 PM 7.23 45.014 0.058 7.08 47.56 11.62
11/14/2021 7:00:00 PM 7.21 44.978 0.058 7.09 6.83 11.62
11/14/2021 7:15:00 PM 7.19 44.942 0.058 7.09 86.62 11.63
11/14/2021 7:30:00 PM 7.17 44.906 0.058 7.08 6.97 11.63
11/14/2021 7:45:00 PM 7.14 44.852 0.058 7.08 30.52 11.64
11/14/2021 8:00:00 PM 7.12 44.816 0.058 7.08 5.19 11.65
11/14/2021 8:15:00 PM 7.08 44.744 0.058 7.08 5.48 11.66
11/14/2021 8:30:00 PM 7.04 44.672 0.058 7.08 5.41 11.66
11/14/2021 8:45:00 PM 7.02 44.636 0.058 7.09 35.65 11.67
11/14/2021 9:00:00 PM 6.99 44.582 0.058 7.08 4.93 11.68
11/14/2021 9:15:00 PM 6.97 44.546 0.058 7.08 12.29 11.69
11/14/2021 9:30:00 PM 6.95 44.51 0.058 7.08 5.74 11.69
11/14/2021 9:45:00 PM 6.93 44.474 0.058 7.09 37.76 11.7
11/14/2021 10:00:00 PM 6.89 44.402 0.058 7.08 11.16 11.71
11/14/2021 10:15:00 PM 6.85 44.33 0.058 7.08 166.09 11.72
11/14/2021 10:30:00 PM 6.82 44.276 0.058 7.09 10.63 11.72
11/14/2021 10:45:00 PM 6.79 44.222 0.058 7.09 5.76 11.73
11/14/2021 11:00:00 PM 6.76 44.168 0.058 7.08 6.71 11.74
11/14/2021 11:15:00 PM 6.74 44.132 0.058 7.08 6.07 11.75
11/14/2021 11:30:00 PM 6.71 44.078 0.058 7.08 16.29 11.75
11/14/2021 11:45:00 PM 6.69 44.042 0.058 7.08 11.62 11.76
11/15/2021 12:00:00 AM 6.66 43.988 0.058 7.08 6.01 11.77
11/15/2021 12:15:00 AM 6.63 43.934 0.058 7.08 6.09 11.77
11/15/2021 12:30:00 AM 6.61 43.898 0.058 7.08 27.36 11.78
11/15/2021 12:45:00 AM 6.58 43.844 0.058 7.08 5.45 11.79
11/15/2021 1:00:00 AM 6.56 43.808 0.059 7.09 35.03 11.8
11/15/2021 1:15:00 AM 6.55 43.79 0.059 7.08 6.83 11.8
11/15/2021 1:30:00 AM 6.53 43.754 0.059 7.07 5.94 11.81
11/15/2021 1:45:00 AM 6.51 43.718 0.059 7.09 17 11.81
11/15/2021 2:00:00 AM 6.49 43.682 0.059 7.08 10.66 11.82
11/15/2021 2:15:00 AM 6.47 43.646 0.059 7.09 6.89 11.82
11/15/2021 2:30:00 AM 6.45 43.61 0.059 7.09 13.57 11.83
11/15/2021 2:45:00 AM 6.43 43.574 0.059 7.07 7.65 11.84
11/15/2021 3:00:00 AM 6.41 43.538 0.059 7.08 6.16 11.84
11/15/2021 3:15:00 AM 6.39 43.502 0.059 7.08 5.7 11.85
11/15/2021 3:30:00 AM 6.37 43.466 0.059 7.08 11.71 11.85
11/15/2021 3:45:00 AM 6.35 43.43 0.059 7.08 5.98 11.85
11/15/2021 4:00:00 AM 6.33 43.394 0.059 7.08 43.75 11.86
11/15/2021 4:15:00 AM 6.31 43.358 0.059 7.08 9.97 11.86
11/15/2021 4:30:00 AM 6.29 43.322 0.059 7.08 4.87 11.86
11/15/2021 4:45:00 AM 6.28 43.304 0.059 7.08 4.93 11.87
11/15/2021 5:00:00 AM 6.27 43.286 0.059 7.09 22.76 11.87
11/15/2021 5:15:00 AM 6.26 43.268 0.059 7.08 5.09 11.88
11/15/2021 5:30:00 AM 6.25 43.25 0.059 7.07 5.46 11.88
11/15/2021 5:45:00 AM 6.24 43.232 0.059 7.09 29.21 11.88
11/15/2021 6:00:00 AM 6.23 43.214 0.059 7.08 12.41 11.89
11/15/2021 6:15:00 AM 6.21 43.178 0.059 7.09 9.22 11.89
11/15/2021 6:30:00 AM 6.2 43.16 0.059 7.08 16.51 11.89
11/15/2021 6:45:00 AM 6.19 43.142 0.059 7.08 5.97 11.9
11/15/2021 7:00:00 AM 6.18 43.124 0.059 7.08 5 11.9
11/15/2021 7:15:00 AM 6.16 43.088 0.059 7.08 9.01 11.91
11/15/2021 7:30:00 AM 6.15 43.07 0.059 7.09 10.05 11.91
11/15/2021 7:45:00 AM 6.14 43.052 0.059 7.09 14.8 11.92
11/15/2021 8:00:00 AM 6.12 43.016 0.059 7.08 6.11 11.93